<?xml version="1.0" encoding="UTF-8" standalone="no" ?>
<gpx xmlns="http://www.topografix.com/GPX/1/1" xmlns:xsi="http://www.w3.org/2001/XMLSchema-instance" xsi:schemaLocation="http://www.topografix.com/GPX/1/1 http://www.topografix.com/GPX/1/1/gpx.xsd" version="1.1" creator="VisuGPX - https://www.visugpx.com">
  <metadata>
    <name>Sortie VTT MN23082012</name>
    <desc><![CDATA[Parcours mixte avec vent S/O soutenu, avec dénivelés ]]></desc>
  </metadata>
  <trk>
    <name><![CDATA[Sortie VTT MN23082012_1]]></name>
    <trkseg>
      <trkpt lat="46.38239" lon="-0.39133">
        <ele>57.4</ele>
        <time>2012-08-12T15:25:46Z</time>
      </trkpt>
      <trkpt lat="46.38239" lon="-0.39133">
        <ele>63.9</ele>
        <time>2012-08-12T15:25:47Z</time>
      </trkpt>
      <trkpt lat="46.38222" lon="-0.39142">
        <ele>73.9</ele>
        <time>2012-08-12T15:25:56Z</time>
      </trkpt>
      <trkpt lat="46.38193" lon="-0.39157">
        <ele>73.9</ele>
        <time>2012-08-12T15:26:05Z</time>
      </trkpt>
      <trkpt lat="46.38163" lon="-0.39175">
        <ele>74.9</ele>
        <time>2012-08-12T15:26:13Z</time>
      </trkpt>
      <trkpt lat="46.38149" lon="-0.39181">
        <ele>74.9</ele>
        <time>2012-08-12T15:26:17Z</time>
      </trkpt>
      <trkpt lat="46.38133" lon="-0.3919">
        <ele>74.9</ele>
        <time>2012-08-12T15:26:22Z</time>
      </trkpt>
      <trkpt lat="46.38119" lon="-0.39206">
        <ele>75.9</ele>
        <time>2012-08-12T15:26:26Z</time>
      </trkpt>
      <trkpt lat="46.38107" lon="-0.39223">
        <ele>74.9</ele>
        <time>2012-08-12T15:26:30Z</time>
      </trkpt>
      <trkpt lat="46.38089" lon="-0.39256">
        <ele>74.9</ele>
        <time>2012-08-12T15:26:36Z</time>
      </trkpt>
      <trkpt lat="46.38079" lon="-0.39298">
        <ele>75.9</ele>
        <time>2012-08-12T15:26:43Z</time>
      </trkpt>
      <trkpt lat="46.38074" lon="-0.39323">
        <ele>74.9</ele>
        <time>2012-08-12T15:26:47Z</time>
      </trkpt>
      <trkpt lat="46.38072" lon="-0.39373">
        <ele>69.9</ele>
        <time>2012-08-12T15:26:55Z</time>
      </trkpt>
      <trkpt lat="46.38082" lon="-0.3941">
        <ele>68.9</ele>
        <time>2012-08-12T15:27:01Z</time>
      </trkpt>
      <trkpt lat="46.38101" lon="-0.39449">
        <ele>70.9</ele>
        <time>2012-08-12T15:27:08Z</time>
      </trkpt>
      <trkpt lat="46.38125" lon="-0.39478">
        <ele>71.9</ele>
        <time>2012-08-12T15:27:14Z</time>
      </trkpt>
      <trkpt lat="46.38148" lon="-0.39509">
        <ele>69.9</ele>
        <time>2012-08-12T15:27:23Z</time>
      </trkpt>
      <trkpt lat="46.38155" lon="-0.39528">
        <ele>69.9</ele>
        <time>2012-08-12T15:27:28Z</time>
      </trkpt>
      <trkpt lat="46.38162" lon="-0.39548">
        <ele>69.9</ele>
        <time>2012-08-12T15:27:32Z</time>
      </trkpt>
      <trkpt lat="46.38178" lon="-0.3959">
        <ele>69.9</ele>
        <time>2012-08-12T15:27:40Z</time>
      </trkpt>
      <trkpt lat="46.38187" lon="-0.39612">
        <ele>70.9</ele>
        <time>2012-08-12T15:27:44Z</time>
      </trkpt>
      <trkpt lat="46.38207" lon="-0.39653">
        <ele>71.9</ele>
        <time>2012-08-12T15:27:52Z</time>
      </trkpt>
      <trkpt lat="46.38228" lon="-0.39687">
        <ele>71.9</ele>
        <time>2012-08-12T15:28:00Z</time>
      </trkpt>
      <trkpt lat="46.38256" lon="-0.3973">
        <ele>75.9</ele>
        <time>2012-08-12T15:28:31Z</time>
      </trkpt>
      <trkpt lat="46.38265" lon="-0.39793">
        <ele>76.9</ele>
        <time>2012-08-12T15:28:38Z</time>
      </trkpt>
      <trkpt lat="46.38282" lon="-0.39836">
        <ele>74.9</ele>
        <time>2012-08-12T15:28:44Z</time>
      </trkpt>
      <trkpt lat="46.38293" lon="-0.39877">
        <ele>73.9</ele>
        <time>2012-08-12T15:28:50Z</time>
      </trkpt>
      <trkpt lat="46.38297" lon="-0.39924">
        <ele>74.9</ele>
        <time>2012-08-12T15:28:56Z</time>
      </trkpt>
      <trkpt lat="46.38316" lon="-0.39972">
        <ele>75.9</ele>
        <time>2012-08-12T15:29:02Z</time>
      </trkpt>
      <trkpt lat="46.38346" lon="-0.39997">
        <ele>74.9</ele>
        <time>2012-08-12T15:29:08Z</time>
      </trkpt>
      <trkpt lat="46.38374" lon="-0.40021">
        <ele>77.9</ele>
        <time>2012-08-12T15:29:19Z</time>
      </trkpt>
      <trkpt lat="46.3839" lon="-0.40024">
        <ele>76.9</ele>
        <time>2012-08-12T15:29:23Z</time>
      </trkpt>
      <trkpt lat="46.38417" lon="-0.40014">
        <ele>75.9</ele>
        <time>2012-08-12T15:29:30Z</time>
      </trkpt>
      <trkpt lat="46.38449" lon="-0.4002">
        <ele>74.9</ele>
        <time>2012-08-12T15:29:38Z</time>
      </trkpt>
      <trkpt lat="46.38469" lon="-0.40049">
        <ele>74.9</ele>
        <time>2012-08-12T15:29:44Z</time>
      </trkpt>
      <trkpt lat="46.38486" lon="-0.40085">
        <ele>73.9</ele>
        <time>2012-08-12T15:29:50Z</time>
      </trkpt>
      <trkpt lat="46.38502" lon="-0.4012">
        <ele>74.9</ele>
        <time>2012-08-12T15:29:56Z</time>
      </trkpt>
      <trkpt lat="46.38509" lon="-0.40159">
        <ele>75.9</ele>
        <time>2012-08-12T15:30:02Z</time>
      </trkpt>
      <trkpt lat="46.38515" lon="-0.40207">
        <ele>73.9</ele>
        <time>2012-08-12T15:30:10Z</time>
      </trkpt>
      <trkpt lat="46.38543" lon="-0.40197">
        <ele>72.9</ele>
        <time>2012-08-12T15:30:29Z</time>
      </trkpt>
      <trkpt lat="46.38564" lon="-0.40183">
        <ele>73.9</ele>
        <time>2012-08-12T15:30:37Z</time>
      </trkpt>
      <trkpt lat="46.38593" lon="-0.40166">
        <ele>72.9</ele>
        <time>2012-08-12T15:30:43Z</time>
      </trkpt>
      <trkpt lat="46.38625" lon="-0.40145">
        <ele>71.9</ele>
        <time>2012-08-12T15:30:49Z</time>
      </trkpt>
      <trkpt lat="46.3866" lon="-0.4012">
        <ele>71.9</ele>
        <time>2012-08-12T15:30:56Z</time>
      </trkpt>
      <trkpt lat="46.38689" lon="-0.40101">
        <ele>70.9</ele>
        <time>2012-08-12T15:31:02Z</time>
      </trkpt>
      <trkpt lat="46.3872" lon="-0.40082">
        <ele>70.9</ele>
        <time>2012-08-12T15:31:08Z</time>
      </trkpt>
      <trkpt lat="46.38753" lon="-0.40063">
        <ele>70.9</ele>
        <time>2012-08-12T15:31:14Z</time>
      </trkpt>
      <trkpt lat="46.38786" lon="-0.40046">
        <ele>69.9</ele>
        <time>2012-08-12T15:31:20Z</time>
      </trkpt>
      <trkpt lat="46.3882" lon="-0.40031">
        <ele>68.9</ele>
        <time>2012-08-12T15:31:26Z</time>
      </trkpt>
      <trkpt lat="46.38853" lon="-0.40014">
        <ele>70.9</ele>
        <time>2012-08-12T15:31:32Z</time>
      </trkpt>
      <trkpt lat="46.38885" lon="-0.40005">
        <ele>69.9</ele>
        <time>2012-08-12T15:31:38Z</time>
      </trkpt>
      <trkpt lat="46.38911" lon="-0.40036">
        <ele>70.9</ele>
        <time>2012-08-12T15:31:44Z</time>
      </trkpt>
      <trkpt lat="46.3892" lon="-0.40087">
        <ele>72.9</ele>
        <time>2012-08-12T15:31:50Z</time>
      </trkpt>
      <trkpt lat="46.38927" lon="-0.40139">
        <ele>71.9</ele>
        <time>2012-08-12T15:31:56Z</time>
      </trkpt>
      <trkpt lat="46.38937" lon="-0.40191">
        <ele>57.9</ele>
        <time>2012-08-12T15:32:02Z</time>
      </trkpt>
      <trkpt lat="46.38942" lon="-0.40247">
        <ele>50.9</ele>
        <time>2012-08-12T15:32:08Z</time>
      </trkpt>
      <trkpt lat="46.38958" lon="-0.40292">
        <ele>50.9</ele>
        <time>2012-08-12T15:32:14Z</time>
      </trkpt>
      <trkpt lat="46.38987" lon="-0.40284">
        <ele>49.9</ele>
        <time>2012-08-12T15:32:21Z</time>
      </trkpt>
      <trkpt lat="46.39014" lon="-0.40263">
        <ele>49.9</ele>
        <time>2012-08-12T15:32:27Z</time>
      </trkpt>
      <trkpt lat="46.39046" lon="-0.40245">
        <ele>49.9</ele>
        <time>2012-08-12T15:32:33Z</time>
      </trkpt>
      <trkpt lat="46.3908" lon="-0.40233">
        <ele>48.9</ele>
        <time>2012-08-12T15:32:39Z</time>
      </trkpt>
      <trkpt lat="46.39116" lon="-0.40216">
        <ele>49.9</ele>
        <time>2012-08-12T15:32:45Z</time>
      </trkpt>
      <trkpt lat="46.39149" lon="-0.40203">
        <ele>49.9</ele>
        <time>2012-08-12T15:32:50Z</time>
      </trkpt>
      <trkpt lat="46.39196" lon="-0.40187">
        <ele>49.9</ele>
        <time>2012-08-12T15:32:56Z</time>
      </trkpt>
      <trkpt lat="46.39231" lon="-0.4017">
        <ele>49.9</ele>
        <time>2012-08-12T15:33:00Z</time>
      </trkpt>
      <trkpt lat="46.39296" lon="-0.4012">
        <ele>48.9</ele>
        <time>2012-08-12T15:33:06Z</time>
      </trkpt>
      <trkpt lat="46.39357" lon="-0.4007">
        <ele>47.9</ele>
        <time>2012-08-12T15:33:12Z</time>
      </trkpt>
      <trkpt lat="46.39406" lon="-0.40032">
        <ele>48.9</ele>
        <time>2012-08-12T15:33:18Z</time>
      </trkpt>
      <trkpt lat="46.39449" lon="-0.4">
        <ele>47.9</ele>
        <time>2012-08-12T15:33:24Z</time>
      </trkpt>
      <trkpt lat="46.39488" lon="-0.39971">
        <ele>48.9</ele>
        <time>2012-08-12T15:33:30Z</time>
      </trkpt>
      <trkpt lat="46.3952" lon="-0.39975">
        <ele>46.9</ele>
        <time>2012-08-12T15:33:35Z</time>
      </trkpt>
      <trkpt lat="46.39541" lon="-0.40009">
        <ele>45.9</ele>
        <time>2012-08-12T15:33:39Z</time>
      </trkpt>
      <trkpt lat="46.39563" lon="-0.40063">
        <ele>46.9</ele>
        <time>2012-08-12T15:33:45Z</time>
      </trkpt>
      <trkpt lat="46.39579" lon="-0.40114">
        <ele>46.9</ele>
        <time>2012-08-12T15:33:51Z</time>
      </trkpt>
      <trkpt lat="46.39596" lon="-0.40161">
        <ele>44.9</ele>
        <time>2012-08-12T15:33:57Z</time>
      </trkpt>
      <trkpt lat="46.39615" lon="-0.40201">
        <ele>39.9</ele>
        <time>2012-08-12T15:34:03Z</time>
      </trkpt>
      <trkpt lat="46.39632" lon="-0.40244">
        <ele>39.9</ele>
        <time>2012-08-12T15:34:09Z</time>
      </trkpt>
      <trkpt lat="46.39648" lon="-0.4029">
        <ele>38.9</ele>
        <time>2012-08-12T15:34:15Z</time>
      </trkpt>
      <trkpt lat="46.39663" lon="-0.40336">
        <ele>38.9</ele>
        <time>2012-08-12T15:34:21Z</time>
      </trkpt>
      <trkpt lat="46.39661" lon="-0.40381">
        <ele>38.9</ele>
        <time>2012-08-12T15:34:27Z</time>
      </trkpt>
      <trkpt lat="46.39639" lon="-0.4042">
        <ele>36.9</ele>
        <time>2012-08-12T15:34:33Z</time>
      </trkpt>
      <trkpt lat="46.39614" lon="-0.40441">
        <ele>36.9</ele>
        <time>2012-08-12T15:34:37Z</time>
      </trkpt>
      <trkpt lat="46.39568" lon="-0.40475">
        <ele>34.9</ele>
        <time>2012-08-12T15:34:43Z</time>
      </trkpt>
      <trkpt lat="46.39539" lon="-0.40497">
        <ele>33.9</ele>
        <time>2012-08-12T15:34:47Z</time>
      </trkpt>
      <trkpt lat="46.39513" lon="-0.40518">
        <ele>33.9</ele>
        <time>2012-08-12T15:34:51Z</time>
      </trkpt>
      <trkpt lat="46.39475" lon="-0.40546">
        <ele>33.9</ele>
        <time>2012-08-12T15:34:57Z</time>
      </trkpt>
      <trkpt lat="46.39451" lon="-0.40568">
        <ele>37.9</ele>
        <time>2012-08-12T15:35:03Z</time>
      </trkpt>
      <trkpt lat="46.3942" lon="-0.40595">
        <ele>40.9</ele>
        <time>2012-08-12T15:35:09Z</time>
      </trkpt>
      <trkpt lat="46.39394" lon="-0.40625">
        <ele>41.9</ele>
        <time>2012-08-12T15:35:15Z</time>
      </trkpt>
      <trkpt lat="46.39369" lon="-0.40657">
        <ele>41.9</ele>
        <time>2012-08-12T15:35:20Z</time>
      </trkpt>
      <trkpt lat="46.39346" lon="-0.40692">
        <ele>41.9</ele>
        <time>2012-08-12T15:35:26Z</time>
      </trkpt>
      <trkpt lat="46.39329" lon="-0.40729">
        <ele>41.9</ele>
        <time>2012-08-12T15:35:32Z</time>
      </trkpt>
      <trkpt lat="46.39316" lon="-0.40766">
        <ele>40.9</ele>
        <time>2012-08-12T15:35:38Z</time>
      </trkpt>
      <trkpt lat="46.39308" lon="-0.40804">
        <ele>39.9</ele>
        <time>2012-08-12T15:35:44Z</time>
      </trkpt>
      <trkpt lat="46.39304" lon="-0.40844">
        <ele>39.9</ele>
        <time>2012-08-12T15:35:50Z</time>
      </trkpt>
      <trkpt lat="46.39295" lon="-0.40882">
        <ele>38.9</ele>
        <time>2012-08-12T15:35:56Z</time>
      </trkpt>
      <trkpt lat="46.39285" lon="-0.40903">
        <ele>38.9</ele>
        <time>2012-08-12T15:36:00Z</time>
      </trkpt>
      <trkpt lat="46.39273" lon="-0.40941">
        <ele>44.9</ele>
        <time>2012-08-12T15:36:06Z</time>
      </trkpt>
      <trkpt lat="46.39262" lon="-0.40983">
        <ele>46.9</ele>
        <time>2012-08-12T15:36:13Z</time>
      </trkpt>
      <trkpt lat="46.39254" lon="-0.40999">
        <ele>47.9</ele>
        <time>2012-08-12T15:36:18Z</time>
      </trkpt>
      <trkpt lat="46.39237" lon="-0.41036">
        <ele>48.9</ele>
        <time>2012-08-12T15:36:32Z</time>
      </trkpt>
      <trkpt lat="46.39218" lon="-0.41073">
        <ele>48.9</ele>
        <time>2012-08-12T15:36:41Z</time>
      </trkpt>
      <trkpt lat="46.39199" lon="-0.41103">
        <ele>48.9</ele>
        <time>2012-08-12T15:36:47Z</time>
      </trkpt>
      <trkpt lat="46.39178" lon="-0.41139">
        <ele>48.9</ele>
        <time>2012-08-12T15:36:54Z</time>
      </trkpt>
      <trkpt lat="46.39168" lon="-0.41177">
        <ele>48.9</ele>
        <time>2012-08-12T15:37:00Z</time>
      </trkpt>
      <trkpt lat="46.3916" lon="-0.41221">
        <ele>52.9</ele>
        <time>2012-08-12T15:37:05Z</time>
      </trkpt>
      <trkpt lat="46.39164" lon="-0.41294">
        <ele>51.9</ele>
        <time>2012-08-12T15:37:11Z</time>
      </trkpt>
      <trkpt lat="46.3917" lon="-0.41358">
        <ele>50.9</ele>
        <time>2012-08-12T15:37:17Z</time>
      </trkpt>
      <trkpt lat="46.39174" lon="-0.41398">
        <ele>51.9</ele>
        <time>2012-08-12T15:37:21Z</time>
      </trkpt>
      <trkpt lat="46.39178" lon="-0.41454">
        <ele>51.9</ele>
        <time>2012-08-12T15:37:27Z</time>
      </trkpt>
      <trkpt lat="46.39175" lon="-0.41505">
        <ele>50.9</ele>
        <time>2012-08-12T15:37:33Z</time>
      </trkpt>
      <trkpt lat="46.39162" lon="-0.41539">
        <ele>49.9</ele>
        <time>2012-08-12T15:37:39Z</time>
      </trkpt>
      <trkpt lat="46.39159" lon="-0.41581">
        <ele>47.9</ele>
        <time>2012-08-12T15:37:45Z</time>
      </trkpt>
      <trkpt lat="46.39172" lon="-0.41595">
        <ele>47.9</ele>
        <time>2012-08-12T15:37:49Z</time>
      </trkpt>
      <trkpt lat="46.39197" lon="-0.41622">
        <ele>46.9</ele>
        <time>2012-08-12T15:37:54Z</time>
      </trkpt>
      <trkpt lat="46.39211" lon="-0.41665">
        <ele>46.9</ele>
        <time>2012-08-12T15:37:59Z</time>
      </trkpt>
      <trkpt lat="46.39238" lon="-0.41683">
        <ele>46.9</ele>
        <time>2012-08-12T15:38:06Z</time>
      </trkpt>
      <trkpt lat="46.39269" lon="-0.41663">
        <ele>45.9</ele>
        <time>2012-08-12T15:38:12Z</time>
      </trkpt>
      <trkpt lat="46.39305" lon="-0.41648">
        <ele>44.9</ele>
        <time>2012-08-12T15:38:18Z</time>
      </trkpt>
      <trkpt lat="46.39337" lon="-0.41638">
        <ele>44.9</ele>
        <time>2012-08-12T15:38:23Z</time>
      </trkpt>
      <trkpt lat="46.39377" lon="-0.41637">
        <ele>45.9</ele>
        <time>2012-08-12T15:38:29Z</time>
      </trkpt>
      <trkpt lat="46.39417" lon="-0.41639">
        <ele>45.9</ele>
        <time>2012-08-12T15:38:35Z</time>
      </trkpt>
      <trkpt lat="46.39456" lon="-0.4164">
        <ele>45.9</ele>
        <time>2012-08-12T15:38:41Z</time>
      </trkpt>
      <trkpt lat="46.39493" lon="-0.41651">
        <ele>44.9</ele>
        <time>2012-08-12T15:38:47Z</time>
      </trkpt>
      <trkpt lat="46.39527" lon="-0.4167">
        <ele>45.9</ele>
        <time>2012-08-12T15:38:53Z</time>
      </trkpt>
      <trkpt lat="46.39559" lon="-0.41688">
        <ele>45.9</ele>
        <time>2012-08-12T15:38:59Z</time>
      </trkpt>
      <trkpt lat="46.39589" lon="-0.41706">
        <ele>43.9</ele>
        <time>2012-08-12T15:39:06Z</time>
      </trkpt>
      <trkpt lat="46.39612" lon="-0.41711">
        <ele>43.9</ele>
        <time>2012-08-12T15:39:15Z</time>
      </trkpt>
      <trkpt lat="46.39626" lon="-0.41713">
        <ele>42.9</ele>
        <time>2012-08-12T15:39:20Z</time>
      </trkpt>
      <trkpt lat="46.39641" lon="-0.41715">
        <ele>43.9</ele>
        <time>2012-08-12T15:39:25Z</time>
      </trkpt>
      <trkpt lat="46.39655" lon="-0.41717">
        <ele>43.9</ele>
        <time>2012-08-12T15:39:29Z</time>
      </trkpt>
      <trkpt lat="46.39669" lon="-0.4172">
        <ele>43.9</ele>
        <time>2012-08-12T15:39:33Z</time>
      </trkpt>
      <trkpt lat="46.39686" lon="-0.41724">
        <ele>44.9</ele>
        <time>2012-08-12T15:39:38Z</time>
      </trkpt>
      <trkpt lat="46.39704" lon="-0.41726">
        <ele>44.9</ele>
        <time>2012-08-12T15:39:43Z</time>
      </trkpt>
      <trkpt lat="46.3972" lon="-0.41732">
        <ele>44.9</ele>
        <time>2012-08-12T15:39:48Z</time>
      </trkpt>
      <trkpt lat="46.39735" lon="-0.41762">
        <ele>43.9</ele>
        <time>2012-08-12T15:39:55Z</time>
      </trkpt>
      <trkpt lat="46.39755" lon="-0.41795">
        <ele>44.9</ele>
        <time>2012-08-12T15:40:03Z</time>
      </trkpt>
      <trkpt lat="46.39779" lon="-0.41829">
        <ele>45.9</ele>
        <time>2012-08-12T15:40:08Z</time>
      </trkpt>
      <trkpt lat="46.39809" lon="-0.41859">
        <ele>44.9</ele>
        <time>2012-08-12T15:40:12Z</time>
      </trkpt>
      <trkpt lat="46.39839" lon="-0.4188">
        <ele>45.9</ele>
        <time>2012-08-12T15:40:16Z</time>
      </trkpt>
      <trkpt lat="46.39867" lon="-0.41901">
        <ele>46.9</ele>
        <time>2012-08-12T15:40:22Z</time>
      </trkpt>
      <trkpt lat="46.39896" lon="-0.41906">
        <ele>45.9</ele>
        <time>2012-08-12T15:40:26Z</time>
      </trkpt>
      <trkpt lat="46.3993" lon="-0.41901">
        <ele>44.9</ele>
        <time>2012-08-12T15:40:32Z</time>
      </trkpt>
      <trkpt lat="46.39957" lon="-0.41892">
        <ele>44.9</ele>
        <time>2012-08-12T15:40:38Z</time>
      </trkpt>
      <trkpt lat="46.39974" lon="-0.41886">
        <ele>43.9</ele>
        <time>2012-08-12T15:40:42Z</time>
      </trkpt>
      <trkpt lat="46.40001" lon="-0.41876">
        <ele>43.9</ele>
        <time>2012-08-12T15:40:48Z</time>
      </trkpt>
      <trkpt lat="46.40028" lon="-0.4187">
        <ele>43.9</ele>
        <time>2012-08-12T15:40:54Z</time>
      </trkpt>
      <trkpt lat="46.40055" lon="-0.41865">
        <ele>44.9</ele>
        <time>2012-08-12T15:41:00Z</time>
      </trkpt>
      <trkpt lat="46.40085" lon="-0.41859">
        <ele>56.9</ele>
        <time>2012-08-12T15:41:07Z</time>
      </trkpt>
      <trkpt lat="46.40102" lon="-0.4186">
        <ele>61.9</ele>
        <time>2012-08-12T15:41:12Z</time>
      </trkpt>
      <trkpt lat="46.40135" lon="-0.41856">
        <ele>63.9</ele>
        <time>2012-08-12T15:41:20Z</time>
      </trkpt>
      <trkpt lat="46.40165" lon="-0.41852">
        <ele>63.9</ele>
        <time>2012-08-12T15:41:26Z</time>
      </trkpt>
      <trkpt lat="46.40204" lon="-0.41881">
        <ele>63.9</ele>
        <time>2012-08-12T15:41:31Z</time>
      </trkpt>
      <trkpt lat="46.40241" lon="-0.41924">
        <ele>63.9</ele>
        <time>2012-08-12T15:41:35Z</time>
      </trkpt>
      <trkpt lat="46.40276" lon="-0.41967">
        <ele>63.9</ele>
        <time>2012-08-12T15:41:39Z</time>
      </trkpt>
      <trkpt lat="46.40331" lon="-0.42022">
        <ele>61.9</ele>
        <time>2012-08-12T15:41:45Z</time>
      </trkpt>
      <trkpt lat="46.40376" lon="-0.42025">
        <ele>60.9</ele>
        <time>2012-08-12T15:41:49Z</time>
      </trkpt>
      <trkpt lat="46.40417" lon="-0.4203">
        <ele>59.9</ele>
        <time>2012-08-12T15:41:53Z</time>
      </trkpt>
      <trkpt lat="46.40467" lon="-0.42057">
        <ele>57.9</ele>
        <time>2012-08-12T15:41:59Z</time>
      </trkpt>
      <trkpt lat="46.40495" lon="-0.42081">
        <ele>57.9</ele>
        <time>2012-08-12T15:42:03Z</time>
      </trkpt>
      <trkpt lat="46.40534" lon="-0.42112">
        <ele>57.9</ele>
        <time>2012-08-12T15:42:09Z</time>
      </trkpt>
      <trkpt lat="46.40574" lon="-0.42151">
        <ele>58.9</ele>
        <time>2012-08-12T15:42:16Z</time>
      </trkpt>
      <trkpt lat="46.40599" lon="-0.42192">
        <ele>59.9</ele>
        <time>2012-08-12T15:42:22Z</time>
      </trkpt>
      <trkpt lat="46.4062" lon="-0.42233">
        <ele>58.9</ele>
        <time>2012-08-12T15:42:28Z</time>
      </trkpt>
      <trkpt lat="46.40634" lon="-0.42277">
        <ele>57.9</ele>
        <time>2012-08-12T15:42:34Z</time>
      </trkpt>
      <trkpt lat="46.40634" lon="-0.42327">
        <ele>58.9</ele>
        <time>2012-08-12T15:42:40Z</time>
      </trkpt>
      <trkpt lat="46.40627" lon="-0.42382">
        <ele>56.9</ele>
        <time>2012-08-12T15:42:46Z</time>
      </trkpt>
      <trkpt lat="46.40625" lon="-0.42433">
        <ele>55.9</ele>
        <time>2012-08-12T15:42:52Z</time>
      </trkpt>
      <trkpt lat="46.40635" lon="-0.42479">
        <ele>54.9</ele>
        <time>2012-08-12T15:42:58Z</time>
      </trkpt>
      <trkpt lat="46.40642" lon="-0.42521">
        <ele>54.9</ele>
        <time>2012-08-12T15:43:04Z</time>
      </trkpt>
      <trkpt lat="46.40651" lon="-0.42565">
        <ele>55.9</ele>
        <time>2012-08-12T15:43:11Z</time>
      </trkpt>
      <trkpt lat="46.40656" lon="-0.4259">
        <ele>55.9</ele>
        <time>2012-08-12T15:43:15Z</time>
      </trkpt>
      <trkpt lat="46.40663" lon="-0.42631">
        <ele>56.9</ele>
        <time>2012-08-12T15:43:21Z</time>
      </trkpt>
      <trkpt lat="46.40632" lon="-0.42648">
        <ele>53.9</ele>
        <time>2012-08-12T15:43:27Z</time>
      </trkpt>
      <trkpt lat="46.406" lon="-0.42645">
        <ele>50.9</ele>
        <time>2012-08-12T15:43:34Z</time>
      </trkpt>
      <trkpt lat="46.40568" lon="-0.42632">
        <ele>46.9</ele>
        <time>2012-08-12T15:43:40Z</time>
      </trkpt>
      <trkpt lat="46.40534" lon="-0.42616">
        <ele>44.9</ele>
        <time>2012-08-12T15:43:46Z</time>
      </trkpt>
      <trkpt lat="46.40506" lon="-0.42643">
        <ele>43.9</ele>
        <time>2012-08-12T15:43:52Z</time>
      </trkpt>
      <trkpt lat="46.40485" lon="-0.42685">
        <ele>42.9</ele>
        <time>2012-08-12T15:43:58Z</time>
      </trkpt>
      <trkpt lat="46.4047" lon="-0.42728">
        <ele>41.9</ele>
        <time>2012-08-12T15:44:04Z</time>
      </trkpt>
      <trkpt lat="46.40452" lon="-0.42769">
        <ele>38.9</ele>
        <time>2012-08-12T15:44:10Z</time>
      </trkpt>
      <trkpt lat="46.40436" lon="-0.42811">
        <ele>39.9</ele>
        <time>2012-08-12T15:44:16Z</time>
      </trkpt>
      <trkpt lat="46.40421" lon="-0.42853">
        <ele>38.9</ele>
        <time>2012-08-12T15:44:22Z</time>
      </trkpt>
      <trkpt lat="46.40403" lon="-0.42891">
        <ele>40.9</ele>
        <time>2012-08-12T15:44:28Z</time>
      </trkpt>
      <trkpt lat="46.40379" lon="-0.42916">
        <ele>41.9</ele>
        <time>2012-08-12T15:44:34Z</time>
      </trkpt>
      <trkpt lat="46.40354" lon="-0.42943">
        <ele>41.9</ele>
        <time>2012-08-12T15:44:40Z</time>
      </trkpt>
      <trkpt lat="46.4033" lon="-0.42967">
        <ele>41.9</ele>
        <time>2012-08-12T15:44:46Z</time>
      </trkpt>
      <trkpt lat="46.40302" lon="-0.42992">
        <ele>38.9</ele>
        <time>2012-08-12T15:44:52Z</time>
      </trkpt>
      <trkpt lat="46.40275" lon="-0.43016">
        <ele>35.9</ele>
        <time>2012-08-12T15:44:58Z</time>
      </trkpt>
      <trkpt lat="46.40256" lon="-0.43032">
        <ele>34.9</ele>
        <time>2012-08-12T15:45:02Z</time>
      </trkpt>
      <trkpt lat="46.40222" lon="-0.43045">
        <ele>35.9</ele>
        <time>2012-08-12T15:45:08Z</time>
      </trkpt>
      <trkpt lat="46.40196" lon="-0.43059">
        <ele>38.9</ele>
        <time>2012-08-12T15:45:13Z</time>
      </trkpt>
      <trkpt lat="46.40167" lon="-0.43078">
        <ele>38.9</ele>
        <time>2012-08-12T15:45:19Z</time>
      </trkpt>
      <trkpt lat="46.40133" lon="-0.43099">
        <ele>38.9</ele>
        <time>2012-08-12T15:45:26Z</time>
      </trkpt>
      <trkpt lat="46.40113" lon="-0.43111">
        <ele>37.9</ele>
        <time>2012-08-12T15:45:30Z</time>
      </trkpt>
      <trkpt lat="46.40082" lon="-0.43127">
        <ele>36.9</ele>
        <time>2012-08-12T15:45:36Z</time>
      </trkpt>
      <trkpt lat="46.4005" lon="-0.43141">
        <ele>35.9</ele>
        <time>2012-08-12T15:45:42Z</time>
      </trkpt>
      <trkpt lat="46.40017" lon="-0.43155">
        <ele>33.9</ele>
        <time>2012-08-12T15:45:48Z</time>
      </trkpt>
      <trkpt lat="46.39991" lon="-0.43168">
        <ele>32.9</ele>
        <time>2012-08-12T15:45:53Z</time>
      </trkpt>
      <trkpt lat="46.39961" lon="-0.43184">
        <ele>32.9</ele>
        <time>2012-08-12T15:45:59Z</time>
      </trkpt>
      <trkpt lat="46.39938" lon="-0.43201">
        <ele>33.9</ele>
        <time>2012-08-12T15:46:04Z</time>
      </trkpt>
      <trkpt lat="46.39911" lon="-0.43219">
        <ele>33.9</ele>
        <time>2012-08-12T15:46:10Z</time>
      </trkpt>
      <trkpt lat="46.39886" lon="-0.43236">
        <ele>32.9</ele>
        <time>2012-08-12T15:46:16Z</time>
      </trkpt>
      <trkpt lat="46.39866" lon="-0.43249">
        <ele>32.9</ele>
        <time>2012-08-12T15:46:21Z</time>
      </trkpt>
      <trkpt lat="46.39834" lon="-0.43271">
        <ele>30.9</ele>
        <time>2012-08-12T15:46:29Z</time>
      </trkpt>
      <trkpt lat="46.39807" lon="-0.43287">
        <ele>30.9</ele>
        <time>2012-08-12T15:46:35Z</time>
      </trkpt>
      <trkpt lat="46.39783" lon="-0.433">
        <ele>29.9</ele>
        <time>2012-08-12T15:46:40Z</time>
      </trkpt>
      <trkpt lat="46.39755" lon="-0.43317">
        <ele>28.9</ele>
        <time>2012-08-12T15:46:46Z</time>
      </trkpt>
      <trkpt lat="46.39726" lon="-0.43335">
        <ele>26.9</ele>
        <time>2012-08-12T15:46:52Z</time>
      </trkpt>
      <trkpt lat="46.39698" lon="-0.43354">
        <ele>27.9</ele>
        <time>2012-08-12T15:46:58Z</time>
      </trkpt>
      <trkpt lat="46.39666" lon="-0.43373">
        <ele>27.9</ele>
        <time>2012-08-12T15:47:04Z</time>
      </trkpt>
      <trkpt lat="46.39637" lon="-0.43393">
        <ele>28.9</ele>
        <time>2012-08-12T15:47:10Z</time>
      </trkpt>
      <trkpt lat="46.39616" lon="-0.43421">
        <ele>27.9</ele>
        <time>2012-08-12T15:47:16Z</time>
      </trkpt>
      <trkpt lat="46.39592" lon="-0.43453">
        <ele>27.9</ele>
        <time>2012-08-12T15:47:23Z</time>
      </trkpt>
      <trkpt lat="46.39582" lon="-0.4347">
        <ele>26.9</ele>
        <time>2012-08-12T15:47:27Z</time>
      </trkpt>
      <trkpt lat="46.39557" lon="-0.43508">
        <ele>24.9</ele>
        <time>2012-08-12T15:47:35Z</time>
      </trkpt>
      <trkpt lat="46.3954" lon="-0.4353">
        <ele>23.9</ele>
        <time>2012-08-12T15:47:39Z</time>
      </trkpt>
      <trkpt lat="46.39518" lon="-0.43565">
        <ele>21.9</ele>
        <time>2012-08-12T15:47:45Z</time>
      </trkpt>
      <trkpt lat="46.39498" lon="-0.43596">
        <ele>21.9</ele>
        <time>2012-08-12T15:47:51Z</time>
      </trkpt>
      <trkpt lat="46.39477" lon="-0.43629">
        <ele>20.9</ele>
        <time>2012-08-12T15:47:57Z</time>
      </trkpt>
      <trkpt lat="46.39452" lon="-0.4366">
        <ele>19.9</ele>
        <time>2012-08-12T15:48:03Z</time>
      </trkpt>
      <trkpt lat="46.39428" lon="-0.4369">
        <ele>20.9</ele>
        <time>2012-08-12T15:48:09Z</time>
      </trkpt>
      <trkpt lat="46.39401" lon="-0.43716">
        <ele>20.9</ele>
        <time>2012-08-12T15:48:15Z</time>
      </trkpt>
      <trkpt lat="46.39376" lon="-0.43746">
        <ele>21.9</ele>
        <time>2012-08-12T15:48:21Z</time>
      </trkpt>
      <trkpt lat="46.39362" lon="-0.43767">
        <ele>21.9</ele>
        <time>2012-08-12T15:48:26Z</time>
      </trkpt>
      <trkpt lat="46.39345" lon="-0.43803">
        <ele>21.9</ele>
        <time>2012-08-12T15:48:31Z</time>
      </trkpt>
      <trkpt lat="46.39327" lon="-0.4384">
        <ele>21.9</ele>
        <time>2012-08-12T15:48:37Z</time>
      </trkpt>
      <trkpt lat="46.39312" lon="-0.43875">
        <ele>22.9</ele>
        <time>2012-08-12T15:48:43Z</time>
      </trkpt>
      <trkpt lat="46.39295" lon="-0.43911">
        <ele>23.9</ele>
        <time>2012-08-12T15:48:49Z</time>
      </trkpt>
      <trkpt lat="46.3928" lon="-0.4394">
        <ele>25.9</ele>
        <time>2012-08-12T15:48:54Z</time>
      </trkpt>
      <trkpt lat="46.39255" lon="-0.43982">
        <ele>25.9</ele>
        <time>2012-08-12T15:49:01Z</time>
      </trkpt>
      <trkpt lat="46.39234" lon="-0.44019">
        <ele>24.9</ele>
        <time>2012-08-12T15:49:07Z</time>
      </trkpt>
      <trkpt lat="46.39214" lon="-0.44056">
        <ele>23.9</ele>
        <time>2012-08-12T15:49:13Z</time>
      </trkpt>
      <trkpt lat="46.39195" lon="-0.44093">
        <ele>23.9</ele>
        <time>2012-08-12T15:49:19Z</time>
      </trkpt>
      <trkpt lat="46.39184" lon="-0.4412">
        <ele>25.9</ele>
        <time>2012-08-12T15:49:23Z</time>
      </trkpt>
      <trkpt lat="46.39167" lon="-0.44157">
        <ele>26.9</ele>
        <time>2012-08-12T15:49:29Z</time>
      </trkpt>
      <trkpt lat="46.39143" lon="-0.44189">
        <ele>27.9</ele>
        <time>2012-08-12T15:49:36Z</time>
      </trkpt>
      <trkpt lat="46.39125" lon="-0.44215">
        <ele>27.9</ele>
        <time>2012-08-12T15:49:41Z</time>
      </trkpt>
      <trkpt lat="46.3911" lon="-0.44237">
        <ele>28.9</ele>
        <time>2012-08-12T15:49:45Z</time>
      </trkpt>
      <trkpt lat="46.39094" lon="-0.44276">
        <ele>29.9</ele>
        <time>2012-08-12T15:49:51Z</time>
      </trkpt>
      <trkpt lat="46.39072" lon="-0.44315">
        <ele>29.9</ele>
        <time>2012-08-12T15:49:57Z</time>
      </trkpt>
      <trkpt lat="46.3907" lon="-0.44358">
        <ele>30.9</ele>
        <time>2012-08-12T15:50:03Z</time>
      </trkpt>
      <trkpt lat="46.39069" lon="-0.444">
        <ele>29.9</ele>
        <time>2012-08-12T15:50:09Z</time>
      </trkpt>
      <trkpt lat="46.3907" lon="-0.44444">
        <ele>28.9</ele>
        <time>2012-08-12T15:50:15Z</time>
      </trkpt>
      <trkpt lat="46.39068" lon="-0.44478">
        <ele>28.9</ele>
        <time>2012-08-12T15:50:20Z</time>
      </trkpt>
      <trkpt lat="46.39056" lon="-0.44522">
        <ele>27.9</ele>
        <time>2012-08-12T15:50:26Z</time>
      </trkpt>
      <trkpt lat="46.39052" lon="-0.44568">
        <ele>27.9</ele>
        <time>2012-08-12T15:50:32Z</time>
      </trkpt>
      <trkpt lat="46.3905" lon="-0.44613">
        <ele>24.9</ele>
        <time>2012-08-12T15:50:38Z</time>
      </trkpt>
      <trkpt lat="46.3905" lon="-0.44655">
        <ele>25.9</ele>
        <time>2012-08-12T15:50:44Z</time>
      </trkpt>
      <trkpt lat="46.3905" lon="-0.44704">
        <ele>25.9</ele>
        <time>2012-08-12T15:50:50Z</time>
      </trkpt>
      <trkpt lat="46.3905" lon="-0.44751">
        <ele>24.9</ele>
        <time>2012-08-12T15:50:56Z</time>
      </trkpt>
      <trkpt lat="46.39054" lon="-0.44802">
        <ele>26.9</ele>
        <time>2012-08-12T15:51:02Z</time>
      </trkpt>
      <trkpt lat="46.3906" lon="-0.44854">
        <ele>26.9</ele>
        <time>2012-08-12T15:51:08Z</time>
      </trkpt>
      <trkpt lat="46.39069" lon="-0.44898">
        <ele>25.9</ele>
        <time>2012-08-12T15:51:15Z</time>
      </trkpt>
      <trkpt lat="46.39075" lon="-0.44943">
        <ele>25.9</ele>
        <time>2012-08-12T15:51:21Z</time>
      </trkpt>
      <trkpt lat="46.3908" lon="-0.44998">
        <ele>27.9</ele>
        <time>2012-08-12T15:51:27Z</time>
      </trkpt>
      <trkpt lat="46.39079" lon="-0.4505">
        <ele>27.9</ele>
        <time>2012-08-12T15:51:33Z</time>
      </trkpt>
      <trkpt lat="46.39079" lon="-0.451">
        <ele>26.9</ele>
        <time>2012-08-12T15:51:39Z</time>
      </trkpt>
      <trkpt lat="46.39084" lon="-0.45148">
        <ele>26.9</ele>
        <time>2012-08-12T15:51:45Z</time>
      </trkpt>
      <trkpt lat="46.39094" lon="-0.45189">
        <ele>25.9</ele>
        <time>2012-08-12T15:51:51Z</time>
      </trkpt>
      <trkpt lat="46.39107" lon="-0.45201">
        <ele>17.9</ele>
        <time>2012-08-12T15:51:56Z</time>
      </trkpt>
      <trkpt lat="46.39135" lon="-0.45175">
        <ele>13.9</ele>
        <time>2012-08-12T15:52:02Z</time>
      </trkpt>
      <trkpt lat="46.39147" lon="-0.45159">
        <ele>13.9</ele>
        <time>2012-08-12T15:52:06Z</time>
      </trkpt>
      <trkpt lat="46.39171" lon="-0.45138">
        <ele>15.9</ele>
        <time>2012-08-12T15:52:12Z</time>
      </trkpt>
      <trkpt lat="46.3921" lon="-0.45117">
        <ele>18.9</ele>
        <time>2012-08-12T15:52:18Z</time>
      </trkpt>
      <trkpt lat="46.3925" lon="-0.45095">
        <ele>19.9</ele>
        <time>2012-08-12T15:52:24Z</time>
      </trkpt>
      <trkpt lat="46.39294" lon="-0.45072">
        <ele>21.9</ele>
        <time>2012-08-12T15:52:31Z</time>
      </trkpt>
      <trkpt lat="46.39324" lon="-0.45055">
        <ele>22.9</ele>
        <time>2012-08-12T15:52:37Z</time>
      </trkpt>
      <trkpt lat="46.39355" lon="-0.45039">
        <ele>22.9</ele>
        <time>2012-08-12T15:52:43Z</time>
      </trkpt>
      <trkpt lat="46.39387" lon="-0.45024">
        <ele>22.9</ele>
        <time>2012-08-12T15:52:49Z</time>
      </trkpt>
      <trkpt lat="46.39422" lon="-0.45014">
        <ele>24.9</ele>
        <time>2012-08-12T15:52:55Z</time>
      </trkpt>
      <trkpt lat="46.39457" lon="-0.45029">
        <ele>28.9</ele>
        <time>2012-08-12T15:53:01Z</time>
      </trkpt>
      <trkpt lat="46.39487" lon="-0.45061">
        <ele>30.9</ele>
        <time>2012-08-12T15:53:07Z</time>
      </trkpt>
      <trkpt lat="46.39513" lon="-0.45096">
        <ele>31.9</ele>
        <time>2012-08-12T15:53:13Z</time>
      </trkpt>
      <trkpt lat="46.39534" lon="-0.45133">
        <ele>31.9</ele>
        <time>2012-08-12T15:53:19Z</time>
      </trkpt>
      <trkpt lat="46.39555" lon="-0.45169">
        <ele>31.9</ele>
        <time>2012-08-12T15:53:25Z</time>
      </trkpt>
      <trkpt lat="46.39576" lon="-0.45204">
        <ele>33.9</ele>
        <time>2012-08-12T15:53:31Z</time>
      </trkpt>
      <trkpt lat="46.39599" lon="-0.4524">
        <ele>34.9</ele>
        <time>2012-08-12T15:53:37Z</time>
      </trkpt>
      <trkpt lat="46.39623" lon="-0.45268">
        <ele>34.9</ele>
        <time>2012-08-12T15:53:43Z</time>
      </trkpt>
      <trkpt lat="46.39653" lon="-0.45283">
        <ele>33.9</ele>
        <time>2012-08-12T15:53:50Z</time>
      </trkpt>
      <trkpt lat="46.39681" lon="-0.45305">
        <ele>34.9</ele>
        <time>2012-08-12T15:53:58Z</time>
      </trkpt>
      <trkpt lat="46.39694" lon="-0.45321">
        <ele>35.9</ele>
        <time>2012-08-12T15:54:02Z</time>
      </trkpt>
      <trkpt lat="46.39714" lon="-0.45354">
        <ele>35.9</ele>
        <time>2012-08-12T15:54:09Z</time>
      </trkpt>
      <trkpt lat="46.39732" lon="-0.45387">
        <ele>37.9</ele>
        <time>2012-08-12T15:54:15Z</time>
      </trkpt>
      <trkpt lat="46.39749" lon="-0.45424">
        <ele>37.9</ele>
        <time>2012-08-12T15:54:21Z</time>
      </trkpt>
      <trkpt lat="46.39767" lon="-0.45461">
        <ele>37.9</ele>
        <time>2012-08-12T15:54:27Z</time>
      </trkpt>
      <trkpt lat="46.39791" lon="-0.45504">
        <ele>37.9</ele>
        <time>2012-08-12T15:54:33Z</time>
      </trkpt>
      <trkpt lat="46.39817" lon="-0.45547">
        <ele>36.9</ele>
        <time>2012-08-12T15:54:39Z</time>
      </trkpt>
      <trkpt lat="46.39841" lon="-0.45593">
        <ele>36.9</ele>
        <time>2012-08-12T15:54:45Z</time>
      </trkpt>
      <trkpt lat="46.39869" lon="-0.45645">
        <ele>36.9</ele>
        <time>2012-08-12T15:54:52Z</time>
      </trkpt>
      <trkpt lat="46.39894" lon="-0.45687">
        <ele>49.9</ele>
        <time>2012-08-12T15:54:58Z</time>
      </trkpt>
      <trkpt lat="46.39926" lon="-0.45708">
        <ele>57.9</ele>
        <time>2012-08-12T15:55:04Z</time>
      </trkpt>
      <trkpt lat="46.39956" lon="-0.45731">
        <ele>60.9</ele>
        <time>2012-08-12T15:55:10Z</time>
      </trkpt>
      <trkpt lat="46.39983" lon="-0.45759">
        <ele>60.9</ele>
        <time>2012-08-12T15:55:16Z</time>
      </trkpt>
      <trkpt lat="46.40003" lon="-0.45787">
        <ele>59.9</ele>
        <time>2012-08-12T15:55:21Z</time>
      </trkpt>
      <trkpt lat="46.40021" lon="-0.45832">
        <ele>54.9</ele>
        <time>2012-08-12T15:55:27Z</time>
      </trkpt>
      <trkpt lat="46.40059" lon="-0.45841">
        <ele>50.9</ele>
        <time>2012-08-12T15:55:34Z</time>
      </trkpt>
      <trkpt lat="46.40091" lon="-0.4584">
        <ele>49.9</ele>
        <time>2012-08-12T15:55:40Z</time>
      </trkpt>
      <trkpt lat="46.40121" lon="-0.45854">
        <ele>49.9</ele>
        <time>2012-08-12T15:55:46Z</time>
      </trkpt>
      <trkpt lat="46.40151" lon="-0.45879">
        <ele>49.9</ele>
        <time>2012-08-12T15:55:52Z</time>
      </trkpt>
      <trkpt lat="46.40176" lon="-0.459">
        <ele>49.9</ele>
        <time>2012-08-12T15:55:56Z</time>
      </trkpt>
      <trkpt lat="46.40208" lon="-0.45917">
        <ele>49.9</ele>
        <time>2012-08-12T15:56:01Z</time>
      </trkpt>
      <trkpt lat="46.40243" lon="-0.45918">
        <ele>47.9</ele>
        <time>2012-08-12T15:56:07Z</time>
      </trkpt>
      <trkpt lat="46.40277" lon="-0.45906">
        <ele>49.9</ele>
        <time>2012-08-12T15:56:13Z</time>
      </trkpt>
      <trkpt lat="46.40315" lon="-0.45923">
        <ele>49.9</ele>
        <time>2012-08-12T15:56:20Z</time>
      </trkpt>
      <trkpt lat="46.40307" lon="-0.45978">
        <ele>48.9</ele>
        <time>2012-08-12T15:56:25Z</time>
      </trkpt>
      <trkpt lat="46.40279" lon="-0.46038">
        <ele>47.9</ele>
        <time>2012-08-12T15:56:31Z</time>
      </trkpt>
      <trkpt lat="46.40267" lon="-0.46075">
        <ele>46.9</ele>
        <time>2012-08-12T15:56:35Z</time>
      </trkpt>
      <trkpt lat="46.40262" lon="-0.46124">
        <ele>47.9</ele>
        <time>2012-08-12T15:56:41Z</time>
      </trkpt>
      <trkpt lat="46.40274" lon="-0.4617">
        <ele>49.9</ele>
        <time>2012-08-12T15:56:47Z</time>
      </trkpt>
      <trkpt lat="46.40282" lon="-0.46209">
        <ele>48.9</ele>
        <time>2012-08-12T15:56:52Z</time>
      </trkpt>
      <trkpt lat="46.40283" lon="-0.46255">
        <ele>48.9</ele>
        <time>2012-08-12T15:56:58Z</time>
      </trkpt>
      <trkpt lat="46.40279" lon="-0.46299">
        <ele>47.9</ele>
        <time>2012-08-12T15:57:04Z</time>
      </trkpt>
      <trkpt lat="46.4027" lon="-0.46327">
        <ele>46.9</ele>
        <time>2012-08-12T15:57:08Z</time>
      </trkpt>
      <trkpt lat="46.40259" lon="-0.4637">
        <ele>43.9</ele>
        <time>2012-08-12T15:57:14Z</time>
      </trkpt>
      <trkpt lat="46.40241" lon="-0.46401">
        <ele>41.9</ele>
        <time>2012-08-12T15:57:21Z</time>
      </trkpt>
      <trkpt lat="46.40225" lon="-0.46444">
        <ele>41.9</ele>
        <time>2012-08-12T15:57:27Z</time>
      </trkpt>
      <trkpt lat="46.40214" lon="-0.46492">
        <ele>40.9</ele>
        <time>2012-08-12T15:57:33Z</time>
      </trkpt>
      <trkpt lat="46.4021" lon="-0.46531">
        <ele>38.9</ele>
        <time>2012-08-12T15:57:38Z</time>
      </trkpt>
      <trkpt lat="46.4021" lon="-0.46576">
        <ele>36.9</ele>
        <time>2012-08-12T15:57:44Z</time>
      </trkpt>
      <trkpt lat="46.40212" lon="-0.46607">
        <ele>35.9</ele>
        <time>2012-08-12T15:57:48Z</time>
      </trkpt>
      <trkpt lat="46.40215" lon="-0.46656">
        <ele>33.9</ele>
        <time>2012-08-12T15:57:54Z</time>
      </trkpt>
      <trkpt lat="46.40217" lon="-0.46713">
        <ele>31.9</ele>
        <time>2012-08-12T15:58:01Z</time>
      </trkpt>
      <trkpt lat="46.40219" lon="-0.4676">
        <ele>31.9</ele>
        <time>2012-08-12T15:58:07Z</time>
      </trkpt>
      <trkpt lat="46.40218" lon="-0.46813">
        <ele>31.9</ele>
        <time>2012-08-12T15:58:13Z</time>
      </trkpt>
      <trkpt lat="46.40215" lon="-0.46866">
        <ele>30.9</ele>
        <time>2012-08-12T15:58:19Z</time>
      </trkpt>
      <trkpt lat="46.4021" lon="-0.46918">
        <ele>30.9</ele>
        <time>2012-08-12T15:58:25Z</time>
      </trkpt>
      <trkpt lat="46.40203" lon="-0.46972">
        <ele>31.9</ele>
        <time>2012-08-12T15:58:31Z</time>
      </trkpt>
      <trkpt lat="46.40197" lon="-0.47003">
        <ele>31.9</ele>
        <time>2012-08-12T15:58:35Z</time>
      </trkpt>
      <trkpt lat="46.40179" lon="-0.47046">
        <ele>30.9</ele>
        <time>2012-08-12T15:58:41Z</time>
      </trkpt>
      <trkpt lat="46.40163" lon="-0.47088">
        <ele>30.9</ele>
        <time>2012-08-12T15:58:47Z</time>
      </trkpt>
      <trkpt lat="46.40153" lon="-0.47129">
        <ele>29.9</ele>
        <time>2012-08-12T15:58:53Z</time>
      </trkpt>
      <trkpt lat="46.40145" lon="-0.47163">
        <ele>30.9</ele>
        <time>2012-08-12T15:58:58Z</time>
      </trkpt>
      <trkpt lat="46.40136" lon="-0.47207">
        <ele>30.9</ele>
        <time>2012-08-12T15:59:04Z</time>
      </trkpt>
      <trkpt lat="46.40127" lon="-0.47256">
        <ele>31.9</ele>
        <time>2012-08-12T15:59:10Z</time>
      </trkpt>
      <trkpt lat="46.40115" lon="-0.47305">
        <ele>38.9</ele>
        <time>2012-08-12T15:59:17Z</time>
      </trkpt>
      <trkpt lat="46.40106" lon="-0.47356">
        <ele>41.9</ele>
        <time>2012-08-12T15:59:23Z</time>
      </trkpt>
      <trkpt lat="46.40103" lon="-0.47406">
        <ele>42.9</ele>
        <time>2012-08-12T15:59:29Z</time>
      </trkpt>
      <trkpt lat="46.40102" lon="-0.47458">
        <ele>43.9</ele>
        <time>2012-08-12T15:59:35Z</time>
      </trkpt>
      <trkpt lat="46.40106" lon="-0.47509">
        <ele>44.9</ele>
        <time>2012-08-12T15:59:41Z</time>
      </trkpt>
      <trkpt lat="46.4011" lon="-0.47554">
        <ele>44.9</ele>
        <time>2012-08-12T15:59:47Z</time>
      </trkpt>
      <trkpt lat="46.40099" lon="-0.47566">
        <ele>43.9</ele>
        <time>2012-08-12T15:59:54Z</time>
      </trkpt>
      <trkpt lat="46.40084" lon="-0.47572">
        <ele>42.9</ele>
        <time>2012-08-12T15:59:59Z</time>
      </trkpt>
      <trkpt lat="46.40071" lon="-0.47578">
        <ele>42.9</ele>
        <time>2012-08-12T16:00:03Z</time>
      </trkpt>
      <trkpt lat="46.40051" lon="-0.4759">
        <ele>42.9</ele>
        <time>2012-08-12T16:00:09Z</time>
      </trkpt>
      <trkpt lat="46.40023" lon="-0.47608">
        <ele>42.9</ele>
        <time>2012-08-12T16:00:17Z</time>
      </trkpt>
      <trkpt lat="46.4001" lon="-0.47621">
        <ele>42.9</ele>
        <time>2012-08-12T16:00:21Z</time>
      </trkpt>
      <trkpt lat="46.39999" lon="-0.47641">
        <ele>42.9</ele>
        <time>2012-08-12T16:00:26Z</time>
      </trkpt>
      <trkpt lat="46.39997" lon="-0.47665">
        <ele>39.9</ele>
        <time>2012-08-12T16:00:31Z</time>
      </trkpt>
      <trkpt lat="46.39991" lon="-0.47686">
        <ele>39.9</ele>
        <time>2012-08-12T16:00:36Z</time>
      </trkpt>
      <trkpt lat="46.39986" lon="-0.47714">
        <ele>38.9</ele>
        <time>2012-08-12T16:00:41Z</time>
      </trkpt>
      <trkpt lat="46.39987" lon="-0.47739">
        <ele>38.9</ele>
        <time>2012-08-12T16:00:46Z</time>
      </trkpt>
      <trkpt lat="46.39976" lon="-0.47769">
        <ele>38.9</ele>
        <time>2012-08-12T16:00:52Z</time>
      </trkpt>
      <trkpt lat="46.39968" lon="-0.47788">
        <ele>39.9</ele>
        <time>2012-08-12T16:00:56Z</time>
      </trkpt>
      <trkpt lat="46.39964" lon="-0.4781">
        <ele>39.8</ele>
        <time>2012-08-12T16:01:02Z</time>
      </trkpt>
      <trkpt lat="46.39959" lon="-0.4783">
        <ele>39.8</ele>
        <time>2012-08-12T16:01:07Z</time>
      </trkpt>
      <trkpt lat="46.39953" lon="-0.47852">
        <ele>40.8</ele>
        <time>2012-08-12T16:01:13Z</time>
      </trkpt>
      <trkpt lat="46.39948" lon="-0.47871">
        <ele>44.8</ele>
        <time>2012-08-12T16:01:17Z</time>
      </trkpt>
      <trkpt lat="46.39943" lon="-0.47896">
        <ele>47.8</ele>
        <time>2012-08-12T16:01:21Z</time>
      </trkpt>
      <trkpt lat="46.39939" lon="-0.47936">
        <ele>48.8</ele>
        <time>2012-08-12T16:01:27Z</time>
      </trkpt>
      <trkpt lat="46.39939" lon="-0.47983">
        <ele>49.8</ele>
        <time>2012-08-12T16:01:35Z</time>
      </trkpt>
      <trkpt lat="46.39936" lon="-0.48032">
        <ele>50.8</ele>
        <time>2012-08-12T16:01:44Z</time>
      </trkpt>
      <trkpt lat="46.39935" lon="-0.48057">
        <ele>50.8</ele>
        <time>2012-08-12T16:01:48Z</time>
      </trkpt>
      <trkpt lat="46.39929" lon="-0.48102">
        <ele>50.8</ele>
        <time>2012-08-12T16:01:55Z</time>
      </trkpt>
      <trkpt lat="46.39923" lon="-0.48147">
        <ele>50.8</ele>
        <time>2012-08-12T16:02:02Z</time>
      </trkpt>
      <trkpt lat="46.39918" lon="-0.48186">
        <ele>49.8</ele>
        <time>2012-08-12T16:02:08Z</time>
      </trkpt>
      <trkpt lat="46.39911" lon="-0.48227">
        <ele>51.8</ele>
        <time>2012-08-12T16:02:14Z</time>
      </trkpt>
      <trkpt lat="46.39908" lon="-0.48252">
        <ele>62.8</ele>
        <time>2012-08-12T16:02:20Z</time>
      </trkpt>
      <trkpt lat="46.39906" lon="-0.48277">
        <ele>65.8</ele>
        <time>2012-08-12T16:02:24Z</time>
      </trkpt>
      <trkpt lat="46.399" lon="-0.48325">
        <ele>68.8</ele>
        <time>2012-08-12T16:02:31Z</time>
      </trkpt>
      <trkpt lat="46.39896" lon="-0.48368">
        <ele>70.8</ele>
        <time>2012-08-12T16:02:37Z</time>
      </trkpt>
      <trkpt lat="46.39894" lon="-0.48398">
        <ele>70.8</ele>
        <time>2012-08-12T16:02:41Z</time>
      </trkpt>
      <trkpt lat="46.39898" lon="-0.48451">
        <ele>70.8</ele>
        <time>2012-08-12T16:02:48Z</time>
      </trkpt>
      <trkpt lat="46.39906" lon="-0.4849">
        <ele>70.8</ele>
        <time>2012-08-12T16:02:53Z</time>
      </trkpt>
      <trkpt lat="46.39917" lon="-0.48538">
        <ele>67.8</ele>
        <time>2012-08-12T16:02:59Z</time>
      </trkpt>
      <trkpt lat="46.39899" lon="-0.48559">
        <ele>61.8</ele>
        <time>2012-08-12T16:03:06Z</time>
      </trkpt>
      <trkpt lat="46.39865" lon="-0.48537">
        <ele>53.8</ele>
        <time>2012-08-12T16:03:12Z</time>
      </trkpt>
      <trkpt lat="46.39842" lon="-0.48525">
        <ele>50.8</ele>
        <time>2012-08-12T16:03:16Z</time>
      </trkpt>
      <trkpt lat="46.39809" lon="-0.48518">
        <ele>47.8</ele>
        <time>2012-08-12T16:03:22Z</time>
      </trkpt>
      <trkpt lat="46.39779" lon="-0.48519">
        <ele>45.8</ele>
        <time>2012-08-12T16:03:28Z</time>
      </trkpt>
      <trkpt lat="46.3975" lon="-0.48531">
        <ele>46.8</ele>
        <time>2012-08-12T16:03:34Z</time>
      </trkpt>
      <trkpt lat="46.39723" lon="-0.48539">
        <ele>46.8</ele>
        <time>2012-08-12T16:03:40Z</time>
      </trkpt>
      <trkpt lat="46.39693" lon="-0.48549">
        <ele>47.8</ele>
        <time>2012-08-12T16:03:47Z</time>
      </trkpt>
      <trkpt lat="46.3966" lon="-0.48564">
        <ele>48.8</ele>
        <time>2012-08-12T16:03:55Z</time>
      </trkpt>
      <trkpt lat="46.39646" lon="-0.48574">
        <ele>48.8</ele>
        <time>2012-08-12T16:03:59Z</time>
      </trkpt>
      <trkpt lat="46.39621" lon="-0.48597">
        <ele>48.8</ele>
        <time>2012-08-12T16:04:07Z</time>
      </trkpt>
      <trkpt lat="46.39611" lon="-0.48612">
        <ele>49.8</ele>
        <time>2012-08-12T16:04:11Z</time>
      </trkpt>
      <trkpt lat="46.39601" lon="-0.48631">
        <ele>51.8</ele>
        <time>2012-08-12T16:04:16Z</time>
      </trkpt>
      <trkpt lat="46.3959" lon="-0.48673">
        <ele>55.8</ele>
        <time>2012-08-12T16:04:25Z</time>
      </trkpt>
      <trkpt lat="46.39588" lon="-0.48697">
        <ele>58.8</ele>
        <time>2012-08-12T16:04:30Z</time>
      </trkpt>
      <trkpt lat="46.3959" lon="-0.4872">
        <ele>58.8</ele>
        <time>2012-08-12T16:04:35Z</time>
      </trkpt>
      <trkpt lat="46.39592" lon="-0.48744">
        <ele>59.8</ele>
        <time>2012-08-12T16:04:40Z</time>
      </trkpt>
      <trkpt lat="46.39592" lon="-0.48764">
        <ele>59.8</ele>
        <time>2012-08-12T16:04:44Z</time>
      </trkpt>
      <trkpt lat="46.39591" lon="-0.48785">
        <ele>59.8</ele>
        <time>2012-08-12T16:04:48Z</time>
      </trkpt>
      <trkpt lat="46.3959" lon="-0.48826">
        <ele>62.8</ele>
        <time>2012-08-12T16:04:56Z</time>
      </trkpt>
      <trkpt lat="46.39589" lon="-0.48846">
        <ele>62.8</ele>
        <time>2012-08-12T16:05:00Z</time>
      </trkpt>
      <trkpt lat="46.39585" lon="-0.48888">
        <ele>62.8</ele>
        <time>2012-08-12T16:05:08Z</time>
      </trkpt>
      <trkpt lat="46.39577" lon="-0.48934">
        <ele>61.8</ele>
        <time>2012-08-12T16:05:16Z</time>
      </trkpt>
      <trkpt lat="46.39573" lon="-0.48957">
        <ele>64.8</ele>
        <time>2012-08-12T16:05:20Z</time>
      </trkpt>
      <trkpt lat="46.39565" lon="-0.48979">
        <ele>66.8</ele>
        <time>2012-08-12T16:05:24Z</time>
      </trkpt>
      <trkpt lat="46.39554" lon="-0.49004">
        <ele>66.8</ele>
        <time>2012-08-12T16:05:29Z</time>
      </trkpt>
      <trkpt lat="46.39542" lon="-0.49028">
        <ele>65.8</ele>
        <time>2012-08-12T16:05:34Z</time>
      </trkpt>
      <trkpt lat="46.3952" lon="-0.4906">
        <ele>64.8</ele>
        <time>2012-08-12T16:05:41Z</time>
      </trkpt>
      <trkpt lat="46.39498" lon="-0.49086">
        <ele>63.8</ele>
        <time>2012-08-12T16:05:47Z</time>
      </trkpt>
      <trkpt lat="46.39473" lon="-0.49109">
        <ele>62.8</ele>
        <time>2012-08-12T16:05:53Z</time>
      </trkpt>
      <trkpt lat="46.39454" lon="-0.49128">
        <ele>62.8</ele>
        <time>2012-08-12T16:05:58Z</time>
      </trkpt>
      <trkpt lat="46.39427" lon="-0.4915">
        <ele>61.8</ele>
        <time>2012-08-12T16:06:05Z</time>
      </trkpt>
      <trkpt lat="46.39404" lon="-0.49169">
        <ele>61.8</ele>
        <time>2012-08-12T16:06:11Z</time>
      </trkpt>
      <trkpt lat="46.39381" lon="-0.4919">
        <ele>59.8</ele>
        <time>2012-08-12T16:06:17Z</time>
      </trkpt>
      <trkpt lat="46.39363" lon="-0.49203">
        <ele>60.8</ele>
        <time>2012-08-12T16:06:21Z</time>
      </trkpt>
      <trkpt lat="46.39332" lon="-0.49218">
        <ele>64.8</ele>
        <time>2012-08-12T16:06:28Z</time>
      </trkpt>
      <trkpt lat="46.39306" lon="-0.49229">
        <ele>66.8</ele>
        <time>2012-08-12T16:06:34Z</time>
      </trkpt>
      <trkpt lat="46.39289" lon="-0.49237">
        <ele>65.8</ele>
        <time>2012-08-12T16:06:38Z</time>
      </trkpt>
      <trkpt lat="46.39273" lon="-0.49245">
        <ele>65.8</ele>
        <time>2012-08-12T16:06:42Z</time>
      </trkpt>
      <trkpt lat="46.39243" lon="-0.49268">
        <ele>65.8</ele>
        <time>2012-08-12T16:06:50Z</time>
      </trkpt>
      <trkpt lat="46.39218" lon="-0.49298">
        <ele>66.8</ele>
        <time>2012-08-12T16:06:58Z</time>
      </trkpt>
      <trkpt lat="46.39198" lon="-0.49331">
        <ele>68.8</ele>
        <time>2012-08-12T16:07:06Z</time>
      </trkpt>
      <trkpt lat="46.39181" lon="-0.49368">
        <ele>69.8</ele>
        <time>2012-08-12T16:07:14Z</time>
      </trkpt>
      <trkpt lat="46.39173" lon="-0.49387">
        <ele>69.8</ele>
        <time>2012-08-12T16:07:18Z</time>
      </trkpt>
      <trkpt lat="46.39156" lon="-0.4942">
        <ele>81.8</ele>
        <time>2012-08-12T16:07:25Z</time>
      </trkpt>
      <trkpt lat="46.39147" lon="-0.49441">
        <ele>84.8</ele>
        <time>2012-08-12T16:07:29Z</time>
      </trkpt>
      <trkpt lat="46.39138" lon="-0.49462">
        <ele>85.8</ele>
        <time>2012-08-12T16:07:33Z</time>
      </trkpt>
      <trkpt lat="46.39121" lon="-0.49502">
        <ele>84.8</ele>
        <time>2012-08-12T16:07:41Z</time>
      </trkpt>
      <trkpt lat="46.39112" lon="-0.4952">
        <ele>83.8</ele>
        <time>2012-08-12T16:07:45Z</time>
      </trkpt>
      <trkpt lat="46.39103" lon="-0.49538">
        <ele>82.8</ele>
        <time>2012-08-12T16:07:49Z</time>
      </trkpt>
      <trkpt lat="46.39085" lon="-0.49576">
        <ele>83.8</ele>
        <time>2012-08-12T16:07:57Z</time>
      </trkpt>
      <trkpt lat="46.39067" lon="-0.49615">
        <ele>82.8</ele>
        <time>2012-08-12T16:08:05Z</time>
      </trkpt>
      <trkpt lat="46.3905" lon="-0.49658">
        <ele>80.8</ele>
        <time>2012-08-12T16:08:13Z</time>
      </trkpt>
      <trkpt lat="46.39034" lon="-0.49701">
        <ele>82.8</ele>
        <time>2012-08-12T16:08:21Z</time>
      </trkpt>
      <trkpt lat="46.39023" lon="-0.49743">
        <ele>92.8</ele>
        <time>2012-08-12T16:08:29Z</time>
      </trkpt>
      <trkpt lat="46.39012" lon="-0.49791">
        <ele>92.8</ele>
        <time>2012-08-12T16:08:37Z</time>
      </trkpt>
      <trkpt lat="46.39004" lon="-0.49831">
        <ele>88.8</ele>
        <time>2012-08-12T16:08:43Z</time>
      </trkpt>
      <trkpt lat="46.38995" lon="-0.49872">
        <ele>83.8</ele>
        <time>2012-08-12T16:08:49Z</time>
      </trkpt>
      <trkpt lat="46.38982" lon="-0.4991">
        <ele>80.8</ele>
        <time>2012-08-12T16:08:55Z</time>
      </trkpt>
      <trkpt lat="46.38966" lon="-0.49948">
        <ele>76.8</ele>
        <time>2012-08-12T16:09:01Z</time>
      </trkpt>
      <trkpt lat="46.38946" lon="-0.49982">
        <ele>75.8</ele>
        <time>2012-08-12T16:09:07Z</time>
      </trkpt>
      <trkpt lat="46.38926" lon="-0.50018">
        <ele>72.8</ele>
        <time>2012-08-12T16:09:13Z</time>
      </trkpt>
      <trkpt lat="46.38903" lon="-0.50059">
        <ele>71.8</ele>
        <time>2012-08-12T16:09:19Z</time>
      </trkpt>
      <trkpt lat="46.38889" lon="-0.50085">
        <ele>74.8</ele>
        <time>2012-08-12T16:09:23Z</time>
      </trkpt>
      <trkpt lat="46.38871" lon="-0.50117">
        <ele>76.8</ele>
        <time>2012-08-12T16:09:27Z</time>
      </trkpt>
      <trkpt lat="46.38841" lon="-0.50155">
        <ele>77.8</ele>
        <time>2012-08-12T16:09:33Z</time>
      </trkpt>
      <trkpt lat="46.3881" lon="-0.50176">
        <ele>77.8</ele>
        <time>2012-08-12T16:09:39Z</time>
      </trkpt>
      <trkpt lat="46.38789" lon="-0.50192">
        <ele>75.8</ele>
        <time>2012-08-12T16:09:44Z</time>
      </trkpt>
      <trkpt lat="46.38765" lon="-0.50219">
        <ele>74.8</ele>
        <time>2012-08-12T16:09:51Z</time>
      </trkpt>
      <trkpt lat="46.38743" lon="-0.50257">
        <ele>73.8</ele>
        <time>2012-08-12T16:09:59Z</time>
      </trkpt>
      <trkpt lat="46.38733" lon="-0.50277">
        <ele>72.8</ele>
        <time>2012-08-12T16:10:03Z</time>
      </trkpt>
      <trkpt lat="46.38716" lon="-0.50319">
        <ele>72.8</ele>
        <time>2012-08-12T16:10:11Z</time>
      </trkpt>
      <trkpt lat="46.38707" lon="-0.50339">
        <ele>73.8</ele>
        <time>2012-08-12T16:10:15Z</time>
      </trkpt>
      <trkpt lat="46.38686" lon="-0.50379">
        <ele>76.8</ele>
        <time>2012-08-12T16:10:23Z</time>
      </trkpt>
      <trkpt lat="46.38672" lon="-0.50404">
        <ele>86.8</ele>
        <time>2012-08-12T16:10:28Z</time>
      </trkpt>
      <trkpt lat="46.38652" lon="-0.50438">
        <ele>91.8</ele>
        <time>2012-08-12T16:10:35Z</time>
      </trkpt>
      <trkpt lat="46.38633" lon="-0.50475">
        <ele>91.8</ele>
        <time>2012-08-12T16:10:42Z</time>
      </trkpt>
      <trkpt lat="46.38616" lon="-0.50511">
        <ele>89.8</ele>
        <time>2012-08-12T16:10:48Z</time>
      </trkpt>
      <trkpt lat="46.386" lon="-0.50549">
        <ele>87.8</ele>
        <time>2012-08-12T16:10:54Z</time>
      </trkpt>
      <trkpt lat="46.3858" lon="-0.50592">
        <ele>84.8</ele>
        <time>2012-08-12T16:11:01Z</time>
      </trkpt>
      <trkpt lat="46.38566" lon="-0.5063">
        <ele>83.8</ele>
        <time>2012-08-12T16:11:07Z</time>
      </trkpt>
      <trkpt lat="46.38559" lon="-0.50655">
        <ele>84.8</ele>
        <time>2012-08-12T16:11:11Z</time>
      </trkpt>
      <trkpt lat="46.3855" lon="-0.50695">
        <ele>82.8</ele>
        <time>2012-08-12T16:11:17Z</time>
      </trkpt>
      <trkpt lat="46.38542" lon="-0.50735">
        <ele>80.8</ele>
        <time>2012-08-12T16:11:23Z</time>
      </trkpt>
      <trkpt lat="46.38536" lon="-0.50775">
        <ele>81.8</ele>
        <time>2012-08-12T16:11:29Z</time>
      </trkpt>
      <trkpt lat="46.38527" lon="-0.50813">
        <ele>81.8</ele>
        <time>2012-08-12T16:11:35Z</time>
      </trkpt>
      <trkpt lat="46.38514" lon="-0.50854">
        <ele>81.8</ele>
        <time>2012-08-12T16:11:42Z</time>
      </trkpt>
      <trkpt lat="46.385" lon="-0.509">
        <ele>80.8</ele>
        <time>2012-08-12T16:11:50Z</time>
      </trkpt>
      <trkpt lat="46.38492" lon="-0.50922">
        <ele>79.8</ele>
        <time>2012-08-12T16:11:54Z</time>
      </trkpt>
      <trkpt lat="46.38481" lon="-0.50955">
        <ele>78.8</ele>
        <time>2012-08-12T16:12:00Z</time>
      </trkpt>
      <trkpt lat="46.38464" lon="-0.51">
        <ele>76.8</ele>
        <time>2012-08-12T16:12:08Z</time>
      </trkpt>
      <trkpt lat="46.38454" lon="-0.51021">
        <ele>76.8</ele>
        <time>2012-08-12T16:12:12Z</time>
      </trkpt>
      <trkpt lat="46.38438" lon="-0.51053">
        <ele>76.8</ele>
        <time>2012-08-12T16:12:18Z</time>
      </trkpt>
      <trkpt lat="46.38418" lon="-0.51084">
        <ele>77.8</ele>
        <time>2012-08-12T16:12:24Z</time>
      </trkpt>
      <trkpt lat="46.384" lon="-0.51108">
        <ele>87.8</ele>
        <time>2012-08-12T16:12:29Z</time>
      </trkpt>
      <trkpt lat="46.38381" lon="-0.51128">
        <ele>93.8</ele>
        <time>2012-08-12T16:12:34Z</time>
      </trkpt>
      <trkpt lat="46.38358" lon="-0.51151">
        <ele>95.8</ele>
        <time>2012-08-12T16:12:40Z</time>
      </trkpt>
      <trkpt lat="46.38334" lon="-0.51178">
        <ele>95.8</ele>
        <time>2012-08-12T16:12:47Z</time>
      </trkpt>
      <trkpt lat="46.38321" lon="-0.51194">
        <ele>94.8</ele>
        <time>2012-08-12T16:12:51Z</time>
      </trkpt>
      <trkpt lat="46.38297" lon="-0.51224">
        <ele>92.8</ele>
        <time>2012-08-12T16:12:59Z</time>
      </trkpt>
      <trkpt lat="46.38272" lon="-0.51253">
        <ele>90.8</ele>
        <time>2012-08-12T16:13:07Z</time>
      </trkpt>
      <trkpt lat="46.3826" lon="-0.51268">
        <ele>89.8</ele>
        <time>2012-08-12T16:13:11Z</time>
      </trkpt>
      <trkpt lat="46.38235" lon="-0.51297">
        <ele>88.8</ele>
        <time>2012-08-12T16:13:19Z</time>
      </trkpt>
      <trkpt lat="46.38224" lon="-0.51311">
        <ele>88.8</ele>
        <time>2012-08-12T16:13:23Z</time>
      </trkpt>
      <trkpt lat="46.38199" lon="-0.51338">
        <ele>81.8</ele>
        <time>2012-08-12T16:13:31Z</time>
      </trkpt>
      <trkpt lat="46.38183" lon="-0.51356">
        <ele>77.8</ele>
        <time>2012-08-12T16:13:36Z</time>
      </trkpt>
      <trkpt lat="46.3816" lon="-0.51385">
        <ele>74.8</ele>
        <time>2012-08-12T16:13:44Z</time>
      </trkpt>
      <trkpt lat="46.3815" lon="-0.51398">
        <ele>75.8</ele>
        <time>2012-08-12T16:13:48Z</time>
      </trkpt>
      <trkpt lat="46.38129" lon="-0.51433">
        <ele>75.8</ele>
        <time>2012-08-12T16:13:56Z</time>
      </trkpt>
      <trkpt lat="46.38119" lon="-0.51451">
        <ele>76.8</ele>
        <time>2012-08-12T16:14:00Z</time>
      </trkpt>
      <trkpt lat="46.38097" lon="-0.5149">
        <ele>76.8</ele>
        <time>2012-08-12T16:14:08Z</time>
      </trkpt>
      <trkpt lat="46.38086" lon="-0.51508">
        <ele>76.8</ele>
        <time>2012-08-12T16:14:12Z</time>
      </trkpt>
      <trkpt lat="46.38065" lon="-0.51546">
        <ele>77.8</ele>
        <time>2012-08-12T16:14:20Z</time>
      </trkpt>
      <trkpt lat="46.38054" lon="-0.51565">
        <ele>78.8</ele>
        <time>2012-08-12T16:14:24Z</time>
      </trkpt>
      <trkpt lat="46.38043" lon="-0.51584">
        <ele>79.8</ele>
        <time>2012-08-12T16:14:28Z</time>
      </trkpt>
      <trkpt lat="46.38019" lon="-0.51618">
        <ele>91.8</ele>
        <time>2012-08-12T16:14:36Z</time>
      </trkpt>
      <trkpt lat="46.37997" lon="-0.51644">
        <ele>96.8</ele>
        <time>2012-08-12T16:14:42Z</time>
      </trkpt>
      <trkpt lat="46.37981" lon="-0.51662">
        <ele>98.8</ele>
        <time>2012-08-12T16:14:46Z</time>
      </trkpt>
      <trkpt lat="46.37953" lon="-0.51691">
        <ele>99.8</ele>
        <time>2012-08-12T16:14:52Z</time>
      </trkpt>
      <trkpt lat="46.37915" lon="-0.51727">
        <ele>98.8</ele>
        <time>2012-08-12T16:14:59Z</time>
      </trkpt>
      <trkpt lat="46.37881" lon="-0.51756">
        <ele>98.8</ele>
        <time>2012-08-12T16:15:05Z</time>
      </trkpt>
      <trkpt lat="46.37858" lon="-0.51772">
        <ele>96.8</ele>
        <time>2012-08-12T16:15:09Z</time>
      </trkpt>
      <trkpt lat="46.37825" lon="-0.51795">
        <ele>94.8</ele>
        <time>2012-08-12T16:15:15Z</time>
      </trkpt>
      <trkpt lat="46.37797" lon="-0.5181">
        <ele>93.8</ele>
        <time>2012-08-12T16:15:20Z</time>
      </trkpt>
      <trkpt lat="46.37764" lon="-0.51828">
        <ele>92.8</ele>
        <time>2012-08-12T16:15:26Z</time>
      </trkpt>
      <trkpt lat="46.37724" lon="-0.51843">
        <ele>90.8</ele>
        <time>2012-08-12T16:15:33Z</time>
      </trkpt>
      <trkpt lat="46.3769" lon="-0.51863">
        <ele>89.8</ele>
        <time>2012-08-12T16:15:39Z</time>
      </trkpt>
      <trkpt lat="46.37657" lon="-0.51878">
        <ele>87.8</ele>
        <time>2012-08-12T16:15:45Z</time>
      </trkpt>
      <trkpt lat="46.37627" lon="-0.51894">
        <ele>86.8</ele>
        <time>2012-08-12T16:15:51Z</time>
      </trkpt>
      <trkpt lat="46.37598" lon="-0.5191">
        <ele>86.8</ele>
        <time>2012-08-12T16:15:57Z</time>
      </trkpt>
      <trkpt lat="46.3757" lon="-0.51923">
        <ele>84.8</ele>
        <time>2012-08-12T16:16:03Z</time>
      </trkpt>
      <trkpt lat="46.37543" lon="-0.51937">
        <ele>84.8</ele>
        <time>2012-08-12T16:16:09Z</time>
      </trkpt>
      <trkpt lat="46.37517" lon="-0.51954">
        <ele>83.8</ele>
        <time>2012-08-12T16:16:15Z</time>
      </trkpt>
      <trkpt lat="46.37489" lon="-0.51975">
        <ele>83.8</ele>
        <time>2012-08-12T16:16:21Z</time>
      </trkpt>
      <trkpt lat="46.37459" lon="-0.51998">
        <ele>82.8</ele>
        <time>2012-08-12T16:16:27Z</time>
      </trkpt>
      <trkpt lat="46.37426" lon="-0.52025">
        <ele>89.8</ele>
        <time>2012-08-12T16:16:33Z</time>
      </trkpt>
      <trkpt lat="46.37397" lon="-0.52048">
        <ele>96.8</ele>
        <time>2012-08-12T16:16:38Z</time>
      </trkpt>
      <trkpt lat="46.37361" lon="-0.52074">
        <ele>97.8</ele>
        <time>2012-08-12T16:16:44Z</time>
      </trkpt>
      <trkpt lat="46.37336" lon="-0.52105">
        <ele>95.8</ele>
        <time>2012-08-12T16:16:49Z</time>
      </trkpt>
      <trkpt lat="46.37312" lon="-0.52142">
        <ele>93.8</ele>
        <time>2012-08-12T16:16:55Z</time>
      </trkpt>
      <trkpt lat="46.3729" lon="-0.52148">
        <ele>91.8</ele>
        <time>2012-08-12T16:16:59Z</time>
      </trkpt>
      <trkpt lat="46.37263" lon="-0.52178">
        <ele>89.8</ele>
        <time>2012-08-12T16:17:05Z</time>
      </trkpt>
      <trkpt lat="46.37239" lon="-0.52214">
        <ele>88.8</ele>
        <time>2012-08-12T16:17:11Z</time>
      </trkpt>
      <trkpt lat="46.37216" lon="-0.52249">
        <ele>87.8</ele>
        <time>2012-08-12T16:17:17Z</time>
      </trkpt>
      <trkpt lat="46.37197" lon="-0.52286">
        <ele>84.8</ele>
        <time>2012-08-12T16:17:23Z</time>
      </trkpt>
      <trkpt lat="46.37179" lon="-0.52322">
        <ele>83.8</ele>
        <time>2012-08-12T16:17:29Z</time>
      </trkpt>
      <trkpt lat="46.3716" lon="-0.52351">
        <ele>90.8</ele>
        <time>2012-08-12T16:17:35Z</time>
      </trkpt>
      <trkpt lat="46.37133" lon="-0.52367">
        <ele>99.8</ele>
        <time>2012-08-12T16:17:41Z</time>
      </trkpt>
      <trkpt lat="46.37108" lon="-0.52375">
        <ele>101.8</ele>
        <time>2012-08-12T16:17:46Z</time>
      </trkpt>
      <trkpt lat="46.37083" lon="-0.52391">
        <ele>100.8</ele>
        <time>2012-08-12T16:17:51Z</time>
      </trkpt>
      <trkpt lat="46.37055" lon="-0.5242">
        <ele>97.8</ele>
        <time>2012-08-12T16:17:57Z</time>
      </trkpt>
      <trkpt lat="46.37048" lon="-0.52474">
        <ele>95.8</ele>
        <time>2012-08-12T16:18:03Z</time>
      </trkpt>
      <trkpt lat="46.37049" lon="-0.52527">
        <ele>93.8</ele>
        <time>2012-08-12T16:18:09Z</time>
      </trkpt>
      <trkpt lat="46.37043" lon="-0.52572">
        <ele>90.8</ele>
        <time>2012-08-12T16:18:15Z</time>
      </trkpt>
      <trkpt lat="46.37039" lon="-0.5262">
        <ele>86.8</ele>
        <time>2012-08-12T16:18:21Z</time>
      </trkpt>
      <trkpt lat="46.37045" lon="-0.52656">
        <ele>82.8</ele>
        <time>2012-08-12T16:18:26Z</time>
      </trkpt>
      <trkpt lat="46.37045" lon="-0.52696">
        <ele>80.8</ele>
        <time>2012-08-12T16:18:32Z</time>
      </trkpt>
      <trkpt lat="46.37052" lon="-0.52735">
        <ele>80.8</ele>
        <time>2012-08-12T16:18:39Z</time>
      </trkpt>
      <trkpt lat="46.37057" lon="-0.52764">
        <ele>79.8</ele>
        <time>2012-08-12T16:18:44Z</time>
      </trkpt>
      <trkpt lat="46.37062" lon="-0.52807">
        <ele>78.8</ele>
        <time>2012-08-12T16:18:52Z</time>
      </trkpt>
      <trkpt lat="46.37071" lon="-0.52848">
        <ele>77.8</ele>
        <time>2012-08-12T16:19:00Z</time>
      </trkpt>
      <trkpt lat="46.37084" lon="-0.52888">
        <ele>78.8</ele>
        <time>2012-08-12T16:19:08Z</time>
      </trkpt>
      <trkpt lat="46.37072" lon="-0.52915">
        <ele>77.8</ele>
        <time>2012-08-12T16:19:15Z</time>
      </trkpt>
      <trkpt lat="46.37045" lon="-0.52926">
        <ele>74.8</ele>
        <time>2012-08-12T16:19:22Z</time>
      </trkpt>
      <trkpt lat="46.37015" lon="-0.52939">
        <ele>73.8</ele>
        <time>2012-08-12T16:19:28Z</time>
      </trkpt>
      <trkpt lat="46.36985" lon="-0.52952">
        <ele>71.8</ele>
        <time>2012-08-12T16:19:34Z</time>
      </trkpt>
      <trkpt lat="46.3696" lon="-0.52963">
        <ele>68.8</ele>
        <time>2012-08-12T16:19:39Z</time>
      </trkpt>
      <trkpt lat="46.36932" lon="-0.52978">
        <ele>64.8</ele>
        <time>2012-08-12T16:19:45Z</time>
      </trkpt>
      <trkpt lat="46.36903" lon="-0.52992">
        <ele>63.8</ele>
        <time>2012-08-12T16:19:51Z</time>
      </trkpt>
      <trkpt lat="46.36874" lon="-0.53006">
        <ele>66.8</ele>
        <time>2012-08-12T16:19:57Z</time>
      </trkpt>
      <trkpt lat="46.36847" lon="-0.53017">
        <ele>66.8</ele>
        <time>2012-08-12T16:20:03Z</time>
      </trkpt>
      <trkpt lat="46.36826" lon="-0.53026">
        <ele>67.8</ele>
        <time>2012-08-12T16:20:08Z</time>
      </trkpt>
      <trkpt lat="46.3681" lon="-0.53032">
        <ele>68.8</ele>
        <time>2012-08-12T16:20:12Z</time>
      </trkpt>
      <trkpt lat="46.36783" lon="-0.53047">
        <ele>69.8</ele>
        <time>2012-08-12T16:20:20Z</time>
      </trkpt>
      <trkpt lat="46.3677" lon="-0.53056">
        <ele>70.8</ele>
        <time>2012-08-12T16:20:24Z</time>
      </trkpt>
      <trkpt lat="46.36743" lon="-0.53077">
        <ele>73.8</ele>
        <time>2012-08-12T16:20:33Z</time>
      </trkpt>
      <trkpt lat="46.3672" lon="-0.53099">
        <ele>75.8</ele>
        <time>2012-08-12T16:20:41Z</time>
      </trkpt>
      <trkpt lat="46.36709" lon="-0.53114">
        <ele>76.8</ele>
        <time>2012-08-12T16:20:45Z</time>
      </trkpt>
      <trkpt lat="46.36695" lon="-0.53131">
        <ele>78.8</ele>
        <time>2012-08-12T16:20:50Z</time>
      </trkpt>
      <trkpt lat="46.36684" lon="-0.53146">
        <ele>79.8</ele>
        <time>2012-08-12T16:20:54Z</time>
      </trkpt>
      <trkpt lat="46.36663" lon="-0.53175">
        <ele>82.8</ele>
        <time>2012-08-12T16:21:02Z</time>
      </trkpt>
      <trkpt lat="46.36651" lon="-0.5319">
        <ele>81.8</ele>
        <time>2012-08-12T16:21:06Z</time>
      </trkpt>
      <trkpt lat="46.36627" lon="-0.53214">
        <ele>82.8</ele>
        <time>2012-08-12T16:21:14Z</time>
      </trkpt>
      <trkpt lat="46.36613" lon="-0.53224">
        <ele>84.8</ele>
        <time>2012-08-12T16:21:18Z</time>
      </trkpt>
      <trkpt lat="46.36586" lon="-0.53241">
        <ele>84.8</ele>
        <time>2012-08-12T16:21:26Z</time>
      </trkpt>
      <trkpt lat="46.36557" lon="-0.53256">
        <ele>85.8</ele>
        <time>2012-08-12T16:21:34Z</time>
      </trkpt>
      <trkpt lat="46.36526" lon="-0.53268">
        <ele>85.8</ele>
        <time>2012-08-12T16:21:42Z</time>
      </trkpt>
      <trkpt lat="46.36511" lon="-0.53275">
        <ele>85.8</ele>
        <time>2012-08-12T16:21:46Z</time>
      </trkpt>
      <trkpt lat="46.36495" lon="-0.53284">
        <ele>85.8</ele>
        <time>2012-08-12T16:21:50Z</time>
      </trkpt>
      <trkpt lat="46.36479" lon="-0.53294">
        <ele>86.8</ele>
        <time>2012-08-12T16:21:54Z</time>
      </trkpt>
      <trkpt lat="46.36447" lon="-0.5331">
        <ele>87.8</ele>
        <time>2012-08-12T16:22:02Z</time>
      </trkpt>
      <trkpt lat="46.36415" lon="-0.53325">
        <ele>88.8</ele>
        <time>2012-08-12T16:22:10Z</time>
      </trkpt>
      <trkpt lat="46.36387" lon="-0.53338">
        <ele>88.8</ele>
        <time>2012-08-12T16:22:16Z</time>
      </trkpt>
      <trkpt lat="46.36358" lon="-0.53351">
        <ele>88.8</ele>
        <time>2012-08-12T16:22:22Z</time>
      </trkpt>
      <trkpt lat="46.36327" lon="-0.53366">
        <ele>89.8</ele>
        <time>2012-08-12T16:22:28Z</time>
      </trkpt>
      <trkpt lat="46.36293" lon="-0.5338">
        <ele>90.8</ele>
        <time>2012-08-12T16:22:34Z</time>
      </trkpt>
      <trkpt lat="46.36256" lon="-0.53396">
        <ele>89.8</ele>
        <time>2012-08-12T16:22:40Z</time>
      </trkpt>
      <trkpt lat="46.36218" lon="-0.53413">
        <ele>90.8</ele>
        <time>2012-08-12T16:22:46Z</time>
      </trkpt>
      <trkpt lat="46.36181" lon="-0.5343">
        <ele>92.8</ele>
        <time>2012-08-12T16:22:52Z</time>
      </trkpt>
      <trkpt lat="46.36146" lon="-0.53448">
        <ele>94.8</ele>
        <time>2012-08-12T16:22:58Z</time>
      </trkpt>
      <trkpt lat="46.36113" lon="-0.53464">
        <ele>94.8</ele>
        <time>2012-08-12T16:23:04Z</time>
      </trkpt>
      <trkpt lat="46.3608" lon="-0.53483">
        <ele>94.8</ele>
        <time>2012-08-12T16:23:10Z</time>
      </trkpt>
      <trkpt lat="46.36048" lon="-0.53504">
        <ele>92.8</ele>
        <time>2012-08-12T16:23:16Z</time>
      </trkpt>
      <trkpt lat="46.36017" lon="-0.5353">
        <ele>92.8</ele>
        <time>2012-08-12T16:23:22Z</time>
      </trkpt>
      <trkpt lat="46.35987" lon="-0.53559">
        <ele>92.8</ele>
        <time>2012-08-12T16:23:28Z</time>
      </trkpt>
      <trkpt lat="46.35957" lon="-0.53587">
        <ele>91.8</ele>
        <time>2012-08-12T16:23:34Z</time>
      </trkpt>
      <trkpt lat="46.35927" lon="-0.53614">
        <ele>91.8</ele>
        <time>2012-08-12T16:23:40Z</time>
      </trkpt>
      <trkpt lat="46.35896" lon="-0.53638">
        <ele>85.8</ele>
        <time>2012-08-12T16:23:46Z</time>
      </trkpt>
      <trkpt lat="46.35865" lon="-0.53664">
        <ele>78.8</ele>
        <time>2012-08-12T16:23:52Z</time>
      </trkpt>
      <trkpt lat="46.35836" lon="-0.53687">
        <ele>77.8</ele>
        <time>2012-08-12T16:23:57Z</time>
      </trkpt>
      <trkpt lat="46.35794" lon="-0.53718">
        <ele>77.8</ele>
        <time>2012-08-12T16:24:04Z</time>
      </trkpt>
      <trkpt lat="46.3576" lon="-0.53746">
        <ele>76.8</ele>
        <time>2012-08-12T16:24:10Z</time>
      </trkpt>
      <trkpt lat="46.3573" lon="-0.5377">
        <ele>77.8</ele>
        <time>2012-08-12T16:24:16Z</time>
      </trkpt>
      <trkpt lat="46.35696" lon="-0.53776">
        <ele>78.8</ele>
        <time>2012-08-12T16:24:22Z</time>
      </trkpt>
      <trkpt lat="46.35663" lon="-0.53795">
        <ele>80.8</ele>
        <time>2012-08-12T16:24:28Z</time>
      </trkpt>
      <trkpt lat="46.35632" lon="-0.53814">
        <ele>80.8</ele>
        <time>2012-08-12T16:24:34Z</time>
      </trkpt>
      <trkpt lat="46.35601" lon="-0.5383">
        <ele>82.8</ele>
        <time>2012-08-12T16:24:40Z</time>
      </trkpt>
      <trkpt lat="46.35572" lon="-0.53845">
        <ele>83.8</ele>
        <time>2012-08-12T16:24:46Z</time>
      </trkpt>
      <trkpt lat="46.35544" lon="-0.53859">
        <ele>84.8</ele>
        <time>2012-08-12T16:24:52Z</time>
      </trkpt>
      <trkpt lat="46.35515" lon="-0.53869">
        <ele>83.8</ele>
        <time>2012-08-12T16:24:58Z</time>
      </trkpt>
      <trkpt lat="46.35485" lon="-0.53877">
        <ele>83.8</ele>
        <time>2012-08-12T16:25:04Z</time>
      </trkpt>
      <trkpt lat="46.35464" lon="-0.53882">
        <ele>84.8</ele>
        <time>2012-08-12T16:25:08Z</time>
      </trkpt>
      <trkpt lat="46.35432" lon="-0.53892">
        <ele>84.8</ele>
        <time>2012-08-12T16:25:14Z</time>
      </trkpt>
      <trkpt lat="46.35394" lon="-0.53901">
        <ele>84.8</ele>
        <time>2012-08-12T16:25:20Z</time>
      </trkpt>
      <trkpt lat="46.35366" lon="-0.53908">
        <ele>83.8</ele>
        <time>2012-08-12T16:25:24Z</time>
      </trkpt>
      <trkpt lat="46.35324" lon="-0.5392">
        <ele>83.8</ele>
        <time>2012-08-12T16:25:30Z</time>
      </trkpt>
      <trkpt lat="46.3528" lon="-0.53932">
        <ele>84.8</ele>
        <time>2012-08-12T16:25:36Z</time>
      </trkpt>
      <trkpt lat="46.35252" lon="-0.5394">
        <ele>86.8</ele>
        <time>2012-08-12T16:25:40Z</time>
      </trkpt>
      <trkpt lat="46.3521" lon="-0.53953">
        <ele>85.8</ele>
        <time>2012-08-12T16:25:46Z</time>
      </trkpt>
      <trkpt lat="46.35182" lon="-0.53962">
        <ele>84.8</ele>
        <time>2012-08-12T16:25:50Z</time>
      </trkpt>
      <trkpt lat="46.35153" lon="-0.53969">
        <ele>83.8</ele>
        <time>2012-08-12T16:25:54Z</time>
      </trkpt>
      <trkpt lat="46.35108" lon="-0.53982">
        <ele>83.8</ele>
        <time>2012-08-12T16:26:00Z</time>
      </trkpt>
      <trkpt lat="46.35064" lon="-0.53992">
        <ele>83.8</ele>
        <time>2012-08-12T16:26:06Z</time>
      </trkpt>
      <trkpt lat="46.35019" lon="-0.54">
        <ele>82.8</ele>
        <time>2012-08-12T16:26:12Z</time>
      </trkpt>
      <trkpt lat="46.34974" lon="-0.54011">
        <ele>82.8</ele>
        <time>2012-08-12T16:26:18Z</time>
      </trkpt>
      <trkpt lat="46.34944" lon="-0.54015">
        <ele>81.8</ele>
        <time>2012-08-12T16:26:22Z</time>
      </trkpt>
      <trkpt lat="46.34901" lon="-0.54019">
        <ele>79.8</ele>
        <time>2012-08-12T16:26:28Z</time>
      </trkpt>
      <trkpt lat="46.34872" lon="-0.54022">
        <ele>78.8</ele>
        <time>2012-08-12T16:26:32Z</time>
      </trkpt>
      <trkpt lat="46.34829" lon="-0.54031">
        <ele>77.8</ele>
        <time>2012-08-12T16:26:38Z</time>
      </trkpt>
      <trkpt lat="46.348" lon="-0.54034">
        <ele>77.8</ele>
        <time>2012-08-12T16:26:42Z</time>
      </trkpt>
      <trkpt lat="46.34762" lon="-0.54058">
        <ele>77.8</ele>
        <time>2012-08-12T16:26:48Z</time>
      </trkpt>
      <trkpt lat="46.34723" lon="-0.54096">
        <ele>75.8</ele>
        <time>2012-08-12T16:26:55Z</time>
      </trkpt>
      <trkpt lat="46.3469" lon="-0.54125">
        <ele>73.8</ele>
        <time>2012-08-12T16:27:01Z</time>
      </trkpt>
      <trkpt lat="46.34656" lon="-0.5415">
        <ele>71.8</ele>
        <time>2012-08-12T16:27:07Z</time>
      </trkpt>
      <trkpt lat="46.34626" lon="-0.54172">
        <ele>69.8</ele>
        <time>2012-08-12T16:27:12Z</time>
      </trkpt>
      <trkpt lat="46.34601" lon="-0.5419">
        <ele>68.8</ele>
        <time>2012-08-12T16:27:16Z</time>
      </trkpt>
      <trkpt lat="46.34565" lon="-0.54219">
        <ele>68.8</ele>
        <time>2012-08-12T16:27:22Z</time>
      </trkpt>
      <trkpt lat="46.34528" lon="-0.54251">
        <ele>66.8</ele>
        <time>2012-08-12T16:27:28Z</time>
      </trkpt>
      <trkpt lat="46.34505" lon="-0.54274">
        <ele>65.8</ele>
        <time>2012-08-12T16:27:32Z</time>
      </trkpt>
      <trkpt lat="46.34483" lon="-0.54299">
        <ele>64.8</ele>
        <time>2012-08-12T16:27:36Z</time>
      </trkpt>
      <trkpt lat="46.34452" lon="-0.54328">
        <ele>65.8</ele>
        <time>2012-08-12T16:27:41Z</time>
      </trkpt>
      <trkpt lat="46.34428" lon="-0.54354">
        <ele>66.8</ele>
        <time>2012-08-12T16:27:45Z</time>
      </trkpt>
      <trkpt lat="46.34397" lon="-0.54386">
        <ele>67.8</ele>
        <time>2012-08-12T16:27:50Z</time>
      </trkpt>
      <trkpt lat="46.3436" lon="-0.54423">
        <ele>68.8</ele>
        <time>2012-08-12T16:27:56Z</time>
      </trkpt>
      <trkpt lat="46.34333" lon="-0.54445">
        <ele>68.8</ele>
        <time>2012-08-12T16:28:00Z</time>
      </trkpt>
      <trkpt lat="46.34297" lon="-0.54468">
        <ele>67.8</ele>
        <time>2012-08-12T16:28:05Z</time>
      </trkpt>
      <trkpt lat="46.34268" lon="-0.54485">
        <ele>65.8</ele>
        <time>2012-08-12T16:28:09Z</time>
      </trkpt>
      <trkpt lat="46.34229" lon="-0.54504">
        <ele>62.8</ele>
        <time>2012-08-12T16:28:14Z</time>
      </trkpt>
      <trkpt lat="46.34178" lon="-0.54526">
        <ele>60.8</ele>
        <time>2012-08-12T16:28:20Z</time>
      </trkpt>
      <trkpt lat="46.34131" lon="-0.54546">
        <ele>59.8</ele>
        <time>2012-08-12T16:28:25Z</time>
      </trkpt>
      <trkpt lat="46.34093" lon="-0.54565">
        <ele>59.8</ele>
        <time>2012-08-12T16:28:29Z</time>
      </trkpt>
      <trkpt lat="46.34053" lon="-0.54597">
        <ele>57.8</ele>
        <time>2012-08-12T16:28:34Z</time>
      </trkpt>
      <trkpt lat="46.34024" lon="-0.54623">
        <ele>56.8</ele>
        <time>2012-08-12T16:28:38Z</time>
      </trkpt>
      <trkpt lat="46.33993" lon="-0.54652">
        <ele>54.8</ele>
        <time>2012-08-12T16:28:42Z</time>
      </trkpt>
      <trkpt lat="46.33957" lon="-0.54688">
        <ele>47.8</ele>
        <time>2012-08-12T16:28:47Z</time>
      </trkpt>
      <trkpt lat="46.33931" lon="-0.54715">
        <ele>44.8</ele>
        <time>2012-08-12T16:28:51Z</time>
      </trkpt>
      <trkpt lat="46.33909" lon="-0.5474">
        <ele>40.8</ele>
        <time>2012-08-12T16:28:55Z</time>
      </trkpt>
      <trkpt lat="46.3388" lon="-0.54773">
        <ele>38.8</ele>
        <time>2012-08-12T16:29:00Z</time>
      </trkpt>
      <trkpt lat="46.33845" lon="-0.54812">
        <ele>36.8</ele>
        <time>2012-08-12T16:29:06Z</time>
      </trkpt>
      <trkpt lat="46.33823" lon="-0.54838">
        <ele>35.8</ele>
        <time>2012-08-12T16:29:10Z</time>
      </trkpt>
      <trkpt lat="46.33793" lon="-0.54882">
        <ele>31.8</ele>
        <time>2012-08-12T16:29:16Z</time>
      </trkpt>
      <trkpt lat="46.33789" lon="-0.54921">
        <ele>28.8</ele>
        <time>2012-08-12T16:29:20Z</time>
      </trkpt>
      <trkpt lat="46.33795" lon="-0.54973">
        <ele>25.8</ele>
        <time>2012-08-12T16:29:26Z</time>
      </trkpt>
      <trkpt lat="46.33799" lon="-0.55017">
        <ele>22.8</ele>
        <time>2012-08-12T16:29:33Z</time>
      </trkpt>
      <trkpt lat="46.33801" lon="-0.55041">
        <ele>21.8</ele>
        <time>2012-08-12T16:29:37Z</time>
      </trkpt>
      <trkpt lat="46.33801" lon="-0.55069">
        <ele>20.8</ele>
        <time>2012-08-12T16:29:42Z</time>
      </trkpt>
      <trkpt lat="46.33807" lon="-0.55112">
        <ele>21.8</ele>
        <time>2012-08-12T16:29:50Z</time>
      </trkpt>
      <trkpt lat="46.33811" lon="-0.55163">
        <ele>22.8</ele>
        <time>2012-08-12T16:29:58Z</time>
      </trkpt>
      <trkpt lat="46.33814" lon="-0.55203">
        <ele>22.8</ele>
        <time>2012-08-12T16:30:04Z</time>
      </trkpt>
      <trkpt lat="46.33817" lon="-0.55246">
        <ele>23.8</ele>
        <time>2012-08-12T16:30:10Z</time>
      </trkpt>
      <trkpt lat="46.33819" lon="-0.55291">
        <ele>23.8</ele>
        <time>2012-08-12T16:30:16Z</time>
      </trkpt>
      <trkpt lat="46.3382" lon="-0.55338">
        <ele>22.8</ele>
        <time>2012-08-12T16:30:22Z</time>
      </trkpt>
      <trkpt lat="46.3382" lon="-0.55383">
        <ele>23.8</ele>
        <time>2012-08-12T16:30:28Z</time>
      </trkpt>
      <trkpt lat="46.33816" lon="-0.55427">
        <ele>24.8</ele>
        <time>2012-08-12T16:30:34Z</time>
      </trkpt>
      <trkpt lat="46.33809" lon="-0.5548">
        <ele>23.8</ele>
        <time>2012-08-12T16:30:41Z</time>
      </trkpt>
      <trkpt lat="46.33801" lon="-0.55535">
        <ele>33.8</ele>
        <time>2012-08-12T16:30:48Z</time>
      </trkpt>
      <trkpt lat="46.33801" lon="-0.55591">
        <ele>34.8</ele>
        <time>2012-08-12T16:30:55Z</time>
      </trkpt>
      <trkpt lat="46.33799" lon="-0.55638">
        <ele>34.8</ele>
        <time>2012-08-12T16:31:01Z</time>
      </trkpt>
      <trkpt lat="46.33798" lon="-0.5567">
        <ele>32.8</ele>
        <time>2012-08-12T16:31:05Z</time>
      </trkpt>
      <trkpt lat="46.33797" lon="-0.55725">
        <ele>31.8</ele>
        <time>2012-08-12T16:31:12Z</time>
      </trkpt>
      <trkpt lat="46.33795" lon="-0.55774">
        <ele>29.8</ele>
        <time>2012-08-12T16:31:18Z</time>
      </trkpt>
      <trkpt lat="46.33792" lon="-0.55822">
        <ele>28.8</ele>
        <time>2012-08-12T16:31:24Z</time>
      </trkpt>
      <trkpt lat="46.33789" lon="-0.55873">
        <ele>27.8</ele>
        <time>2012-08-12T16:31:30Z</time>
      </trkpt>
      <trkpt lat="46.33784" lon="-0.55923">
        <ele>24.8</ele>
        <time>2012-08-12T16:31:36Z</time>
      </trkpt>
      <trkpt lat="46.33782" lon="-0.55954">
        <ele>24.8</ele>
        <time>2012-08-12T16:31:40Z</time>
      </trkpt>
      <trkpt lat="46.33775" lon="-0.55999">
        <ele>22.8</ele>
        <time>2012-08-12T16:31:46Z</time>
      </trkpt>
      <trkpt lat="46.3376" lon="-0.56028">
        <ele>22.8</ele>
        <time>2012-08-12T16:31:50Z</time>
      </trkpt>
      <trkpt lat="46.33731" lon="-0.56057">
        <ele>21.8</ele>
        <time>2012-08-12T16:31:56Z</time>
      </trkpt>
      <trkpt lat="46.33705" lon="-0.56085">
        <ele>21.8</ele>
        <time>2012-08-12T16:32:02Z</time>
      </trkpt>
      <trkpt lat="46.33677" lon="-0.5611">
        <ele>21.8</ele>
        <time>2012-08-12T16:32:08Z</time>
      </trkpt>
      <trkpt lat="46.33645" lon="-0.56135">
        <ele>22.8</ele>
        <time>2012-08-12T16:32:14Z</time>
      </trkpt>
      <trkpt lat="46.33615" lon="-0.56176">
        <ele>20.8</ele>
        <time>2012-08-12T16:32:21Z</time>
      </trkpt>
      <trkpt lat="46.33597" lon="-0.56217">
        <ele>18.8</ele>
        <time>2012-08-12T16:32:27Z</time>
      </trkpt>
      <trkpt lat="46.33579" lon="-0.56254">
        <ele>19.8</ele>
        <time>2012-08-12T16:32:33Z</time>
      </trkpt>
      <trkpt lat="46.33561" lon="-0.5629">
        <ele>19.8</ele>
        <time>2012-08-12T16:32:39Z</time>
      </trkpt>
      <trkpt lat="46.33542" lon="-0.56324">
        <ele>19.8</ele>
        <time>2012-08-12T16:32:45Z</time>
      </trkpt>
      <trkpt lat="46.33522" lon="-0.56356">
        <ele>29.8</ele>
        <time>2012-08-12T16:32:52Z</time>
      </trkpt>
      <trkpt lat="46.335" lon="-0.56395">
        <ele>32.8</ele>
        <time>2012-08-12T16:33:00Z</time>
      </trkpt>
      <trkpt lat="46.3348" lon="-0.56434">
        <ele>31.8</ele>
        <time>2012-08-12T16:33:08Z</time>
      </trkpt>
      <trkpt lat="46.3347" lon="-0.56455">
        <ele>30.8</ele>
        <time>2012-08-12T16:33:12Z</time>
      </trkpt>
      <trkpt lat="46.33452" lon="-0.56491">
        <ele>29.8</ele>
        <time>2012-08-12T16:33:19Z</time>
      </trkpt>
      <trkpt lat="46.33437" lon="-0.56525">
        <ele>28.8</ele>
        <time>2012-08-12T16:33:25Z</time>
      </trkpt>
      <trkpt lat="46.33422" lon="-0.56558">
        <ele>28.8</ele>
        <time>2012-08-12T16:33:31Z</time>
      </trkpt>
      <trkpt lat="46.33407" lon="-0.56592">
        <ele>27.8</ele>
        <time>2012-08-12T16:33:37Z</time>
      </trkpt>
      <trkpt lat="46.33391" lon="-0.56627">
        <ele>26.8</ele>
        <time>2012-08-12T16:33:43Z</time>
      </trkpt>
      <trkpt lat="46.33373" lon="-0.56663">
        <ele>27.8</ele>
        <time>2012-08-12T16:33:49Z</time>
      </trkpt>
      <trkpt lat="46.33353" lon="-0.56698">
        <ele>27.8</ele>
        <time>2012-08-12T16:33:55Z</time>
      </trkpt>
      <trkpt lat="46.3333" lon="-0.56733">
        <ele>27.8</ele>
        <time>2012-08-12T16:34:01Z</time>
      </trkpt>
      <trkpt lat="46.33308" lon="-0.56765">
        <ele>28.8</ele>
        <time>2012-08-12T16:34:07Z</time>
      </trkpt>
      <trkpt lat="46.33286" lon="-0.56796">
        <ele>30.8</ele>
        <time>2012-08-12T16:34:13Z</time>
      </trkpt>
      <trkpt lat="46.33265" lon="-0.56828">
        <ele>30.8</ele>
        <time>2012-08-12T16:34:19Z</time>
      </trkpt>
      <trkpt lat="46.33247" lon="-0.56859">
        <ele>31.8</ele>
        <time>2012-08-12T16:34:25Z</time>
      </trkpt>
      <trkpt lat="46.33229" lon="-0.56891">
        <ele>31.8</ele>
        <time>2012-08-12T16:34:31Z</time>
      </trkpt>
      <trkpt lat="46.3321" lon="-0.56923">
        <ele>31.8</ele>
        <time>2012-08-12T16:34:37Z</time>
      </trkpt>
      <trkpt lat="46.33191" lon="-0.56956">
        <ele>31.8</ele>
        <time>2012-08-12T16:34:43Z</time>
      </trkpt>
      <trkpt lat="46.33171" lon="-0.56986">
        <ele>30.8</ele>
        <time>2012-08-12T16:34:49Z</time>
      </trkpt>
      <trkpt lat="46.33156" lon="-0.57004">
        <ele>30.8</ele>
        <time>2012-08-12T16:34:53Z</time>
      </trkpt>
      <trkpt lat="46.33133" lon="-0.57029">
        <ele>28.8</ele>
        <time>2012-08-12T16:34:59Z</time>
      </trkpt>
      <trkpt lat="46.33107" lon="-0.57053">
        <ele>29.8</ele>
        <time>2012-08-12T16:35:05Z</time>
      </trkpt>
      <trkpt lat="46.33081" lon="-0.57078">
        <ele>28.8</ele>
        <time>2012-08-12T16:35:11Z</time>
      </trkpt>
      <trkpt lat="46.33053" lon="-0.57102">
        <ele>27.8</ele>
        <time>2012-08-12T16:35:17Z</time>
      </trkpt>
      <trkpt lat="46.33023" lon="-0.57132">
        <ele>26.8</ele>
        <time>2012-08-12T16:35:23Z</time>
      </trkpt>
      <trkpt lat="46.32992" lon="-0.57161">
        <ele>25.8</ele>
        <time>2012-08-12T16:35:29Z</time>
      </trkpt>
      <trkpt lat="46.32965" lon="-0.57184">
        <ele>24.8</ele>
        <time>2012-08-12T16:35:34Z</time>
      </trkpt>
      <trkpt lat="46.32934" lon="-0.57214">
        <ele>23.8</ele>
        <time>2012-08-12T16:35:40Z</time>
      </trkpt>
      <trkpt lat="46.32904" lon="-0.57248">
        <ele>23.8</ele>
        <time>2012-08-12T16:35:46Z</time>
      </trkpt>
      <trkpt lat="46.32872" lon="-0.5728">
        <ele>20.8</ele>
        <time>2012-08-12T16:35:52Z</time>
      </trkpt>
      <trkpt lat="46.32842" lon="-0.57302">
        <ele>20.8</ele>
        <time>2012-08-12T16:35:57Z</time>
      </trkpt>
      <trkpt lat="46.32803" lon="-0.57325">
        <ele>21.7</ele>
        <time>2012-08-12T16:36:03Z</time>
      </trkpt>
      <trkpt lat="46.32768" lon="-0.5736">
        <ele>21.7</ele>
        <time>2012-08-12T16:36:09Z</time>
      </trkpt>
      <trkpt lat="46.32746" lon="-0.57407">
        <ele>20.7</ele>
        <time>2012-08-12T16:36:15Z</time>
      </trkpt>
      <trkpt lat="46.32731" lon="-0.57458">
        <ele>21.7</ele>
        <time>2012-08-12T16:36:21Z</time>
      </trkpt>
      <trkpt lat="46.32721" lon="-0.57492">
        <ele>21.7</ele>
        <time>2012-08-12T16:36:25Z</time>
      </trkpt>
      <trkpt lat="46.32704" lon="-0.57541">
        <ele>20.7</ele>
        <time>2012-08-12T16:36:31Z</time>
      </trkpt>
      <trkpt lat="46.32688" lon="-0.57584">
        <ele>18.7</ele>
        <time>2012-08-12T16:36:38Z</time>
      </trkpt>
      <trkpt lat="46.32676" lon="-0.57623">
        <ele>17.7</ele>
        <time>2012-08-12T16:36:42Z</time>
      </trkpt>
      <trkpt lat="46.32662" lon="-0.57685">
        <ele>18.7</ele>
        <time>2012-08-12T16:36:48Z</time>
      </trkpt>
      <trkpt lat="46.32654" lon="-0.57742">
        <ele>18.7</ele>
        <time>2012-08-12T16:36:54Z</time>
      </trkpt>
      <trkpt lat="46.32637" lon="-0.57787">
        <ele>18.7</ele>
        <time>2012-08-12T16:37:00Z</time>
      </trkpt>
      <trkpt lat="46.3262" lon="-0.57837">
        <ele>18.7</ele>
        <time>2012-08-12T16:37:06Z</time>
      </trkpt>
      <trkpt lat="46.32595" lon="-0.57893">
        <ele>21.7</ele>
        <time>2012-08-12T16:37:13Z</time>
      </trkpt>
      <trkpt lat="46.32573" lon="-0.57935">
        <ele>23.7</ele>
        <time>2012-08-12T16:37:19Z</time>
      </trkpt>
      <trkpt lat="46.32559" lon="-0.57964">
        <ele>24.7</ele>
        <time>2012-08-12T16:37:23Z</time>
      </trkpt>
      <trkpt lat="46.32539" lon="-0.58005">
        <ele>23.7</ele>
        <time>2012-08-12T16:37:29Z</time>
      </trkpt>
      <trkpt lat="46.32519" lon="-0.58049">
        <ele>22.7</ele>
        <time>2012-08-12T16:37:35Z</time>
      </trkpt>
      <trkpt lat="46.32501" lon="-0.58095">
        <ele>22.7</ele>
        <time>2012-08-12T16:37:41Z</time>
      </trkpt>
      <trkpt lat="46.32483" lon="-0.58149">
        <ele>20.7</ele>
        <time>2012-08-12T16:37:48Z</time>
      </trkpt>
      <trkpt lat="46.32472" lon="-0.58185">
        <ele>20.7</ele>
        <time>2012-08-12T16:37:53Z</time>
      </trkpt>
      <trkpt lat="46.32465" lon="-0.58227">
        <ele>16.7</ele>
        <time>2012-08-12T16:37:59Z</time>
      </trkpt>
      <trkpt lat="46.32457" lon="-0.58259">
        <ele>13.7</ele>
        <time>2012-08-12T16:38:04Z</time>
      </trkpt>
      <trkpt lat="46.32439" lon="-0.58298">
        <ele>13.7</ele>
        <time>2012-08-12T16:38:14Z</time>
      </trkpt>
      <trkpt lat="46.32431" lon="-0.58316">
        <ele>14.7</ele>
        <time>2012-08-12T16:38:18Z</time>
      </trkpt>
      <trkpt lat="46.32433" lon="-0.58306">
        <ele>19.7</ele>
        <time>2012-08-12T16:38:34Z</time>
      </trkpt>
      <trkpt lat="46.32421" lon="-0.58296">
        <ele>22.7</ele>
        <time>2012-08-12T16:38:42Z</time>
      </trkpt>
      <trkpt lat="46.32401" lon="-0.58267">
        <ele>21.7</ele>
        <time>2012-08-12T16:38:48Z</time>
      </trkpt>
      <trkpt lat="46.32375" lon="-0.58239">
        <ele>21.7</ele>
        <time>2012-08-12T16:38:54Z</time>
      </trkpt>
      <trkpt lat="46.32349" lon="-0.58211">
        <ele>21.7</ele>
        <time>2012-08-12T16:39:00Z</time>
      </trkpt>
      <trkpt lat="46.32323" lon="-0.58185">
        <ele>24.7</ele>
        <time>2012-08-12T16:39:06Z</time>
      </trkpt>
      <trkpt lat="46.32299" lon="-0.58161">
        <ele>28.7</ele>
        <time>2012-08-12T16:39:12Z</time>
      </trkpt>
      <trkpt lat="46.32274" lon="-0.58138">
        <ele>29.7</ele>
        <time>2012-08-12T16:39:18Z</time>
      </trkpt>
      <trkpt lat="46.32249" lon="-0.58114">
        <ele>29.7</ele>
        <time>2012-08-12T16:39:24Z</time>
      </trkpt>
      <trkpt lat="46.32222" lon="-0.58088">
        <ele>29.7</ele>
        <time>2012-08-12T16:39:30Z</time>
      </trkpt>
      <trkpt lat="46.32188" lon="-0.58057">
        <ele>30.7</ele>
        <time>2012-08-12T16:39:37Z</time>
      </trkpt>
      <trkpt lat="46.32159" lon="-0.58033">
        <ele>29.7</ele>
        <time>2012-08-12T16:39:42Z</time>
      </trkpt>
      <trkpt lat="46.32121" lon="-0.57998">
        <ele>28.7</ele>
        <time>2012-08-12T16:39:48Z</time>
      </trkpt>
      <trkpt lat="46.32096" lon="-0.57974">
        <ele>27.7</ele>
        <time>2012-08-12T16:39:52Z</time>
      </trkpt>
      <trkpt lat="46.32061" lon="-0.57939">
        <ele>27.7</ele>
        <time>2012-08-12T16:39:58Z</time>
      </trkpt>
      <trkpt lat="46.3203" lon="-0.57908">
        <ele>26.7</ele>
        <time>2012-08-12T16:40:04Z</time>
      </trkpt>
      <trkpt lat="46.3201" lon="-0.57887">
        <ele>23.7</ele>
        <time>2012-08-12T16:40:08Z</time>
      </trkpt>
      <trkpt lat="46.31979" lon="-0.57858">
        <ele>19.7</ele>
        <time>2012-08-12T16:40:14Z</time>
      </trkpt>
      <trkpt lat="46.31949" lon="-0.57832">
        <ele>17.7</ele>
        <time>2012-08-12T16:40:20Z</time>
      </trkpt>
      <trkpt lat="46.31922" lon="-0.57805">
        <ele>17.7</ele>
        <time>2012-08-12T16:40:26Z</time>
      </trkpt>
      <trkpt lat="46.31899" lon="-0.57768">
        <ele>18.7</ele>
        <time>2012-08-12T16:40:32Z</time>
      </trkpt>
      <trkpt lat="46.31877" lon="-0.57731">
        <ele>18.7</ele>
        <time>2012-08-12T16:40:38Z</time>
      </trkpt>
      <trkpt lat="46.31852" lon="-0.57699">
        <ele>20.7</ele>
        <time>2012-08-12T16:40:44Z</time>
      </trkpt>
      <trkpt lat="46.31854" lon="-0.57658">
        <ele>20.7</ele>
        <time>2012-08-12T16:40:50Z</time>
      </trkpt>
      <trkpt lat="46.31875" lon="-0.57615">
        <ele>15.7</ele>
        <time>2012-08-12T16:40:56Z</time>
      </trkpt>
      <trkpt lat="46.31883" lon="-0.57565">
        <ele>12.7</ele>
        <time>2012-08-12T16:41:02Z</time>
      </trkpt>
      <trkpt lat="46.31893" lon="-0.57512">
        <ele>13.7</ele>
        <time>2012-08-12T16:41:08Z</time>
      </trkpt>
      <trkpt lat="46.31897" lon="-0.57475">
        <ele>17.7</ele>
        <time>2012-08-12T16:41:12Z</time>
      </trkpt>
      <trkpt lat="46.31896" lon="-0.57418">
        <ele>19.7</ele>
        <time>2012-08-12T16:41:18Z</time>
      </trkpt>
      <trkpt lat="46.3189" lon="-0.57359">
        <ele>20.7</ele>
        <time>2012-08-12T16:41:24Z</time>
      </trkpt>
      <trkpt lat="46.31887" lon="-0.57319">
        <ele>20.7</ele>
        <time>2012-08-12T16:41:28Z</time>
      </trkpt>
      <trkpt lat="46.31883" lon="-0.57257">
        <ele>21.7</ele>
        <time>2012-08-12T16:41:34Z</time>
      </trkpt>
      <trkpt lat="46.3188" lon="-0.57193">
        <ele>21.7</ele>
        <time>2012-08-12T16:41:40Z</time>
      </trkpt>
      <trkpt lat="46.31878" lon="-0.57152">
        <ele>20.7</ele>
        <time>2012-08-12T16:41:44Z</time>
      </trkpt>
      <trkpt lat="46.31875" lon="-0.5709">
        <ele>19.7</ele>
        <time>2012-08-12T16:41:50Z</time>
      </trkpt>
      <trkpt lat="46.31873" lon="-0.57042">
        <ele>18.7</ele>
        <time>2012-08-12T16:41:55Z</time>
      </trkpt>
      <trkpt lat="46.31869" lon="-0.57003">
        <ele>17.7</ele>
        <time>2012-08-12T16:41:59Z</time>
      </trkpt>
      <trkpt lat="46.31865" lon="-0.56947">
        <ele>16.7</ele>
        <time>2012-08-12T16:42:05Z</time>
      </trkpt>
      <trkpt lat="46.31864" lon="-0.5689">
        <ele>17.7</ele>
        <time>2012-08-12T16:42:11Z</time>
      </trkpt>
      <trkpt lat="46.31864" lon="-0.56834">
        <ele>17.7</ele>
        <time>2012-08-12T16:42:17Z</time>
      </trkpt>
      <trkpt lat="46.31863" lon="-0.56779">
        <ele>17.7</ele>
        <time>2012-08-12T16:42:23Z</time>
      </trkpt>
      <trkpt lat="46.31862" lon="-0.56727">
        <ele>16.8</ele>
        <time>2012-08-12T16:42:29Z</time>
      </trkpt>
      <trkpt lat="46.3186" lon="-0.56693">
        <ele>15.8</ele>
        <time>2012-08-12T16:42:33Z</time>
      </trkpt>
      <trkpt lat="46.31855" lon="-0.56634">
        <ele>15.8</ele>
        <time>2012-08-12T16:42:40Z</time>
      </trkpt>
      <trkpt lat="46.31852" lon="-0.56585">
        <ele>15.8</ele>
        <time>2012-08-12T16:42:46Z</time>
      </trkpt>
      <trkpt lat="46.31851" lon="-0.56536">
        <ele>17.8</ele>
        <time>2012-08-12T16:42:52Z</time>
      </trkpt>
      <trkpt lat="46.3185" lon="-0.56504">
        <ele>17.8</ele>
        <time>2012-08-12T16:42:56Z</time>
      </trkpt>
      <trkpt lat="46.31849" lon="-0.56454">
        <ele>17.8</ele>
        <time>2012-08-12T16:43:02Z</time>
      </trkpt>
      <trkpt lat="46.31846" lon="-0.56401">
        <ele>17.8</ele>
        <time>2012-08-12T16:43:08Z</time>
      </trkpt>
      <trkpt lat="46.31843" lon="-0.56354">
        <ele>29.8</ele>
        <time>2012-08-12T16:43:13Z</time>
      </trkpt>
      <trkpt lat="46.3184" lon="-0.56294">
        <ele>36.8</ele>
        <time>2012-08-12T16:43:19Z</time>
      </trkpt>
      <trkpt lat="46.31838" lon="-0.56253">
        <ele>38.8</ele>
        <time>2012-08-12T16:43:23Z</time>
      </trkpt>
      <trkpt lat="46.31831" lon="-0.56193">
        <ele>39.8</ele>
        <time>2012-08-12T16:43:29Z</time>
      </trkpt>
      <trkpt lat="46.31833" lon="-0.56139">
        <ele>39.8</ele>
        <time>2012-08-12T16:43:35Z</time>
      </trkpt>
      <trkpt lat="46.31817" lon="-0.56086">
        <ele>41.8</ele>
        <time>2012-08-12T16:43:41Z</time>
      </trkpt>
      <trkpt lat="46.318" lon="-0.56035">
        <ele>43.8</ele>
        <time>2012-08-12T16:43:47Z</time>
      </trkpt>
      <trkpt lat="46.31786" lon="-0.55985">
        <ele>44.8</ele>
        <time>2012-08-12T16:43:53Z</time>
      </trkpt>
      <trkpt lat="46.31769" lon="-0.55936">
        <ele>45.8</ele>
        <time>2012-08-12T16:43:59Z</time>
      </trkpt>
      <trkpt lat="46.31755" lon="-0.55887">
        <ele>44.8</ele>
        <time>2012-08-12T16:44:05Z</time>
      </trkpt>
      <trkpt lat="46.31742" lon="-0.5584">
        <ele>47.8</ele>
        <time>2012-08-12T16:44:11Z</time>
      </trkpt>
      <trkpt lat="46.31728" lon="-0.55794">
        <ele>48.8</ele>
        <time>2012-08-12T16:44:17Z</time>
      </trkpt>
      <trkpt lat="46.31713" lon="-0.55749">
        <ele>48.8</ele>
        <time>2012-08-12T16:44:23Z</time>
      </trkpt>
      <trkpt lat="46.31701" lon="-0.55703">
        <ele>50.8</ele>
        <time>2012-08-12T16:44:29Z</time>
      </trkpt>
      <trkpt lat="46.31688" lon="-0.55677">
        <ele>51.8</ele>
        <time>2012-08-12T16:44:33Z</time>
      </trkpt>
      <trkpt lat="46.31674" lon="-0.55634">
        <ele>50.8</ele>
        <time>2012-08-12T16:44:39Z</time>
      </trkpt>
      <trkpt lat="46.31676" lon="-0.55585">
        <ele>48.8</ele>
        <time>2012-08-12T16:44:45Z</time>
      </trkpt>
      <trkpt lat="46.31664" lon="-0.55536">
        <ele>48.8</ele>
        <time>2012-08-12T16:44:51Z</time>
      </trkpt>
      <trkpt lat="46.31645" lon="-0.55489">
        <ele>46.8</ele>
        <time>2012-08-12T16:44:57Z</time>
      </trkpt>
      <trkpt lat="46.31624" lon="-0.55445">
        <ele>45.8</ele>
        <time>2012-08-12T16:45:03Z</time>
      </trkpt>
      <trkpt lat="46.31606" lon="-0.55402">
        <ele>43.8</ele>
        <time>2012-08-12T16:45:09Z</time>
      </trkpt>
      <trkpt lat="46.31593" lon="-0.55362">
        <ele>41.8</ele>
        <time>2012-08-12T16:45:15Z</time>
      </trkpt>
      <trkpt lat="46.31581" lon="-0.55319">
        <ele>40.8</ele>
        <time>2012-08-12T16:45:21Z</time>
      </trkpt>
      <trkpt lat="46.3157" lon="-0.55276">
        <ele>41.8</ele>
        <time>2012-08-12T16:45:27Z</time>
      </trkpt>
      <trkpt lat="46.31558" lon="-0.5523">
        <ele>40.8</ele>
        <time>2012-08-12T16:45:33Z</time>
      </trkpt>
      <trkpt lat="46.3155" lon="-0.55182">
        <ele>41.8</ele>
        <time>2012-08-12T16:45:39Z</time>
      </trkpt>
      <trkpt lat="46.31544" lon="-0.55135">
        <ele>39.8</ele>
        <time>2012-08-12T16:45:45Z</time>
      </trkpt>
      <trkpt lat="46.31537" lon="-0.55088">
        <ele>38.8</ele>
        <time>2012-08-12T16:45:51Z</time>
      </trkpt>
      <trkpt lat="46.31532" lon="-0.55038">
        <ele>38.8</ele>
        <time>2012-08-12T16:45:57Z</time>
      </trkpt>
      <trkpt lat="46.3153" lon="-0.54985">
        <ele>37.8</ele>
        <time>2012-08-12T16:46:03Z</time>
      </trkpt>
      <trkpt lat="46.31529" lon="-0.54933">
        <ele>38.8</ele>
        <time>2012-08-12T16:46:09Z</time>
      </trkpt>
      <trkpt lat="46.3153" lon="-0.54878">
        <ele>37.8</ele>
        <time>2012-08-12T16:46:15Z</time>
      </trkpt>
      <trkpt lat="46.31529" lon="-0.54829">
        <ele>36.8</ele>
        <time>2012-08-12T16:46:20Z</time>
      </trkpt>
      <trkpt lat="46.31529" lon="-0.54788">
        <ele>35.8</ele>
        <time>2012-08-12T16:46:24Z</time>
      </trkpt>
      <trkpt lat="46.31527" lon="-0.54722">
        <ele>37.8</ele>
        <time>2012-08-12T16:46:30Z</time>
      </trkpt>
      <trkpt lat="46.31524" lon="-0.54652">
        <ele>39.8</ele>
        <time>2012-08-12T16:46:36Z</time>
      </trkpt>
      <trkpt lat="46.31515" lon="-0.54595">
        <ele>38.8</ele>
        <time>2012-08-12T16:46:41Z</time>
      </trkpt>
      <trkpt lat="46.31505" lon="-0.54551">
        <ele>36.8</ele>
        <time>2012-08-12T16:46:45Z</time>
      </trkpt>
      <trkpt lat="46.3149" lon="-0.54486">
        <ele>36.8</ele>
        <time>2012-08-12T16:46:52Z</time>
      </trkpt>
      <trkpt lat="46.31483" lon="-0.54468">
        <ele>30.8</ele>
        <time>2012-08-12T16:47:12Z</time>
      </trkpt>
      <trkpt lat="46.31477" lon="-0.54446">
        <ele>29.8</ele>
        <time>2012-08-12T16:47:18Z</time>
      </trkpt>
      <trkpt lat="46.31467" lon="-0.54406">
        <ele>28.8</ele>
        <time>2012-08-12T16:47:24Z</time>
      </trkpt>
      <trkpt lat="46.31457" lon="-0.54367">
        <ele>29.8</ele>
        <time>2012-08-12T16:47:30Z</time>
      </trkpt>
      <trkpt lat="46.31445" lon="-0.54317">
        <ele>31.8</ele>
        <time>2012-08-12T16:47:36Z</time>
      </trkpt>
      <trkpt lat="46.31431" lon="-0.5426">
        <ele>32.8</ele>
        <time>2012-08-12T16:47:42Z</time>
      </trkpt>
      <trkpt lat="46.31414" lon="-0.54205">
        <ele>32.8</ele>
        <time>2012-08-12T16:47:48Z</time>
      </trkpt>
      <trkpt lat="46.314" lon="-0.5416">
        <ele>32.8</ele>
        <time>2012-08-12T16:47:53Z</time>
      </trkpt>
      <trkpt lat="46.31385" lon="-0.54116">
        <ele>30.8</ele>
        <time>2012-08-12T16:47:58Z</time>
      </trkpt>
      <trkpt lat="46.31376" lon="-0.54063">
        <ele>30.8</ele>
        <time>2012-08-12T16:48:04Z</time>
      </trkpt>
      <trkpt lat="46.31375" lon="-0.54027">
        <ele>30.8</ele>
        <time>2012-08-12T16:48:08Z</time>
      </trkpt>
      <trkpt lat="46.31374" lon="-0.53973">
        <ele>29.8</ele>
        <time>2012-08-12T16:48:14Z</time>
      </trkpt>
      <trkpt lat="46.31372" lon="-0.5391">
        <ele>28.8</ele>
        <time>2012-08-12T16:48:21Z</time>
      </trkpt>
      <trkpt lat="46.31367" lon="-0.53859">
        <ele>26.8</ele>
        <time>2012-08-12T16:48:27Z</time>
      </trkpt>
      <trkpt lat="46.31362" lon="-0.53809">
        <ele>26.8</ele>
        <time>2012-08-12T16:48:33Z</time>
      </trkpt>
      <trkpt lat="46.31354" lon="-0.5376">
        <ele>25.8</ele>
        <time>2012-08-12T16:48:39Z</time>
      </trkpt>
      <trkpt lat="46.31342" lon="-0.53712">
        <ele>25.8</ele>
        <time>2012-08-12T16:48:45Z</time>
      </trkpt>
      <trkpt lat="46.31328" lon="-0.53662">
        <ele>26.8</ele>
        <time>2012-08-12T16:48:51Z</time>
      </trkpt>
      <trkpt lat="46.31318" lon="-0.53622">
        <ele>25.8</ele>
        <time>2012-08-12T16:48:56Z</time>
      </trkpt>
      <trkpt lat="46.31312" lon="-0.53588">
        <ele>25.8</ele>
        <time>2012-08-12T16:49:00Z</time>
      </trkpt>
      <trkpt lat="46.31312" lon="-0.53535">
        <ele>25.8</ele>
        <time>2012-08-12T16:49:06Z</time>
      </trkpt>
      <trkpt lat="46.31313" lon="-0.53487">
        <ele>24.8</ele>
        <time>2012-08-12T16:49:11Z</time>
      </trkpt>
      <trkpt lat="46.31313" lon="-0.53428">
        <ele>26.8</ele>
        <time>2012-08-12T16:49:17Z</time>
      </trkpt>
      <trkpt lat="46.31308" lon="-0.53369">
        <ele>26.8</ele>
        <time>2012-08-12T16:49:23Z</time>
      </trkpt>
      <trkpt lat="46.31305" lon="-0.5332">
        <ele>25.8</ele>
        <time>2012-08-12T16:49:28Z</time>
      </trkpt>
      <trkpt lat="46.31299" lon="-0.53261">
        <ele>31.8</ele>
        <time>2012-08-12T16:49:34Z</time>
      </trkpt>
      <trkpt lat="46.31296" lon="-0.53222">
        <ele>32.8</ele>
        <time>2012-08-12T16:49:38Z</time>
      </trkpt>
      <trkpt lat="46.31294" lon="-0.53174">
        <ele>34.8</ele>
        <time>2012-08-12T16:49:43Z</time>
      </trkpt>
      <trkpt lat="46.31283" lon="-0.53129">
        <ele>37.8</ele>
        <time>2012-08-12T16:49:48Z</time>
      </trkpt>
      <trkpt lat="46.31262" lon="-0.53088">
        <ele>37.8</ele>
        <time>2012-08-12T16:49:53Z</time>
      </trkpt>
      <trkpt lat="46.31244" lon="-0.53056">
        <ele>36.8</ele>
        <time>2012-08-12T16:49:57Z</time>
      </trkpt>
      <trkpt lat="46.31217" lon="-0.53007">
        <ele>38.8</ele>
        <time>2012-08-12T16:50:03Z</time>
      </trkpt>
      <trkpt lat="46.31201" lon="-0.52973">
        <ele>42.8</ele>
        <time>2012-08-12T16:50:07Z</time>
      </trkpt>
      <trkpt lat="46.31175" lon="-0.52914">
        <ele>46.8</ele>
        <time>2012-08-12T16:50:14Z</time>
      </trkpt>
      <trkpt lat="46.31159" lon="-0.52881">
        <ele>49.8</ele>
        <time>2012-08-12T16:50:18Z</time>
      </trkpt>
      <trkpt lat="46.31138" lon="-0.52831">
        <ele>48.8</ele>
        <time>2012-08-12T16:50:24Z</time>
      </trkpt>
      <trkpt lat="46.31119" lon="-0.52781">
        <ele>47.8</ele>
        <time>2012-08-12T16:50:30Z</time>
      </trkpt>
      <trkpt lat="46.31095" lon="-0.52723">
        <ele>45.8</ele>
        <time>2012-08-12T16:50:37Z</time>
      </trkpt>
      <trkpt lat="46.31077" lon="-0.5268">
        <ele>44.8</ele>
        <time>2012-08-12T16:50:43Z</time>
      </trkpt>
      <trkpt lat="46.3106" lon="-0.52637">
        <ele>42.8</ele>
        <time>2012-08-12T16:50:49Z</time>
      </trkpt>
      <trkpt lat="46.31053" lon="-0.52595">
        <ele>40.8</ele>
        <time>2012-08-12T16:50:55Z</time>
      </trkpt>
      <trkpt lat="46.31058" lon="-0.52551">
        <ele>38.8</ele>
        <time>2012-08-12T16:51:01Z</time>
      </trkpt>
      <trkpt lat="46.31069" lon="-0.525">
        <ele>36.8</ele>
        <time>2012-08-12T16:51:07Z</time>
      </trkpt>
      <trkpt lat="46.31083" lon="-0.52452">
        <ele>34.8</ele>
        <time>2012-08-12T16:51:12Z</time>
      </trkpt>
      <trkpt lat="46.31097" lon="-0.52406">
        <ele>30.8</ele>
        <time>2012-08-12T16:51:17Z</time>
      </trkpt>
      <trkpt lat="46.31109" lon="-0.52365">
        <ele>28.8</ele>
        <time>2012-08-12T16:51:23Z</time>
      </trkpt>
      <trkpt lat="46.31127" lon="-0.52325">
        <ele>24.8</ele>
        <time>2012-08-12T16:51:29Z</time>
      </trkpt>
      <trkpt lat="46.31146" lon="-0.52285">
        <ele>27.8</ele>
        <time>2012-08-12T16:51:35Z</time>
      </trkpt>
      <trkpt lat="46.31169" lon="-0.52253">
        <ele>31.8</ele>
        <time>2012-08-12T16:51:41Z</time>
      </trkpt>
      <trkpt lat="46.31186" lon="-0.52214">
        <ele>30.8</ele>
        <time>2012-08-12T16:51:47Z</time>
      </trkpt>
      <trkpt lat="46.31199" lon="-0.52173">
        <ele>27.8</ele>
        <time>2012-08-12T16:51:53Z</time>
      </trkpt>
      <trkpt lat="46.31209" lon="-0.5213">
        <ele>25.8</ele>
        <time>2012-08-12T16:51:59Z</time>
      </trkpt>
      <trkpt lat="46.31216" lon="-0.52089">
        <ele>25.8</ele>
        <time>2012-08-12T16:52:05Z</time>
      </trkpt>
      <trkpt lat="46.31224" lon="-0.52045">
        <ele>25.8</ele>
        <time>2012-08-12T16:52:11Z</time>
      </trkpt>
      <trkpt lat="46.31233" lon="-0.51999">
        <ele>25.8</ele>
        <time>2012-08-12T16:52:17Z</time>
      </trkpt>
      <trkpt lat="46.31238" lon="-0.51968">
        <ele>24.8</ele>
        <time>2012-08-12T16:52:21Z</time>
      </trkpt>
      <trkpt lat="46.31246" lon="-0.51919">
        <ele>24.8</ele>
        <time>2012-08-12T16:52:27Z</time>
      </trkpt>
      <trkpt lat="46.31258" lon="-0.51868">
        <ele>23.8</ele>
        <time>2012-08-12T16:52:33Z</time>
      </trkpt>
      <trkpt lat="46.31269" lon="-0.51818">
        <ele>24.8</ele>
        <time>2012-08-12T16:52:39Z</time>
      </trkpt>
      <trkpt lat="46.31276" lon="-0.51767">
        <ele>24.8</ele>
        <time>2012-08-12T16:52:45Z</time>
      </trkpt>
      <trkpt lat="46.31282" lon="-0.51716">
        <ele>24.8</ele>
        <time>2012-08-12T16:52:51Z</time>
      </trkpt>
      <trkpt lat="46.31294" lon="-0.51668">
        <ele>24.8</ele>
        <time>2012-08-12T16:52:57Z</time>
      </trkpt>
      <trkpt lat="46.31304" lon="-0.51616">
        <ele>25.8</ele>
        <time>2012-08-12T16:53:03Z</time>
      </trkpt>
      <trkpt lat="46.31313" lon="-0.51565">
        <ele>25.8</ele>
        <time>2012-08-12T16:53:09Z</time>
      </trkpt>
      <trkpt lat="46.3132" lon="-0.51513">
        <ele>25.8</ele>
        <time>2012-08-12T16:53:15Z</time>
      </trkpt>
      <trkpt lat="46.31328" lon="-0.51459">
        <ele>28.8</ele>
        <time>2012-08-12T16:53:21Z</time>
      </trkpt>
      <trkpt lat="46.31334" lon="-0.51409">
        <ele>28.8</ele>
        <time>2012-08-12T16:53:26Z</time>
      </trkpt>
      <trkpt lat="46.31344" lon="-0.51356">
        <ele>29.8</ele>
        <time>2012-08-12T16:53:30Z</time>
      </trkpt>
      <trkpt lat="46.31361" lon="-0.51281">
        <ele>28.8</ele>
        <time>2012-08-12T16:53:36Z</time>
      </trkpt>
      <trkpt lat="46.31376" lon="-0.51234">
        <ele>28.8</ele>
        <time>2012-08-12T16:53:40Z</time>
      </trkpt>
      <trkpt lat="46.31396" lon="-0.51168">
        <ele>28.8</ele>
        <time>2012-08-12T16:53:46Z</time>
      </trkpt>
      <trkpt lat="46.31411" lon="-0.51123">
        <ele>28.8</ele>
        <time>2012-08-12T16:53:50Z</time>
      </trkpt>
      <trkpt lat="46.31429" lon="-0.51066">
        <ele>27.8</ele>
        <time>2012-08-12T16:53:55Z</time>
      </trkpt>
      <trkpt lat="46.31442" lon="-0.51022">
        <ele>25.8</ele>
        <time>2012-08-12T16:53:59Z</time>
      </trkpt>
      <trkpt lat="46.31456" lon="-0.50952">
        <ele>21.8</ele>
        <time>2012-08-12T16:54:05Z</time>
      </trkpt>
      <trkpt lat="46.31466" lon="-0.50883">
        <ele>20.8</ele>
        <time>2012-08-12T16:54:11Z</time>
      </trkpt>
      <trkpt lat="46.31473" lon="-0.50816">
        <ele>17.8</ele>
        <time>2012-08-12T16:54:17Z</time>
      </trkpt>
      <trkpt lat="46.31479" lon="-0.50772">
        <ele>17.8</ele>
        <time>2012-08-12T16:54:21Z</time>
      </trkpt>
      <trkpt lat="46.31488" lon="-0.50707">
        <ele>17.8</ele>
        <time>2012-08-12T16:54:27Z</time>
      </trkpt>
      <trkpt lat="46.31497" lon="-0.50645">
        <ele>17.8</ele>
        <time>2012-08-12T16:54:33Z</time>
      </trkpt>
      <trkpt lat="46.31504" lon="-0.50605">
        <ele>17.8</ele>
        <time>2012-08-12T16:54:37Z</time>
      </trkpt>
      <trkpt lat="46.31512" lon="-0.50546">
        <ele>17.8</ele>
        <time>2012-08-12T16:54:43Z</time>
      </trkpt>
      <trkpt lat="46.31519" lon="-0.50509">
        <ele>17.8</ele>
        <time>2012-08-12T16:54:47Z</time>
      </trkpt>
      <trkpt lat="46.31528" lon="-0.50455">
        <ele>18.8</ele>
        <time>2012-08-12T16:54:53Z</time>
      </trkpt>
      <trkpt lat="46.31536" lon="-0.50404">
        <ele>17.8</ele>
        <time>2012-08-12T16:54:59Z</time>
      </trkpt>
      <trkpt lat="46.31547" lon="-0.50356">
        <ele>17.8</ele>
        <time>2012-08-12T16:55:05Z</time>
      </trkpt>
      <trkpt lat="46.31558" lon="-0.50309">
        <ele>25.8</ele>
        <time>2012-08-12T16:55:11Z</time>
      </trkpt>
      <trkpt lat="46.31566" lon="-0.50268">
        <ele>23.8</ele>
        <time>2012-08-12T16:55:54Z</time>
      </trkpt>
      <trkpt lat="46.31572" lon="-0.50226">
        <ele>22.8</ele>
        <time>2012-08-12T16:56:00Z</time>
      </trkpt>
      <trkpt lat="46.3158" lon="-0.50184">
        <ele>21.8</ele>
        <time>2012-08-12T16:56:06Z</time>
      </trkpt>
      <trkpt lat="46.3159" lon="-0.50147">
        <ele>19.8</ele>
        <time>2012-08-12T16:56:11Z</time>
      </trkpt>
      <trkpt lat="46.316" lon="-0.50107">
        <ele>17.8</ele>
        <time>2012-08-12T16:56:17Z</time>
      </trkpt>
      <trkpt lat="46.31612" lon="-0.50067">
        <ele>14.8</ele>
        <time>2012-08-12T16:56:23Z</time>
      </trkpt>
      <trkpt lat="46.31624" lon="-0.5002">
        <ele>14.8</ele>
        <time>2012-08-12T16:56:29Z</time>
      </trkpt>
      <trkpt lat="46.31636" lon="-0.4997">
        <ele>13.8</ele>
        <time>2012-08-12T16:56:35Z</time>
      </trkpt>
      <trkpt lat="46.31651" lon="-0.49919">
        <ele>13.8</ele>
        <time>2012-08-12T16:56:41Z</time>
      </trkpt>
      <trkpt lat="46.31661" lon="-0.4987">
        <ele>13.8</ele>
        <time>2012-08-12T16:56:47Z</time>
      </trkpt>
      <trkpt lat="46.31668" lon="-0.49837">
        <ele>11.8</ele>
        <time>2012-08-12T16:56:51Z</time>
      </trkpt>
      <trkpt lat="46.31684" lon="-0.49789">
        <ele>10.8</ele>
        <time>2012-08-12T16:56:57Z</time>
      </trkpt>
      <trkpt lat="46.31694" lon="-0.49746">
        <ele>10.8</ele>
        <time>2012-08-12T16:57:02Z</time>
      </trkpt>
      <trkpt lat="46.31707" lon="-0.49697">
        <ele>8.8</ele>
        <time>2012-08-12T16:57:08Z</time>
      </trkpt>
      <trkpt lat="46.3172" lon="-0.49658">
        <ele>8.8</ele>
        <time>2012-08-12T16:57:13Z</time>
      </trkpt>
      <trkpt lat="46.31733" lon="-0.49622">
        <ele>8.8</ele>
        <time>2012-08-12T16:57:18Z</time>
      </trkpt>
      <trkpt lat="46.31745" lon="-0.49581">
        <ele>8.8</ele>
        <time>2012-08-12T16:57:24Z</time>
      </trkpt>
      <trkpt lat="46.31748" lon="-0.49552">
        <ele>8.8</ele>
        <time>2012-08-12T16:57:28Z</time>
      </trkpt>
      <trkpt lat="46.31751" lon="-0.49507">
        <ele>9.8</ele>
        <time>2012-08-12T16:57:34Z</time>
      </trkpt>
      <trkpt lat="46.31753" lon="-0.4946">
        <ele>10.8</ele>
        <time>2012-08-12T16:57:40Z</time>
      </trkpt>
      <trkpt lat="46.3176" lon="-0.49412">
        <ele>11.8</ele>
        <time>2012-08-12T16:57:46Z</time>
      </trkpt>
      <trkpt lat="46.3177" lon="-0.49364">
        <ele>13.8</ele>
        <time>2012-08-12T16:57:52Z</time>
      </trkpt>
      <trkpt lat="46.31776" lon="-0.49318">
        <ele>14.8</ele>
        <time>2012-08-12T16:57:58Z</time>
      </trkpt>
      <trkpt lat="46.31787" lon="-0.49302">
        <ele>15.8</ele>
        <time>2012-08-12T16:58:02Z</time>
      </trkpt>
      <trkpt lat="46.31815" lon="-0.49314">
        <ele>14.8</ele>
        <time>2012-08-12T16:58:08Z</time>
      </trkpt>
      <trkpt lat="46.31846" lon="-0.4932">
        <ele>15.8</ele>
        <time>2012-08-12T16:58:14Z</time>
      </trkpt>
      <trkpt lat="46.31879" lon="-0.4931">
        <ele>17.8</ele>
        <time>2012-08-12T16:58:19Z</time>
      </trkpt>
      <trkpt lat="46.31906" lon="-0.493">
        <ele>17.8</ele>
        <time>2012-08-12T16:58:23Z</time>
      </trkpt>
      <trkpt lat="46.31932" lon="-0.4928">
        <ele>18.8</ele>
        <time>2012-08-12T16:58:27Z</time>
      </trkpt>
      <trkpt lat="46.31957" lon="-0.49262">
        <ele>19.8</ele>
        <time>2012-08-12T16:58:31Z</time>
      </trkpt>
      <trkpt lat="46.31996" lon="-0.49228">
        <ele>19.8</ele>
        <time>2012-08-12T16:58:38Z</time>
      </trkpt>
      <trkpt lat="46.32033" lon="-0.49182">
        <ele>18.8</ele>
        <time>2012-08-12T16:58:45Z</time>
      </trkpt>
      <trkpt lat="46.3206" lon="-0.4915">
        <ele>18.8</ele>
        <time>2012-08-12T16:58:51Z</time>
      </trkpt>
      <trkpt lat="46.32082" lon="-0.49121">
        <ele>18.8</ele>
        <time>2012-08-12T16:58:57Z</time>
      </trkpt>
      <trkpt lat="46.32104" lon="-0.49095">
        <ele>17.8</ele>
        <time>2012-08-12T16:59:03Z</time>
      </trkpt>
      <trkpt lat="46.32128" lon="-0.49071">
        <ele>17.8</ele>
        <time>2012-08-12T16:59:09Z</time>
      </trkpt>
      <trkpt lat="46.32154" lon="-0.49048">
        <ele>19.8</ele>
        <time>2012-08-12T16:59:15Z</time>
      </trkpt>
      <trkpt lat="46.32182" lon="-0.49029">
        <ele>21.8</ele>
        <time>2012-08-12T16:59:21Z</time>
      </trkpt>
      <trkpt lat="46.32214" lon="-0.49013">
        <ele>23.8</ele>
        <time>2012-08-12T16:59:27Z</time>
      </trkpt>
      <trkpt lat="46.32247" lon="-0.49001">
        <ele>25.8</ele>
        <time>2012-08-12T16:59:33Z</time>
      </trkpt>
      <trkpt lat="46.32283" lon="-0.48992">
        <ele>26.8</ele>
        <time>2012-08-12T16:59:39Z</time>
      </trkpt>
      <trkpt lat="46.32316" lon="-0.48981">
        <ele>25.8</ele>
        <time>2012-08-12T16:59:44Z</time>
      </trkpt>
      <trkpt lat="46.3235" lon="-0.48969">
        <ele>26.8</ele>
        <time>2012-08-12T16:59:49Z</time>
      </trkpt>
      <trkpt lat="46.32394" lon="-0.48954">
        <ele>27.8</ele>
        <time>2012-08-12T16:59:55Z</time>
      </trkpt>
      <trkpt lat="46.32438" lon="-0.48938">
        <ele>27.8</ele>
        <time>2012-08-12T17:00:01Z</time>
      </trkpt>
      <trkpt lat="46.32467" lon="-0.48928">
        <ele>27.8</ele>
        <time>2012-08-12T17:00:05Z</time>
      </trkpt>
      <trkpt lat="46.32495" lon="-0.48917">
        <ele>28.8</ele>
        <time>2012-08-12T17:00:09Z</time>
      </trkpt>
      <trkpt lat="46.32529" lon="-0.48907">
        <ele>36.8</ele>
        <time>2012-08-12T17:00:14Z</time>
      </trkpt>
      <trkpt lat="46.32568" lon="-0.48896">
        <ele>45.8</ele>
        <time>2012-08-12T17:00:20Z</time>
      </trkpt>
      <trkpt lat="46.32606" lon="-0.48886">
        <ele>48.8</ele>
        <time>2012-08-12T17:00:26Z</time>
      </trkpt>
      <trkpt lat="46.32644" lon="-0.48882">
        <ele>48.8</ele>
        <time>2012-08-12T17:00:32Z</time>
      </trkpt>
      <trkpt lat="46.32682" lon="-0.48884">
        <ele>46.8</ele>
        <time>2012-08-12T17:00:38Z</time>
      </trkpt>
      <trkpt lat="46.32712" lon="-0.48892">
        <ele>41.8</ele>
        <time>2012-08-12T17:00:43Z</time>
      </trkpt>
      <trkpt lat="46.32734" lon="-0.48903">
        <ele>38.8</ele>
        <time>2012-08-12T17:00:47Z</time>
      </trkpt>
      <trkpt lat="46.32766" lon="-0.48915">
        <ele>34.8</ele>
        <time>2012-08-12T17:00:53Z</time>
      </trkpt>
      <trkpt lat="46.32796" lon="-0.48937">
        <ele>33.8</ele>
        <time>2012-08-12T17:00:59Z</time>
      </trkpt>
      <trkpt lat="46.32829" lon="-0.48945">
        <ele>30.8</ele>
        <time>2012-08-12T17:01:05Z</time>
      </trkpt>
      <trkpt lat="46.32852" lon="-0.48943">
        <ele>29.8</ele>
        <time>2012-08-12T17:01:09Z</time>
      </trkpt>
      <trkpt lat="46.32887" lon="-0.48941">
        <ele>27.8</ele>
        <time>2012-08-12T17:01:15Z</time>
      </trkpt>
      <trkpt lat="46.32922" lon="-0.48928">
        <ele>28.8</ele>
        <time>2012-08-12T17:01:21Z</time>
      </trkpt>
      <trkpt lat="46.32959" lon="-0.48907">
        <ele>27.8</ele>
        <time>2012-08-12T17:01:27Z</time>
      </trkpt>
      <trkpt lat="46.32995" lon="-0.48892">
        <ele>27.8</ele>
        <time>2012-08-12T17:01:33Z</time>
      </trkpt>
      <trkpt lat="46.33031" lon="-0.48873">
        <ele>24.8</ele>
        <time>2012-08-12T17:01:39Z</time>
      </trkpt>
      <trkpt lat="46.33067" lon="-0.48861">
        <ele>23.8</ele>
        <time>2012-08-12T17:01:45Z</time>
      </trkpt>
      <trkpt lat="46.331" lon="-0.48852">
        <ele>23.8</ele>
        <time>2012-08-12T17:01:51Z</time>
      </trkpt>
      <trkpt lat="46.33132" lon="-0.48841">
        <ele>22.8</ele>
        <time>2012-08-12T17:01:57Z</time>
      </trkpt>
      <trkpt lat="46.33161" lon="-0.48822">
        <ele>22.8</ele>
        <time>2012-08-12T17:02:03Z</time>
      </trkpt>
      <trkpt lat="46.33185" lon="-0.48795">
        <ele>21.8</ele>
        <time>2012-08-12T17:02:09Z</time>
      </trkpt>
      <trkpt lat="46.33205" lon="-0.48762">
        <ele>22.8</ele>
        <time>2012-08-12T17:02:15Z</time>
      </trkpt>
      <trkpt lat="46.33229" lon="-0.48731">
        <ele>32.8</ele>
        <time>2012-08-12T17:02:21Z</time>
      </trkpt>
      <trkpt lat="46.33253" lon="-0.48681">
        <ele>31.8</ele>
        <time>2012-08-12T17:02:28Z</time>
      </trkpt>
      <trkpt lat="46.33257" lon="-0.48633">
        <ele>32.8</ele>
        <time>2012-08-12T17:02:34Z</time>
      </trkpt>
      <trkpt lat="46.33239" lon="-0.48579">
        <ele>29.8</ele>
        <time>2012-08-12T17:02:41Z</time>
      </trkpt>
      <trkpt lat="46.3323" lon="-0.48534">
        <ele>29.8</ele>
        <time>2012-08-12T17:02:47Z</time>
      </trkpt>
      <trkpt lat="46.33218" lon="-0.48493">
        <ele>28.8</ele>
        <time>2012-08-12T17:02:53Z</time>
      </trkpt>
      <trkpt lat="46.33211" lon="-0.48465">
        <ele>28.8</ele>
        <time>2012-08-12T17:02:57Z</time>
      </trkpt>
      <trkpt lat="46.33209" lon="-0.48416">
        <ele>22.8</ele>
        <time>2012-08-12T17:03:26Z</time>
      </trkpt>
      <trkpt lat="46.33202" lon="-0.48387">
        <ele>18.8</ele>
        <time>2012-08-12T17:03:32Z</time>
      </trkpt>
      <trkpt lat="46.33188" lon="-0.48345">
        <ele>17.8</ele>
        <time>2012-08-12T17:03:38Z</time>
      </trkpt>
      <trkpt lat="46.33179" lon="-0.48316">
        <ele>16.8</ele>
        <time>2012-08-12T17:03:44Z</time>
      </trkpt>
      <trkpt lat="46.33172" lon="-0.48294">
        <ele>17.8</ele>
        <time>2012-08-12T17:03:49Z</time>
      </trkpt>
      <trkpt lat="46.33163" lon="-0.48277">
        <ele>18.8</ele>
        <time>2012-08-12T17:03:56Z</time>
      </trkpt>
      <trkpt lat="46.33154" lon="-0.48261">
        <ele>18.8</ele>
        <time>2012-08-12T17:04:01Z</time>
      </trkpt>
      <trkpt lat="46.33162" lon="-0.48243">
        <ele>18.8</ele>
        <time>2012-08-12T17:04:07Z</time>
      </trkpt>
      <trkpt lat="46.33176" lon="-0.48235">
        <ele>16.8</ele>
        <time>2012-08-12T17:04:12Z</time>
      </trkpt>
      <trkpt lat="46.33203" lon="-0.48215">
        <ele>15.8</ele>
        <time>2012-08-12T17:04:17Z</time>
      </trkpt>
      <trkpt lat="46.33234" lon="-0.48202">
        <ele>15.8</ele>
        <time>2012-08-12T17:04:21Z</time>
      </trkpt>
      <trkpt lat="46.33274" lon="-0.48175">
        <ele>19.8</ele>
        <time>2012-08-12T17:04:27Z</time>
      </trkpt>
      <trkpt lat="46.33302" lon="-0.48152">
        <ele>19.8</ele>
        <time>2012-08-12T17:04:33Z</time>
      </trkpt>
      <trkpt lat="46.33316" lon="-0.48137">
        <ele>18.8</ele>
        <time>2012-08-12T17:04:37Z</time>
      </trkpt>
      <trkpt lat="46.33327" lon="-0.48125">
        <ele>17.8</ele>
        <time>2012-08-12T17:04:41Z</time>
      </trkpt>
      <trkpt lat="46.33339" lon="-0.48111">
        <ele>18.8</ele>
        <time>2012-08-12T17:04:46Z</time>
      </trkpt>
      <trkpt lat="46.3335" lon="-0.48099">
        <ele>18.8</ele>
        <time>2012-08-12T17:04:50Z</time>
      </trkpt>
      <trkpt lat="46.33347" lon="-0.48058">
        <ele>18.8</ele>
        <time>2012-08-12T17:04:58Z</time>
      </trkpt>
      <trkpt lat="46.33331" lon="-0.48029">
        <ele>15.8</ele>
        <time>2012-08-12T17:05:04Z</time>
      </trkpt>
      <trkpt lat="46.33303" lon="-0.48015">
        <ele>15.8</ele>
        <time>2012-08-12T17:05:11Z</time>
      </trkpt>
      <trkpt lat="46.33275" lon="-0.48012">
        <ele>16.8</ele>
        <time>2012-08-12T17:05:17Z</time>
      </trkpt>
      <trkpt lat="46.3324" lon="-0.48007">
        <ele>18.8</ele>
        <time>2012-08-12T17:05:24Z</time>
      </trkpt>
      <trkpt lat="46.3321" lon="-0.48009">
        <ele>19.8</ele>
        <time>2012-08-12T17:05:30Z</time>
      </trkpt>
      <trkpt lat="46.33182" lon="-0.48018">
        <ele>21.8</ele>
        <time>2012-08-12T17:05:36Z</time>
      </trkpt>
      <trkpt lat="46.33148" lon="-0.48029">
        <ele>21.8</ele>
        <time>2012-08-12T17:05:44Z</time>
      </trkpt>
      <trkpt lat="46.33131" lon="-0.48038">
        <ele>22.8</ele>
        <time>2012-08-12T17:05:48Z</time>
      </trkpt>
      <trkpt lat="46.33108" lon="-0.48044">
        <ele>23.8</ele>
        <time>2012-08-12T17:05:54Z</time>
      </trkpt>
      <trkpt lat="46.33078" lon="-0.48039">
        <ele>24.8</ele>
        <time>2012-08-12T17:06:01Z</time>
      </trkpt>
      <trkpt lat="46.33047" lon="-0.48033">
        <ele>24.8</ele>
        <time>2012-08-12T17:06:07Z</time>
      </trkpt>
      <trkpt lat="46.33014" lon="-0.48041">
        <ele>23.8</ele>
        <time>2012-08-12T17:06:14Z</time>
      </trkpt>
      <trkpt lat="46.3299" lon="-0.48061">
        <ele>22.8</ele>
        <time>2012-08-12T17:06:20Z</time>
      </trkpt>
      <trkpt lat="46.32977" lon="-0.48076">
        <ele>21.8</ele>
        <time>2012-08-12T17:06:24Z</time>
      </trkpt>
      <trkpt lat="46.32974" lon="-0.48123">
        <ele>19.8</ele>
        <time>2012-08-12T17:06:32Z</time>
      </trkpt>
      <trkpt lat="46.32971" lon="-0.48146">
        <ele>19.8</ele>
        <time>2012-08-12T17:06:36Z</time>
      </trkpt>
      <trkpt lat="46.32967" lon="-0.48165">
        <ele>18.8</ele>
        <time>2012-08-12T17:06:42Z</time>
      </trkpt>
      <trkpt lat="46.3296" lon="-0.48161">
        <ele>18.8</ele>
        <time>2012-08-12T17:06:47Z</time>
      </trkpt>
      <trkpt lat="46.32928" lon="-0.48129">
        <ele>18.8</ele>
        <time>2012-08-12T17:06:53Z</time>
      </trkpt>
      <trkpt lat="46.32902" lon="-0.48093">
        <ele>18.8</ele>
        <time>2012-08-12T17:06:59Z</time>
      </trkpt>
      <trkpt lat="46.32876" lon="-0.48058">
        <ele>18.8</ele>
        <time>2012-08-12T17:07:05Z</time>
      </trkpt>
      <trkpt lat="46.3285" lon="-0.48017">
        <ele>19.8</ele>
        <time>2012-08-12T17:07:11Z</time>
      </trkpt>
      <trkpt lat="46.32816" lon="-0.47991">
        <ele>19.8</ele>
        <time>2012-08-12T17:07:17Z</time>
      </trkpt>
      <trkpt lat="46.32793" lon="-0.47983">
        <ele>19.8</ele>
        <time>2012-08-12T17:07:21Z</time>
      </trkpt>
      <trkpt lat="46.32759" lon="-0.47965">
        <ele>25.8</ele>
        <time>2012-08-12T17:07:27Z</time>
      </trkpt>
      <trkpt lat="46.32726" lon="-0.47951">
        <ele>30.8</ele>
        <time>2012-08-12T17:07:33Z</time>
      </trkpt>
      <trkpt lat="46.32696" lon="-0.4793">
        <ele>32.8</ele>
        <time>2012-08-12T17:07:39Z</time>
      </trkpt>
      <trkpt lat="46.32668" lon="-0.47908">
        <ele>34.8</ele>
        <time>2012-08-12T17:07:45Z</time>
      </trkpt>
      <trkpt lat="46.32642" lon="-0.47886">
        <ele>33.8</ele>
        <time>2012-08-12T17:07:51Z</time>
      </trkpt>
      <trkpt lat="46.3261" lon="-0.47864">
        <ele>32.8</ele>
        <time>2012-08-12T17:07:58Z</time>
      </trkpt>
      <trkpt lat="46.3258" lon="-0.47836">
        <ele>32.8</ele>
        <time>2012-08-12T17:08:04Z</time>
      </trkpt>
      <trkpt lat="46.32549" lon="-0.47805">
        <ele>31.8</ele>
        <time>2012-08-12T17:08:10Z</time>
      </trkpt>
      <trkpt lat="46.32527" lon="-0.47764">
        <ele>30.8</ele>
        <time>2012-08-12T17:08:16Z</time>
      </trkpt>
      <trkpt lat="46.32505" lon="-0.47731">
        <ele>30.8</ele>
        <time>2012-08-12T17:08:20Z</time>
      </trkpt>
      <trkpt lat="46.32476" lon="-0.47691">
        <ele>31.8</ele>
        <time>2012-08-12T17:08:24Z</time>
      </trkpt>
      <trkpt lat="46.32444" lon="-0.47621">
        <ele>41.8</ele>
        <time>2012-08-12T17:08:30Z</time>
      </trkpt>
      <trkpt lat="46.32429" lon="-0.47576">
        <ele>43.8</ele>
        <time>2012-08-12T17:08:34Z</time>
      </trkpt>
      <trkpt lat="46.32406" lon="-0.47517">
        <ele>45.8</ele>
        <time>2012-08-12T17:08:40Z</time>
      </trkpt>
      <trkpt lat="46.32391" lon="-0.47481">
        <ele>44.8</ele>
        <time>2012-08-12T17:08:44Z</time>
      </trkpt>
      <trkpt lat="46.32377" lon="-0.4743">
        <ele>43.8</ele>
        <time>2012-08-12T17:08:50Z</time>
      </trkpt>
      <trkpt lat="46.32367" lon="-0.47381">
        <ele>43.8</ele>
        <time>2012-08-12T17:08:56Z</time>
      </trkpt>
      <trkpt lat="46.3237" lon="-0.47334">
        <ele>41.8</ele>
        <time>2012-08-12T17:09:03Z</time>
      </trkpt>
      <trkpt lat="46.3238" lon="-0.47316">
        <ele>36.8</ele>
        <time>2012-08-12T17:09:08Z</time>
      </trkpt>
      <trkpt lat="46.32398" lon="-0.47273">
        <ele>29.8</ele>
        <time>2012-08-12T17:09:16Z</time>
      </trkpt>
      <trkpt lat="46.32402" lon="-0.47231">
        <ele>26.8</ele>
        <time>2012-08-12T17:09:21Z</time>
      </trkpt>
      <trkpt lat="46.32399" lon="-0.47175">
        <ele>26.8</ele>
        <time>2012-08-12T17:09:27Z</time>
      </trkpt>
      <trkpt lat="46.32409" lon="-0.4713">
        <ele>32.8</ele>
        <time>2012-08-12T17:09:32Z</time>
      </trkpt>
      <trkpt lat="46.32423" lon="-0.47087">
        <ele>34.8</ele>
        <time>2012-08-12T17:09:37Z</time>
      </trkpt>
      <trkpt lat="46.3244" lon="-0.47038">
        <ele>34.8</ele>
        <time>2012-08-12T17:09:43Z</time>
      </trkpt>
      <trkpt lat="46.32457" lon="-0.46991">
        <ele>33.8</ele>
        <time>2012-08-12T17:09:49Z</time>
      </trkpt>
      <trkpt lat="46.32477" lon="-0.46951">
        <ele>30.8</ele>
        <time>2012-08-12T17:09:55Z</time>
      </trkpt>
      <trkpt lat="46.32506" lon="-0.46948">
        <ele>24.8</ele>
        <time>2012-08-12T17:10:00Z</time>
      </trkpt>
      <trkpt lat="46.3254" lon="-0.46915">
        <ele>21.8</ele>
        <time>2012-08-12T17:10:07Z</time>
      </trkpt>
      <trkpt lat="46.32557" lon="-0.46879">
        <ele>18.8</ele>
        <time>2012-08-12T17:10:13Z</time>
      </trkpt>
      <trkpt lat="46.32568" lon="-0.46856">
        <ele>16.8</ele>
        <time>2012-08-12T17:10:17Z</time>
      </trkpt>
      <trkpt lat="46.32584" lon="-0.46822">
        <ele>14.8</ele>
        <time>2012-08-12T17:10:24Z</time>
      </trkpt>
      <trkpt lat="46.32615" lon="-0.46809">
        <ele>14.8</ele>
        <time>2012-08-12T17:10:32Z</time>
      </trkpt>
      <trkpt lat="46.32643" lon="-0.46783">
        <ele>13.8</ele>
        <time>2012-08-12T17:10:39Z</time>
      </trkpt>
      <trkpt lat="46.32664" lon="-0.46753">
        <ele>14.8</ele>
        <time>2012-08-12T17:10:45Z</time>
      </trkpt>
      <trkpt lat="46.32686" lon="-0.46738">
        <ele>14.8</ele>
        <time>2012-08-12T17:10:50Z</time>
      </trkpt>
      <trkpt lat="46.32715" lon="-0.4673">
        <ele>14.8</ele>
        <time>2012-08-12T17:10:57Z</time>
      </trkpt>
      <trkpt lat="46.32745" lon="-0.46695">
        <ele>25.8</ele>
        <time>2012-08-12T17:11:39Z</time>
      </trkpt>
      <trkpt lat="46.32757" lon="-0.46642">
        <ele>24.8</ele>
        <time>2012-08-12T17:11:44Z</time>
      </trkpt>
      <trkpt lat="46.32762" lon="-0.46609">
        <ele>23.8</ele>
        <time>2012-08-12T17:11:48Z</time>
      </trkpt>
      <trkpt lat="46.32762" lon="-0.46563">
        <ele>23.8</ele>
        <time>2012-08-12T17:11:54Z</time>
      </trkpt>
      <trkpt lat="46.32753" lon="-0.46523">
        <ele>22.8</ele>
        <time>2012-08-12T17:12:00Z</time>
      </trkpt>
      <trkpt lat="46.3274" lon="-0.46488">
        <ele>23.8</ele>
        <time>2012-08-12T17:12:06Z</time>
      </trkpt>
      <trkpt lat="46.32724" lon="-0.46455">
        <ele>23.8</ele>
        <time>2012-08-12T17:12:12Z</time>
      </trkpt>
      <trkpt lat="46.32706" lon="-0.46423">
        <ele>22.8</ele>
        <time>2012-08-12T17:12:18Z</time>
      </trkpt>
      <trkpt lat="46.32684" lon="-0.46383">
        <ele>23.8</ele>
        <time>2012-08-12T17:12:26Z</time>
      </trkpt>
      <trkpt lat="46.32673" lon="-0.46363">
        <ele>23.8</ele>
        <time>2012-08-12T17:12:30Z</time>
      </trkpt>
      <trkpt lat="46.32654" lon="-0.46327">
        <ele>28.8</ele>
        <time>2012-08-12T17:12:38Z</time>
      </trkpt>
      <trkpt lat="46.32641" lon="-0.46312">
        <ele>29.8</ele>
        <time>2012-08-12T17:12:43Z</time>
      </trkpt>
      <trkpt lat="46.32616" lon="-0.46293">
        <ele>29.8</ele>
        <time>2012-08-12T17:12:50Z</time>
      </trkpt>
      <trkpt lat="46.32588" lon="-0.4628">
        <ele>28.8</ele>
        <time>2012-08-12T17:12:56Z</time>
      </trkpt>
      <trkpt lat="46.32557" lon="-0.4628">
        <ele>28.8</ele>
        <time>2012-08-12T17:13:02Z</time>
      </trkpt>
      <trkpt lat="46.32527" lon="-0.46263">
        <ele>27.8</ele>
        <time>2012-08-12T17:13:10Z</time>
      </trkpt>
      <trkpt lat="46.32506" lon="-0.46238">
        <ele>29.8</ele>
        <time>2012-08-12T17:13:16Z</time>
      </trkpt>
      <trkpt lat="46.32482" lon="-0.46218">
        <ele>28.8</ele>
        <time>2012-08-12T17:13:22Z</time>
      </trkpt>
      <trkpt lat="46.32458" lon="-0.46201">
        <ele>25.8</ele>
        <time>2012-08-12T17:13:28Z</time>
      </trkpt>
      <trkpt lat="46.32434" lon="-0.46179">
        <ele>26.8</ele>
        <time>2012-08-12T17:13:34Z</time>
      </trkpt>
      <trkpt lat="46.32417" lon="-0.46175">
        <ele>30.8</ele>
        <time>2012-08-12T17:13:38Z</time>
      </trkpt>
      <trkpt lat="46.32393" lon="-0.46154">
        <ele>29.8</ele>
        <time>2012-08-12T17:13:44Z</time>
      </trkpt>
      <trkpt lat="46.32369" lon="-0.46122">
        <ele>28.8</ele>
        <time>2012-08-12T17:13:50Z</time>
      </trkpt>
      <trkpt lat="46.32349" lon="-0.46079">
        <ele>30.8</ele>
        <time>2012-08-12T17:13:56Z</time>
      </trkpt>
      <trkpt lat="46.3233" lon="-0.46037">
        <ele>28.8</ele>
        <time>2012-08-12T17:14:02Z</time>
      </trkpt>
      <trkpt lat="46.32327" lon="-0.4599">
        <ele>27.8</ele>
        <time>2012-08-12T17:14:07Z</time>
      </trkpt>
      <trkpt lat="46.32327" lon="-0.45949">
        <ele>26.8</ele>
        <time>2012-08-12T17:14:14Z</time>
      </trkpt>
      <trkpt lat="46.32348" lon="-0.45902">
        <ele>26.8</ele>
        <time>2012-08-12T17:14:31Z</time>
      </trkpt>
      <trkpt lat="46.32373" lon="-0.4588">
        <ele>25.8</ele>
        <time>2012-08-12T17:14:35Z</time>
      </trkpt>
      <trkpt lat="46.32403" lon="-0.45866">
        <ele>22.8</ele>
        <time>2012-08-12T17:14:39Z</time>
      </trkpt>
      <trkpt lat="46.32459" lon="-0.45839">
        <ele>15.8</ele>
        <time>2012-08-12T17:14:45Z</time>
      </trkpt>
      <trkpt lat="46.32485" lon="-0.45826">
        <ele>13.8</ele>
        <time>2012-08-12T17:14:50Z</time>
      </trkpt>
      <trkpt lat="46.32517" lon="-0.45813">
        <ele>13.8</ele>
        <time>2012-08-12T17:14:57Z</time>
      </trkpt>
      <trkpt lat="46.32535" lon="-0.45809">
        <ele>13.8</ele>
        <time>2012-08-12T17:15:01Z</time>
      </trkpt>
      <trkpt lat="46.32568" lon="-0.45808">
        <ele>15.8</ele>
        <time>2012-08-12T17:15:08Z</time>
      </trkpt>
      <trkpt lat="46.32586" lon="-0.45809">
        <ele>16.8</ele>
        <time>2012-08-12T17:15:12Z</time>
      </trkpt>
      <trkpt lat="46.32619" lon="-0.45809">
        <ele>17.8</ele>
        <time>2012-08-12T17:15:18Z</time>
      </trkpt>
      <trkpt lat="46.32651" lon="-0.45815">
        <ele>20.8</ele>
        <time>2012-08-12T17:15:24Z</time>
      </trkpt>
      <trkpt lat="46.32673" lon="-0.45818">
        <ele>22.8</ele>
        <time>2012-08-12T17:15:29Z</time>
      </trkpt>
      <trkpt lat="46.32689" lon="-0.45819">
        <ele>25.8</ele>
        <time>2012-08-12T17:15:33Z</time>
      </trkpt>
      <trkpt lat="46.32718" lon="-0.4581">
        <ele>27.8</ele>
        <time>2012-08-12T17:15:41Z</time>
      </trkpt>
      <trkpt lat="46.32745" lon="-0.45806">
        <ele>30.8</ele>
        <time>2012-08-12T17:15:49Z</time>
      </trkpt>
      <trkpt lat="46.32762" lon="-0.45803">
        <ele>31.8</ele>
        <time>2012-08-12T17:15:54Z</time>
      </trkpt>
      <trkpt lat="46.32778" lon="-0.45801">
        <ele>32.8</ele>
        <time>2012-08-12T17:15:59Z</time>
      </trkpt>
      <trkpt lat="46.32794" lon="-0.45799">
        <ele>34.8</ele>
        <time>2012-08-12T17:16:04Z</time>
      </trkpt>
      <trkpt lat="46.32809" lon="-0.45797">
        <ele>34.8</ele>
        <time>2012-08-12T17:16:09Z</time>
      </trkpt>
      <trkpt lat="46.32824" lon="-0.45794">
        <ele>35.8</ele>
        <time>2012-08-12T17:16:14Z</time>
      </trkpt>
      <trkpt lat="46.32841" lon="-0.45791">
        <ele>36.8</ele>
        <time>2012-08-12T17:16:20Z</time>
      </trkpt>
      <trkpt lat="46.32856" lon="-0.45789">
        <ele>36.8</ele>
        <time>2012-08-12T17:16:25Z</time>
      </trkpt>
      <trkpt lat="46.3287" lon="-0.45786">
        <ele>37.8</ele>
        <time>2012-08-12T17:16:30Z</time>
      </trkpt>
      <trkpt lat="46.32883" lon="-0.4579">
        <ele>42.8</ele>
        <time>2012-08-12T17:16:37Z</time>
      </trkpt>
      <trkpt lat="46.32907" lon="-0.45795">
        <ele>51.8</ele>
        <time>2012-08-12T17:16:48Z</time>
      </trkpt>
      <trkpt lat="46.32929" lon="-0.45801">
        <ele>52.8</ele>
        <time>2012-08-12T17:16:55Z</time>
      </trkpt>
      <trkpt lat="46.32944" lon="-0.45804">
        <ele>53.8</ele>
        <time>2012-08-12T17:17:00Z</time>
      </trkpt>
      <trkpt lat="46.32961" lon="-0.45807">
        <ele>55.8</ele>
        <time>2012-08-12T17:17:07Z</time>
      </trkpt>
      <trkpt lat="46.32982" lon="-0.45799">
        <ele>54.8</ele>
        <time>2012-08-12T17:17:24Z</time>
      </trkpt>
      <trkpt lat="46.33" lon="-0.45784">
        <ele>55.8</ele>
        <time>2012-08-12T17:17:33Z</time>
      </trkpt>
      <trkpt lat="46.33019" lon="-0.45768">
        <ele>57.8</ele>
        <time>2012-08-12T17:17:39Z</time>
      </trkpt>
      <trkpt lat="46.33039" lon="-0.45747">
        <ele>61.8</ele>
        <time>2012-08-12T17:17:45Z</time>
      </trkpt>
      <trkpt lat="46.33066" lon="-0.45725">
        <ele>61.8</ele>
        <time>2012-08-12T17:17:54Z</time>
      </trkpt>
      <trkpt lat="46.33092" lon="-0.45699">
        <ele>60.8</ele>
        <time>2012-08-12T17:18:01Z</time>
      </trkpt>
      <trkpt lat="46.3311" lon="-0.45681">
        <ele>61.8</ele>
        <time>2012-08-12T17:18:06Z</time>
      </trkpt>
      <trkpt lat="46.33132" lon="-0.45663">
        <ele>60.8</ele>
        <time>2012-08-12T17:18:12Z</time>
      </trkpt>
      <trkpt lat="46.3316" lon="-0.45638">
        <ele>60.8</ele>
        <time>2012-08-12T17:18:20Z</time>
      </trkpt>
      <trkpt lat="46.33183" lon="-0.45618">
        <ele>58.8</ele>
        <time>2012-08-12T17:18:26Z</time>
      </trkpt>
      <trkpt lat="46.3321" lon="-0.456">
        <ele>56.8</ele>
        <time>2012-08-12T17:18:31Z</time>
      </trkpt>
      <trkpt lat="46.33237" lon="-0.45581">
        <ele>57.8</ele>
        <time>2012-08-12T17:18:37Z</time>
      </trkpt>
      <trkpt lat="46.33265" lon="-0.45559">
        <ele>65.8</ele>
        <time>2012-08-12T17:18:43Z</time>
      </trkpt>
      <trkpt lat="46.333" lon="-0.45534">
        <ele>71.8</ele>
        <time>2012-08-12T17:18:49Z</time>
      </trkpt>
      <trkpt lat="46.33342" lon="-0.45498">
        <ele>72.8</ele>
        <time>2012-08-12T17:18:56Z</time>
      </trkpt>
      <trkpt lat="46.33373" lon="-0.4547">
        <ele>70.8</ele>
        <time>2012-08-12T17:19:02Z</time>
      </trkpt>
      <trkpt lat="46.3341" lon="-0.4543">
        <ele>69.8</ele>
        <time>2012-08-12T17:19:07Z</time>
      </trkpt>
      <trkpt lat="46.33461" lon="-0.45379">
        <ele>67.8</ele>
        <time>2012-08-12T17:19:12Z</time>
      </trkpt>
      <trkpt lat="46.33496" lon="-0.45335">
        <ele>65.8</ele>
        <time>2012-08-12T17:19:16Z</time>
      </trkpt>
      <trkpt lat="46.33528" lon="-0.45294">
        <ele>62.8</ele>
        <time>2012-08-12T17:19:20Z</time>
      </trkpt>
      <trkpt lat="46.33559" lon="-0.45258">
        <ele>60.8</ele>
        <time>2012-08-12T17:19:24Z</time>
      </trkpt>
      <trkpt lat="46.33612" lon="-0.4518">
        <ele>57.8</ele>
        <time>2012-08-12T17:19:30Z</time>
      </trkpt>
      <trkpt lat="46.33647" lon="-0.45086">
        <ele>54.8</ele>
        <time>2012-08-12T17:19:36Z</time>
      </trkpt>
      <trkpt lat="46.33666" lon="-0.45032">
        <ele>51.8</ele>
        <time>2012-08-12T17:19:40Z</time>
      </trkpt>
      <trkpt lat="46.33691" lon="-0.44968">
        <ele>47.8</ele>
        <time>2012-08-12T17:19:48Z</time>
      </trkpt>
      <trkpt lat="46.337" lon="-0.44947">
        <ele>46.8</ele>
        <time>2012-08-12T17:19:52Z</time>
      </trkpt>
      <trkpt lat="46.33712" lon="-0.44922">
        <ele>44.8</ele>
        <time>2012-08-12T17:19:57Z</time>
      </trkpt>
      <trkpt lat="46.3372" lon="-0.44903">
        <ele>43.8</ele>
        <time>2012-08-12T17:20:01Z</time>
      </trkpt>
      <trkpt lat="46.33735" lon="-0.44866">
        <ele>41.8</ele>
        <time>2012-08-12T17:20:09Z</time>
      </trkpt>
      <trkpt lat="46.33743" lon="-0.44847">
        <ele>41.8</ele>
        <time>2012-08-12T17:20:13Z</time>
      </trkpt>
      <trkpt lat="46.33751" lon="-0.4483">
        <ele>41.8</ele>
        <time>2012-08-12T17:20:18Z</time>
      </trkpt>
      <trkpt lat="46.33767" lon="-0.44795">
        <ele>38.8</ele>
        <time>2012-08-12T17:20:26Z</time>
      </trkpt>
      <trkpt lat="46.33775" lon="-0.44777">
        <ele>37.8</ele>
        <time>2012-08-12T17:20:30Z</time>
      </trkpt>
      <trkpt lat="46.33794" lon="-0.44744">
        <ele>38.8</ele>
        <time>2012-08-12T17:20:38Z</time>
      </trkpt>
      <trkpt lat="46.33805" lon="-0.44729">
        <ele>38.8</ele>
        <time>2012-08-12T17:20:42Z</time>
      </trkpt>
      <trkpt lat="46.3382" lon="-0.44711">
        <ele>31.8</ele>
        <time>2012-08-12T17:20:47Z</time>
      </trkpt>
      <trkpt lat="46.33833" lon="-0.44699">
        <ele>26.8</ele>
        <time>2012-08-12T17:20:51Z</time>
      </trkpt>
      <trkpt lat="46.33861" lon="-0.44675">
        <ele>25.8</ele>
        <time>2012-08-12T17:20:59Z</time>
      </trkpt>
      <trkpt lat="46.33887" lon="-0.44649">
        <ele>28.8</ele>
        <time>2012-08-12T17:21:07Z</time>
      </trkpt>
      <trkpt lat="46.339" lon="-0.44637">
        <ele>31.8</ele>
        <time>2012-08-12T17:21:11Z</time>
      </trkpt>
      <trkpt lat="46.33926" lon="-0.44616">
        <ele>34.8</ele>
        <time>2012-08-12T17:21:19Z</time>
      </trkpt>
      <trkpt lat="46.33939" lon="-0.44607">
        <ele>35.8</ele>
        <time>2012-08-12T17:21:23Z</time>
      </trkpt>
      <trkpt lat="46.33968" lon="-0.44593">
        <ele>37.8</ele>
        <time>2012-08-12T17:21:30Z</time>
      </trkpt>
      <trkpt lat="46.33998" lon="-0.44577">
        <ele>39.8</ele>
        <time>2012-08-12T17:21:36Z</time>
      </trkpt>
      <trkpt lat="46.34028" lon="-0.44559">
        <ele>41.8</ele>
        <time>2012-08-12T17:21:43Z</time>
      </trkpt>
      <trkpt lat="46.34041" lon="-0.44549">
        <ele>51.8</ele>
        <time>2012-08-12T17:21:47Z</time>
      </trkpt>
      <trkpt lat="46.34054" lon="-0.44535">
        <ele>56.8</ele>
        <time>2012-08-12T17:21:51Z</time>
      </trkpt>
      <trkpt lat="46.34066" lon="-0.44523">
        <ele>60.8</ele>
        <time>2012-08-12T17:21:55Z</time>
      </trkpt>
      <trkpt lat="46.34077" lon="-0.44509">
        <ele>60.8</ele>
        <time>2012-08-12T17:21:59Z</time>
      </trkpt>
      <trkpt lat="46.341" lon="-0.44481">
        <ele>61.8</ele>
        <time>2012-08-12T17:22:07Z</time>
      </trkpt>
      <trkpt lat="46.34111" lon="-0.44468">
        <ele>60.8</ele>
        <time>2012-08-12T17:22:11Z</time>
      </trkpt>
      <trkpt lat="46.34132" lon="-0.44439">
        <ele>60.8</ele>
        <time>2012-08-12T17:22:19Z</time>
      </trkpt>
      <trkpt lat="46.34155" lon="-0.4441">
        <ele>59.8</ele>
        <time>2012-08-12T17:22:27Z</time>
      </trkpt>
      <trkpt lat="46.34168" lon="-0.44395">
        <ele>59.8</ele>
        <time>2012-08-12T17:22:31Z</time>
      </trkpt>
      <trkpt lat="46.34181" lon="-0.44381">
        <ele>59.8</ele>
        <time>2012-08-12T17:22:35Z</time>
      </trkpt>
      <trkpt lat="46.34205" lon="-0.44349">
        <ele>57.8</ele>
        <time>2012-08-12T17:22:43Z</time>
      </trkpt>
      <trkpt lat="46.34215" lon="-0.44336">
        <ele>58.8</ele>
        <time>2012-08-12T17:22:47Z</time>
      </trkpt>
      <trkpt lat="46.34228" lon="-0.44318">
        <ele>59.9</ele>
        <time>2012-08-12T17:22:51Z</time>
      </trkpt>
      <trkpt lat="46.34253" lon="-0.44287">
        <ele>61.9</ele>
        <time>2012-08-12T17:22:59Z</time>
      </trkpt>
      <trkpt lat="46.34266" lon="-0.44271">
        <ele>61.9</ele>
        <time>2012-08-12T17:23:03Z</time>
      </trkpt>
      <trkpt lat="46.34288" lon="-0.44237">
        <ele>62.9</ele>
        <time>2012-08-12T17:23:11Z</time>
      </trkpt>
      <trkpt lat="46.343" lon="-0.44213">
        <ele>61.9</ele>
        <time>2012-08-12T17:23:16Z</time>
      </trkpt>
      <trkpt lat="46.34314" lon="-0.44169">
        <ele>61.9</ele>
        <time>2012-08-12T17:23:24Z</time>
      </trkpt>
      <trkpt lat="46.3432" lon="-0.44148">
        <ele>61.9</ele>
        <time>2012-08-12T17:23:28Z</time>
      </trkpt>
      <trkpt lat="46.34337" lon="-0.44106">
        <ele>60.9</ele>
        <time>2012-08-12T17:23:36Z</time>
      </trkpt>
      <trkpt lat="46.34348" lon="-0.4408">
        <ele>60.9</ele>
        <time>2012-08-12T17:23:41Z</time>
      </trkpt>
      <trkpt lat="46.34368" lon="-0.44043">
        <ele>60.9</ele>
        <time>2012-08-12T17:23:49Z</time>
      </trkpt>
      <trkpt lat="46.34387" lon="-0.44004">
        <ele>60.9</ele>
        <time>2012-08-12T17:23:57Z</time>
      </trkpt>
      <trkpt lat="46.34397" lon="-0.43986">
        <ele>59.9</ele>
        <time>2012-08-12T17:24:01Z</time>
      </trkpt>
      <trkpt lat="46.34409" lon="-0.43968">
        <ele>60.9</ele>
        <time>2012-08-12T17:24:05Z</time>
      </trkpt>
      <trkpt lat="46.3442" lon="-0.43948">
        <ele>61.9</ele>
        <time>2012-08-12T17:24:09Z</time>
      </trkpt>
      <trkpt lat="46.34439" lon="-0.43912">
        <ele>63.9</ele>
        <time>2012-08-12T17:24:16Z</time>
      </trkpt>
      <trkpt lat="46.34456" lon="-0.43873">
        <ele>63.9</ele>
        <time>2012-08-12T17:24:22Z</time>
      </trkpt>
      <trkpt lat="46.34474" lon="-0.43833">
        <ele>64.9</ele>
        <time>2012-08-12T17:24:28Z</time>
      </trkpt>
      <trkpt lat="46.34493" lon="-0.43793">
        <ele>63.9</ele>
        <time>2012-08-12T17:24:34Z</time>
      </trkpt>
      <trkpt lat="46.34509" lon="-0.43753">
        <ele>64.9</ele>
        <time>2012-08-12T17:24:40Z</time>
      </trkpt>
      <trkpt lat="46.34525" lon="-0.43715">
        <ele>65.9</ele>
        <time>2012-08-12T17:24:46Z</time>
      </trkpt>
      <trkpt lat="46.34544" lon="-0.43678">
        <ele>67.9</ele>
        <time>2012-08-12T17:24:52Z</time>
      </trkpt>
      <trkpt lat="46.34562" lon="-0.43641">
        <ele>68.9</ele>
        <time>2012-08-12T17:24:58Z</time>
      </trkpt>
      <trkpt lat="46.34581" lon="-0.43604">
        <ele>67.9</ele>
        <time>2012-08-12T17:25:04Z</time>
      </trkpt>
      <trkpt lat="46.346" lon="-0.43564">
        <ele>66.9</ele>
        <time>2012-08-12T17:25:10Z</time>
      </trkpt>
      <trkpt lat="46.3462" lon="-0.43525">
        <ele>67.9</ele>
        <time>2012-08-12T17:25:16Z</time>
      </trkpt>
      <trkpt lat="46.34637" lon="-0.43487">
        <ele>67.9</ele>
        <time>2012-08-12T17:25:22Z</time>
      </trkpt>
      <trkpt lat="46.34658" lon="-0.43451">
        <ele>67.9</ele>
        <time>2012-08-12T17:25:28Z</time>
      </trkpt>
      <trkpt lat="46.34679" lon="-0.43415">
        <ele>67.9</ele>
        <time>2012-08-12T17:25:34Z</time>
      </trkpt>
      <trkpt lat="46.34699" lon="-0.4338">
        <ele>67.9</ele>
        <time>2012-08-12T17:25:40Z</time>
      </trkpt>
      <trkpt lat="46.3472" lon="-0.43342">
        <ele>68.9</ele>
        <time>2012-08-12T17:25:46Z</time>
      </trkpt>
      <trkpt lat="46.3474" lon="-0.43303">
        <ele>78.9</ele>
        <time>2012-08-12T17:25:52Z</time>
      </trkpt>
      <trkpt lat="46.34759" lon="-0.43261">
        <ele>86.9</ele>
        <time>2012-08-12T17:25:58Z</time>
      </trkpt>
      <trkpt lat="46.34776" lon="-0.43219">
        <ele>86.9</ele>
        <time>2012-08-12T17:26:04Z</time>
      </trkpt>
      <trkpt lat="46.34794" lon="-0.43179">
        <ele>86.9</ele>
        <time>2012-08-12T17:26:10Z</time>
      </trkpt>
      <trkpt lat="46.34811" lon="-0.43141">
        <ele>83.9</ele>
        <time>2012-08-12T17:26:16Z</time>
      </trkpt>
      <trkpt lat="46.3483" lon="-0.43109">
        <ele>82.9</ele>
        <time>2012-08-12T17:26:22Z</time>
      </trkpt>
      <trkpt lat="46.34851" lon="-0.43075">
        <ele>81.9</ele>
        <time>2012-08-12T17:26:29Z</time>
      </trkpt>
      <trkpt lat="46.34871" lon="-0.43046">
        <ele>80.9</ele>
        <time>2012-08-12T17:26:35Z</time>
      </trkpt>
      <trkpt lat="46.34891" lon="-0.43017">
        <ele>81.9</ele>
        <time>2012-08-12T17:26:41Z</time>
      </trkpt>
      <trkpt lat="46.34911" lon="-0.42987">
        <ele>81.9</ele>
        <time>2012-08-12T17:26:47Z</time>
      </trkpt>
      <trkpt lat="46.34932" lon="-0.42957">
        <ele>89.9</ele>
        <time>2012-08-12T17:26:53Z</time>
      </trkpt>
      <trkpt lat="46.34953" lon="-0.42924">
        <ele>97.9</ele>
        <time>2012-08-12T17:26:59Z</time>
      </trkpt>
      <trkpt lat="46.34968" lon="-0.429">
        <ele>98.9</ele>
        <time>2012-08-12T17:27:03Z</time>
      </trkpt>
      <trkpt lat="46.34991" lon="-0.42861">
        <ele>99.9</ele>
        <time>2012-08-12T17:27:09Z</time>
      </trkpt>
      <trkpt lat="46.35012" lon="-0.42826">
        <ele>98.9</ele>
        <time>2012-08-12T17:27:14Z</time>
      </trkpt>
      <trkpt lat="46.35035" lon="-0.42788">
        <ele>97.9</ele>
        <time>2012-08-12T17:27:19Z</time>
      </trkpt>
      <trkpt lat="46.35054" lon="-0.42759">
        <ele>95.9</ele>
        <time>2012-08-12T17:27:23Z</time>
      </trkpt>
      <trkpt lat="46.35085" lon="-0.42718">
        <ele>93.9</ele>
        <time>2012-08-12T17:27:29Z</time>
      </trkpt>
      <trkpt lat="46.35117" lon="-0.42682">
        <ele>90.9</ele>
        <time>2012-08-12T17:27:34Z</time>
      </trkpt>
      <trkpt lat="46.35147" lon="-0.42653">
        <ele>90.9</ele>
        <time>2012-08-12T17:27:38Z</time>
      </trkpt>
      <trkpt lat="46.35192" lon="-0.42602">
        <ele>88.9</ele>
        <time>2012-08-12T17:27:44Z</time>
      </trkpt>
      <trkpt lat="46.35218" lon="-0.42556">
        <ele>87.9</ele>
        <time>2012-08-12T17:27:48Z</time>
      </trkpt>
      <trkpt lat="46.35246" lon="-0.42474">
        <ele>84.9</ele>
        <time>2012-08-12T17:27:54Z</time>
      </trkpt>
      <trkpt lat="46.35266" lon="-0.42401">
        <ele>84.9</ele>
        <time>2012-08-12T17:27:59Z</time>
      </trkpt>
      <trkpt lat="46.35283" lon="-0.42351">
        <ele>82.9</ele>
        <time>2012-08-12T17:28:03Z</time>
      </trkpt>
      <trkpt lat="46.35306" lon="-0.42311">
        <ele>81.9</ele>
        <time>2012-08-12T17:28:07Z</time>
      </trkpt>
      <trkpt lat="46.35331" lon="-0.42275">
        <ele>80.9</ele>
        <time>2012-08-12T17:28:11Z</time>
      </trkpt>
      <trkpt lat="46.35358" lon="-0.42205">
        <ele>79.9</ele>
        <time>2012-08-12T17:28:17Z</time>
      </trkpt>
      <trkpt lat="46.35368" lon="-0.42136">
        <ele>77.9</ele>
        <time>2012-08-12T17:28:22Z</time>
      </trkpt>
      <trkpt lat="46.35381" lon="-0.42087">
        <ele>76.9</ele>
        <time>2012-08-12T17:28:26Z</time>
      </trkpt>
      <trkpt lat="46.35407" lon="-0.42035">
        <ele>75.9</ele>
        <time>2012-08-12T17:28:32Z</time>
      </trkpt>
      <trkpt lat="46.35431" lon="-0.42001">
        <ele>75.9</ele>
        <time>2012-08-12T17:28:38Z</time>
      </trkpt>
      <trkpt lat="46.3544" lon="-0.41986">
        <ele>74.9</ele>
        <time>2012-08-12T17:28:42Z</time>
      </trkpt>
      <trkpt lat="46.35448" lon="-0.41969">
        <ele>73.9</ele>
        <time>2012-08-12T17:28:46Z</time>
      </trkpt>
      <trkpt lat="46.35463" lon="-0.41932">
        <ele>72.9</ele>
        <time>2012-08-12T17:28:54Z</time>
      </trkpt>
      <trkpt lat="46.35471" lon="-0.41913">
        <ele>73.9</ele>
        <time>2012-08-12T17:28:58Z</time>
      </trkpt>
      <trkpt lat="46.35487" lon="-0.41877">
        <ele>74.9</ele>
        <time>2012-08-12T17:29:06Z</time>
      </trkpt>
      <trkpt lat="46.35496" lon="-0.4186">
        <ele>75.9</ele>
        <time>2012-08-12T17:29:10Z</time>
      </trkpt>
      <trkpt lat="46.35507" lon="-0.41834">
        <ele>74.9</ele>
        <time>2012-08-12T17:29:16Z</time>
      </trkpt>
      <trkpt lat="46.3552" lon="-0.41799">
        <ele>72.9</ele>
        <time>2012-08-12T17:29:24Z</time>
      </trkpt>
      <trkpt lat="46.3553" lon="-0.41782">
        <ele>71.9</ele>
        <time>2012-08-12T17:29:28Z</time>
      </trkpt>
      <trkpt lat="46.35541" lon="-0.41765">
        <ele>71.9</ele>
        <time>2012-08-12T17:29:32Z</time>
      </trkpt>
      <trkpt lat="46.35563" lon="-0.41731">
        <ele>70.9</ele>
        <time>2012-08-12T17:29:40Z</time>
      </trkpt>
      <trkpt lat="46.35576" lon="-0.41712">
        <ele>69.9</ele>
        <time>2012-08-12T17:29:46Z</time>
      </trkpt>
      <trkpt lat="46.35599" lon="-0.41681">
        <ele>68.9</ele>
        <time>2012-08-12T17:29:54Z</time>
      </trkpt>
      <trkpt lat="46.35619" lon="-0.41654">
        <ele>71.9</ele>
        <time>2012-08-12T17:30:00Z</time>
      </trkpt>
      <trkpt lat="46.3564" lon="-0.41626">
        <ele>73.9</ele>
        <time>2012-08-12T17:30:06Z</time>
      </trkpt>
      <trkpt lat="46.35653" lon="-0.41608">
        <ele>74.9</ele>
        <time>2012-08-12T17:30:10Z</time>
      </trkpt>
      <trkpt lat="46.35673" lon="-0.41582">
        <ele>73.9</ele>
        <time>2012-08-12T17:30:16Z</time>
      </trkpt>
      <trkpt lat="46.35698" lon="-0.41552">
        <ele>74.9</ele>
        <time>2012-08-12T17:30:23Z</time>
      </trkpt>
      <trkpt lat="46.35722" lon="-0.41531">
        <ele>74.9</ele>
        <time>2012-08-12T17:30:29Z</time>
      </trkpt>
      <trkpt lat="46.35746" lon="-0.41507">
        <ele>75.9</ele>
        <time>2012-08-12T17:30:35Z</time>
      </trkpt>
      <trkpt lat="46.35773" lon="-0.41487">
        <ele>74.9</ele>
        <time>2012-08-12T17:30:41Z</time>
      </trkpt>
      <trkpt lat="46.35802" lon="-0.41467">
        <ele>74.9</ele>
        <time>2012-08-12T17:30:47Z</time>
      </trkpt>
      <trkpt lat="46.35831" lon="-0.41442">
        <ele>74.9</ele>
        <time>2012-08-12T17:30:53Z</time>
      </trkpt>
      <trkpt lat="46.35861" lon="-0.41416">
        <ele>73.9</ele>
        <time>2012-08-12T17:30:59Z</time>
      </trkpt>
      <trkpt lat="46.35891" lon="-0.41384">
        <ele>75.9</ele>
        <time>2012-08-12T17:31:05Z</time>
      </trkpt>
      <trkpt lat="46.3592" lon="-0.41355">
        <ele>74.9</ele>
        <time>2012-08-12T17:31:11Z</time>
      </trkpt>
      <trkpt lat="46.35949" lon="-0.41327">
        <ele>74.9</ele>
        <time>2012-08-12T17:31:17Z</time>
      </trkpt>
      <trkpt lat="46.35978" lon="-0.41299">
        <ele>73.9</ele>
        <time>2012-08-12T17:31:23Z</time>
      </trkpt>
      <trkpt lat="46.36008" lon="-0.41272">
        <ele>72.9</ele>
        <time>2012-08-12T17:31:29Z</time>
      </trkpt>
      <trkpt lat="46.36039" lon="-0.41242">
        <ele>72.9</ele>
        <time>2012-08-12T17:31:35Z</time>
      </trkpt>
      <trkpt lat="46.36071" lon="-0.41212">
        <ele>73.9</ele>
        <time>2012-08-12T17:31:41Z</time>
      </trkpt>
      <trkpt lat="46.36108" lon="-0.41182">
        <ele>73.9</ele>
        <time>2012-08-12T17:31:48Z</time>
      </trkpt>
      <trkpt lat="46.36142" lon="-0.41161">
        <ele>73.9</ele>
        <time>2012-08-12T17:31:54Z</time>
      </trkpt>
      <trkpt lat="46.36176" lon="-0.41142">
        <ele>72.9</ele>
        <time>2012-08-12T17:32:00Z</time>
      </trkpt>
      <trkpt lat="46.36204" lon="-0.41124">
        <ele>76.9</ele>
        <time>2012-08-12T17:32:06Z</time>
      </trkpt>
      <trkpt lat="46.36235" lon="-0.41108">
        <ele>77.9</ele>
        <time>2012-08-12T17:32:12Z</time>
      </trkpt>
      <trkpt lat="46.3627" lon="-0.41089">
        <ele>76.9</ele>
        <time>2012-08-12T17:32:19Z</time>
      </trkpt>
      <trkpt lat="46.36298" lon="-0.41077">
        <ele>76.9</ele>
        <time>2012-08-12T17:32:25Z</time>
      </trkpt>
      <trkpt lat="46.36313" lon="-0.41066">
        <ele>76.9</ele>
        <time>2012-08-12T17:32:29Z</time>
      </trkpt>
      <trkpt lat="46.36338" lon="-0.41035">
        <ele>76.9</ele>
        <time>2012-08-12T17:32:37Z</time>
      </trkpt>
      <trkpt lat="46.36351" lon="-0.41016">
        <ele>77.9</ele>
        <time>2012-08-12T17:32:41Z</time>
      </trkpt>
      <trkpt lat="46.36373" lon="-0.40983">
        <ele>75.9</ele>
        <time>2012-08-12T17:32:48Z</time>
      </trkpt>
      <trkpt lat="46.36393" lon="-0.40955">
        <ele>74.9</ele>
        <time>2012-08-12T17:32:54Z</time>
      </trkpt>
      <trkpt lat="46.36416" lon="-0.40925">
        <ele>73.9</ele>
        <time>2012-08-12T17:33:00Z</time>
      </trkpt>
      <trkpt lat="46.36439" lon="-0.40894">
        <ele>72.9</ele>
        <time>2012-08-12T17:33:06Z</time>
      </trkpt>
      <trkpt lat="46.36462" lon="-0.40861">
        <ele>73.9</ele>
        <time>2012-08-12T17:33:12Z</time>
      </trkpt>
      <trkpt lat="46.36486" lon="-0.40829">
        <ele>72.9</ele>
        <time>2012-08-12T17:33:18Z</time>
      </trkpt>
      <trkpt lat="46.36508" lon="-0.408">
        <ele>72.9</ele>
        <time>2012-08-12T17:33:24Z</time>
      </trkpt>
      <trkpt lat="46.36523" lon="-0.40779">
        <ele>72.9</ele>
        <time>2012-08-12T17:33:28Z</time>
      </trkpt>
      <trkpt lat="46.3655" lon="-0.40755">
        <ele>72.9</ele>
        <time>2012-08-12T17:33:34Z</time>
      </trkpt>
      <trkpt lat="46.3658" lon="-0.40738">
        <ele>72.9</ele>
        <time>2012-08-12T17:33:40Z</time>
      </trkpt>
      <trkpt lat="46.36612" lon="-0.40726">
        <ele>69.9</ele>
        <time>2012-08-12T17:33:46Z</time>
      </trkpt>
      <trkpt lat="46.36641" lon="-0.40711">
        <ele>70.9</ele>
        <time>2012-08-12T17:33:52Z</time>
      </trkpt>
      <trkpt lat="46.3667" lon="-0.40697">
        <ele>70.9</ele>
        <time>2012-08-12T17:33:58Z</time>
      </trkpt>
      <trkpt lat="46.367" lon="-0.40681">
        <ele>71.9</ele>
        <time>2012-08-12T17:34:05Z</time>
      </trkpt>
      <trkpt lat="46.36733" lon="-0.40664">
        <ele>74.9</ele>
        <time>2012-08-12T17:34:12Z</time>
      </trkpt>
      <trkpt lat="46.36762" lon="-0.4065">
        <ele>76.9</ele>
        <time>2012-08-12T17:34:18Z</time>
      </trkpt>
      <trkpt lat="46.36792" lon="-0.40633">
        <ele>77.9</ele>
        <time>2012-08-12T17:34:24Z</time>
      </trkpt>
      <trkpt lat="46.36822" lon="-0.40617">
        <ele>76.9</ele>
        <time>2012-08-12T17:34:30Z</time>
      </trkpt>
      <trkpt lat="46.36853" lon="-0.40599">
        <ele>75.9</ele>
        <time>2012-08-12T17:34:36Z</time>
      </trkpt>
      <trkpt lat="46.36888" lon="-0.40576">
        <ele>76.9</ele>
        <time>2012-08-12T17:34:42Z</time>
      </trkpt>
      <trkpt lat="46.36929" lon="-0.40553">
        <ele>76.9</ele>
        <time>2012-08-12T17:34:48Z</time>
      </trkpt>
      <trkpt lat="46.36961" lon="-0.40534">
        <ele>76.9</ele>
        <time>2012-08-12T17:34:52Z</time>
      </trkpt>
      <trkpt lat="46.37012" lon="-0.40483">
        <ele>76.9</ele>
        <time>2012-08-12T17:34:58Z</time>
      </trkpt>
      <trkpt lat="46.37045" lon="-0.40433">
        <ele>77.9</ele>
        <time>2012-08-12T17:35:03Z</time>
      </trkpt>
      <trkpt lat="46.37075" lon="-0.40369">
        <ele>78.9</ele>
        <time>2012-08-12T17:35:09Z</time>
      </trkpt>
      <trkpt lat="46.37096" lon="-0.4033">
        <ele>78.9</ele>
        <time>2012-08-12T17:35:13Z</time>
      </trkpt>
      <trkpt lat="46.37143" lon="-0.40285">
        <ele>79.9</ele>
        <time>2012-08-12T17:35:19Z</time>
      </trkpt>
      <trkpt lat="46.3718" lon="-0.40267">
        <ele>78.9</ele>
        <time>2012-08-12T17:35:23Z</time>
      </trkpt>
      <trkpt lat="46.3723" lon="-0.40253">
        <ele>76.9</ele>
        <time>2012-08-12T17:35:29Z</time>
      </trkpt>
      <trkpt lat="46.37261" lon="-0.40248">
        <ele>75.9</ele>
        <time>2012-08-12T17:35:33Z</time>
      </trkpt>
      <trkpt lat="46.37304" lon="-0.40245">
        <ele>75.9</ele>
        <time>2012-08-12T17:35:39Z</time>
      </trkpt>
      <trkpt lat="46.37336" lon="-0.40236">
        <ele>74.9</ele>
        <time>2012-08-12T17:35:44Z</time>
      </trkpt>
      <trkpt lat="46.37372" lon="-0.40221">
        <ele>73.9</ele>
        <time>2012-08-12T17:35:50Z</time>
      </trkpt>
      <trkpt lat="46.37405" lon="-0.40204">
        <ele>72.9</ele>
        <time>2012-08-12T17:35:56Z</time>
      </trkpt>
      <trkpt lat="46.37439" lon="-0.40185">
        <ele>72.9</ele>
        <time>2012-08-12T17:36:02Z</time>
      </trkpt>
      <trkpt lat="46.37471" lon="-0.40169">
        <ele>68.9</ele>
        <time>2012-08-12T17:36:08Z</time>
      </trkpt>
      <trkpt lat="46.37502" lon="-0.40154">
        <ele>65.9</ele>
        <time>2012-08-12T17:36:13Z</time>
      </trkpt>
      <trkpt lat="46.37541" lon="-0.40126">
        <ele>62.9</ele>
        <time>2012-08-12T17:36:19Z</time>
      </trkpt>
      <trkpt lat="46.3757" lon="-0.40114">
        <ele>61.9</ele>
        <time>2012-08-12T17:36:23Z</time>
      </trkpt>
      <trkpt lat="46.37613" lon="-0.4009">
        <ele>61.9</ele>
        <time>2012-08-12T17:36:29Z</time>
      </trkpt>
      <trkpt lat="46.37655" lon="-0.40064">
        <ele>61.9</ele>
        <time>2012-08-12T17:36:35Z</time>
      </trkpt>
      <trkpt lat="46.37697" lon="-0.40039">
        <ele>61.9</ele>
        <time>2012-08-12T17:36:41Z</time>
      </trkpt>
      <trkpt lat="46.37738" lon="-0.40019">
        <ele>62.9</ele>
        <time>2012-08-12T17:36:47Z</time>
      </trkpt>
      <trkpt lat="46.37766" lon="-0.40008">
        <ele>61.9</ele>
        <time>2012-08-12T17:36:51Z</time>
      </trkpt>
      <trkpt lat="46.37812" lon="-0.39986">
        <ele>59.9</ele>
        <time>2012-08-12T17:36:58Z</time>
      </trkpt>
      <trkpt lat="46.37848" lon="-0.39972">
        <ele>61.9</ele>
        <time>2012-08-12T17:37:04Z</time>
      </trkpt>
      <trkpt lat="46.37887" lon="-0.39965">
        <ele>71.9</ele>
        <time>2012-08-12T17:37:10Z</time>
      </trkpt>
      <trkpt lat="46.37923" lon="-0.39954">
        <ele>75.9</ele>
        <time>2012-08-12T17:37:16Z</time>
      </trkpt>
      <trkpt lat="46.37955" lon="-0.39938">
        <ele>76.9</ele>
        <time>2012-08-12T17:37:22Z</time>
      </trkpt>
      <trkpt lat="46.37984" lon="-0.3991">
        <ele>75.9</ele>
        <time>2012-08-12T17:37:28Z</time>
      </trkpt>
      <trkpt lat="46.38011" lon="-0.39877">
        <ele>73.9</ele>
        <time>2012-08-12T17:37:34Z</time>
      </trkpt>
      <trkpt lat="46.38029" lon="-0.3985">
        <ele>72.9</ele>
        <time>2012-08-12T17:37:38Z</time>
      </trkpt>
      <trkpt lat="46.38056" lon="-0.39807">
        <ele>71.9</ele>
        <time>2012-08-12T17:37:44Z</time>
      </trkpt>
      <trkpt lat="46.38075" lon="-0.39779">
        <ele>70.9</ele>
        <time>2012-08-12T17:37:48Z</time>
      </trkpt>
      <trkpt lat="46.38105" lon="-0.39743">
        <ele>67.9</ele>
        <time>2012-08-12T17:37:54Z</time>
      </trkpt>
      <trkpt lat="46.38125" lon="-0.39725">
        <ele>66.9</ele>
        <time>2012-08-12T17:37:58Z</time>
      </trkpt>
      <trkpt lat="46.38152" lon="-0.39706">
        <ele>66.9</ele>
        <time>2012-08-12T17:38:04Z</time>
      </trkpt>
      <trkpt lat="46.38159" lon="-0.39677">
        <ele>62.9</ele>
        <time>2012-08-12T17:38:19Z</time>
      </trkpt>
      <trkpt lat="46.38138" lon="-0.39669">
        <ele>57.9</ele>
        <time>2012-08-12T17:38:32Z</time>
      </trkpt>
      <trkpt lat="46.38116" lon="-0.39674">
        <ele>55.9</ele>
        <time>2012-08-12T17:38:52Z</time>
      </trkpt>
      <trkpt lat="46.38116" lon="-0.39674">
        <ele>57.1</ele>
        <time>2012-08-12T17:38:57Z</time>
      </trkpt>
    </trkseg>
  </trk>
</gpx>